<?xml version="1.0" encoding="UTF-8" standalone="no" ?>
<gpx xmlns="http://www.topografix.com/GPX/1/1" xmlns:xsi="http://www.w3.org/2001/XMLSchema-instance" xsi:schemaLocation="http://www.topografix.com/GPX/1/1 http://www.topografix.com/GPX/1/1/gpx.xsd" version="1.1" creator="VisuGPX - https://www.visugpx.com">
  <metadata>
    <name>VTT XC / AM Grabels</name>
    <desc><![CDATA[Sortie roulante en périphérie de Grabels pistes et singles.]]></desc>
  </metadata>
  <trk>
    <name><![CDATA[VTT XC / AM Grabels_1]]></name>
    <trkseg>
      <trkpt lat="43.63764" lon="3.82856">
        <ele>134.5</ele>
        <time>2017-10-24T10:39:49Z</time>
      </trkpt>
      <trkpt lat="43.63764" lon="3.82856">
        <ele>134.5</ele>
        <time>2017-10-24T10:40:14Z</time>
      </trkpt>
      <trkpt lat="43.63764" lon="3.82849">
        <ele>135.1</ele>
        <time>2017-10-24T10:40:21Z</time>
      </trkpt>
      <trkpt lat="43.63772" lon="3.82847">
        <ele>135.5</ele>
        <time>2017-10-24T10:40:36Z</time>
      </trkpt>
      <trkpt lat="43.63773" lon="3.82837">
        <ele>135.5</ele>
        <time>2017-10-24T10:40:41Z</time>
      </trkpt>
      <trkpt lat="43.63765" lon="3.82829">
        <ele>135.6</ele>
        <time>2017-10-24T10:40:43Z</time>
      </trkpt>
      <trkpt lat="43.63768" lon="3.82818">
        <ele>135.7</ele>
        <time>2017-10-24T10:40:46Z</time>
      </trkpt>
      <trkpt lat="43.6378" lon="3.82811">
        <ele>135.6</ele>
        <time>2017-10-24T10:40:48Z</time>
      </trkpt>
      <trkpt lat="43.63787" lon="3.82805">
        <ele>135.3</ele>
        <time>2017-10-24T10:40:50Z</time>
      </trkpt>
      <trkpt lat="43.63794" lon="3.82802">
        <ele>134.9</ele>
        <time>2017-10-24T10:40:52Z</time>
      </trkpt>
      <trkpt lat="43.63802" lon="3.82798">
        <ele>134.6</ele>
        <time>2017-10-24T10:40:54Z</time>
      </trkpt>
      <trkpt lat="43.6381" lon="3.82795">
        <ele>134.2</ele>
        <time>2017-10-24T10:40:56Z</time>
      </trkpt>
      <trkpt lat="43.63817" lon="3.82792">
        <ele>133.9</ele>
        <time>2017-10-24T10:40:58Z</time>
      </trkpt>
      <trkpt lat="43.63824" lon="3.82787">
        <ele>133.7</ele>
        <time>2017-10-24T10:41:00Z</time>
      </trkpt>
      <trkpt lat="43.63835" lon="3.82786">
        <ele>132.9</ele>
        <time>2017-10-24T10:41:03Z</time>
      </trkpt>
      <trkpt lat="43.63842" lon="3.8279">
        <ele>132.8</ele>
        <time>2017-10-24T10:41:05Z</time>
      </trkpt>
      <trkpt lat="43.63851" lon="3.82785">
        <ele>131.9</ele>
        <time>2017-10-24T10:41:08Z</time>
      </trkpt>
      <trkpt lat="43.63857" lon="3.8278">
        <ele>131.5</ele>
        <time>2017-10-24T10:41:11Z</time>
      </trkpt>
      <trkpt lat="43.63864" lon="3.82775">
        <ele>131.1</ele>
        <time>2017-10-24T10:41:14Z</time>
      </trkpt>
      <trkpt lat="43.63872" lon="3.82773">
        <ele>130.8</ele>
        <time>2017-10-24T10:41:16Z</time>
      </trkpt>
      <trkpt lat="43.6388" lon="3.8278">
        <ele>130.6</ele>
        <time>2017-10-24T10:41:18Z</time>
      </trkpt>
      <trkpt lat="43.63885" lon="3.82788">
        <ele>130.5</ele>
        <time>2017-10-24T10:41:20Z</time>
      </trkpt>
      <trkpt lat="43.63891" lon="3.82798">
        <ele>130.3</ele>
        <time>2017-10-24T10:41:23Z</time>
      </trkpt>
      <trkpt lat="43.63899" lon="3.82803">
        <ele>130.2</ele>
        <time>2017-10-24T10:41:26Z</time>
      </trkpt>
      <trkpt lat="43.63906" lon="3.82808">
        <ele>130.2</ele>
        <time>2017-10-24T10:41:29Z</time>
      </trkpt>
      <trkpt lat="43.63911" lon="3.82817">
        <ele>130.2</ele>
        <time>2017-10-24T10:41:31Z</time>
      </trkpt>
      <trkpt lat="43.63917" lon="3.82827">
        <ele>130.1</ele>
        <time>2017-10-24T10:41:34Z</time>
      </trkpt>
      <trkpt lat="43.63924" lon="3.82829">
        <ele>129.7</ele>
        <time>2017-10-24T10:41:41Z</time>
      </trkpt>
      <trkpt lat="43.63925" lon="3.82826">
        <ele>129.1</ele>
        <time>2017-10-24T10:41:48Z</time>
      </trkpt>
      <trkpt lat="43.63928" lon="3.82822">
        <ele>128.3</ele>
        <time>2017-10-24T10:41:55Z</time>
      </trkpt>
      <trkpt lat="43.63938" lon="3.82818">
        <ele>127.8</ele>
        <time>2017-10-24T10:41:58Z</time>
      </trkpt>
      <trkpt lat="43.63944" lon="3.82812">
        <ele>127.5</ele>
        <time>2017-10-24T10:42:00Z</time>
      </trkpt>
      <trkpt lat="43.63951" lon="3.82806">
        <ele>127</ele>
        <time>2017-10-24T10:42:03Z</time>
      </trkpt>
      <trkpt lat="43.63959" lon="3.82802">
        <ele>125.7</ele>
        <time>2017-10-24T10:42:05Z</time>
      </trkpt>
      <trkpt lat="43.63967" lon="3.82796">
        <ele>125.1</ele>
        <time>2017-10-24T10:42:07Z</time>
      </trkpt>
      <trkpt lat="43.63978" lon="3.82793">
        <ele>125.1</ele>
        <time>2017-10-24T10:42:09Z</time>
      </trkpt>
      <trkpt lat="43.63989" lon="3.82789">
        <ele>125.3</ele>
        <time>2017-10-24T10:42:11Z</time>
      </trkpt>
      <trkpt lat="43.63998" lon="3.82788">
        <ele>125.6</ele>
        <time>2017-10-24T10:42:13Z</time>
      </trkpt>
      <trkpt lat="43.64005" lon="3.82781">
        <ele>126.7</ele>
        <time>2017-10-24T10:42:15Z</time>
      </trkpt>
      <trkpt lat="43.6401" lon="3.8277">
        <ele>127.9</ele>
        <time>2017-10-24T10:42:18Z</time>
      </trkpt>
      <trkpt lat="43.64018" lon="3.82763">
        <ele>128.2</ele>
        <time>2017-10-24T10:42:21Z</time>
      </trkpt>
      <trkpt lat="43.64027" lon="3.82758">
        <ele>128.4</ele>
        <time>2017-10-24T10:42:24Z</time>
      </trkpt>
      <trkpt lat="43.64036" lon="3.82751">
        <ele>129.6</ele>
        <time>2017-10-24T10:42:26Z</time>
      </trkpt>
      <trkpt lat="43.64043" lon="3.82746">
        <ele>129.9</ele>
        <time>2017-10-24T10:42:28Z</time>
      </trkpt>
      <trkpt lat="43.6405" lon="3.82739">
        <ele>130.1</ele>
        <time>2017-10-24T10:42:30Z</time>
      </trkpt>
      <trkpt lat="43.64057" lon="3.82734">
        <ele>130.4</ele>
        <time>2017-10-24T10:42:32Z</time>
      </trkpt>
      <trkpt lat="43.64063" lon="3.82728">
        <ele>130.6</ele>
        <time>2017-10-24T10:42:34Z</time>
      </trkpt>
      <trkpt lat="43.6407" lon="3.82722">
        <ele>130.8</ele>
        <time>2017-10-24T10:42:36Z</time>
      </trkpt>
      <trkpt lat="43.64078" lon="3.82717">
        <ele>131.9</ele>
        <time>2017-10-24T10:42:38Z</time>
      </trkpt>
      <trkpt lat="43.64085" lon="3.82712">
        <ele>132.1</ele>
        <time>2017-10-24T10:42:40Z</time>
      </trkpt>
      <trkpt lat="43.64091" lon="3.82707">
        <ele>132.3</ele>
        <time>2017-10-24T10:42:42Z</time>
      </trkpt>
      <trkpt lat="43.64098" lon="3.82697">
        <ele>132.5</ele>
        <time>2017-10-24T10:42:45Z</time>
      </trkpt>
      <trkpt lat="43.64105" lon="3.82689">
        <ele>132.8</ele>
        <time>2017-10-24T10:42:48Z</time>
      </trkpt>
      <trkpt lat="43.64114" lon="3.82679">
        <ele>133</ele>
        <time>2017-10-24T10:42:51Z</time>
      </trkpt>
      <trkpt lat="43.64122" lon="3.82671">
        <ele>133.2</ele>
        <time>2017-10-24T10:42:54Z</time>
      </trkpt>
      <trkpt lat="43.64127" lon="3.82664">
        <ele>133.3</ele>
        <time>2017-10-24T10:42:56Z</time>
      </trkpt>
      <trkpt lat="43.64133" lon="3.82657">
        <ele>133.4</ele>
        <time>2017-10-24T10:42:58Z</time>
      </trkpt>
      <trkpt lat="43.64139" lon="3.82651">
        <ele>133.6</ele>
        <time>2017-10-24T10:43:00Z</time>
      </trkpt>
      <trkpt lat="43.64145" lon="3.82644">
        <ele>133.8</ele>
        <time>2017-10-24T10:43:02Z</time>
      </trkpt>
      <trkpt lat="43.64152" lon="3.82636">
        <ele>134.1</ele>
        <time>2017-10-24T10:43:05Z</time>
      </trkpt>
      <trkpt lat="43.64159" lon="3.82628">
        <ele>134.3</ele>
        <time>2017-10-24T10:43:08Z</time>
      </trkpt>
      <trkpt lat="43.64166" lon="3.82621">
        <ele>134.5</ele>
        <time>2017-10-24T10:43:11Z</time>
      </trkpt>
      <trkpt lat="43.64171" lon="3.82614">
        <ele>134.6</ele>
        <time>2017-10-24T10:43:13Z</time>
      </trkpt>
      <trkpt lat="43.64177" lon="3.82605">
        <ele>134.8</ele>
        <time>2017-10-24T10:43:16Z</time>
      </trkpt>
      <trkpt lat="43.64183" lon="3.82599">
        <ele>134.9</ele>
        <time>2017-10-24T10:43:18Z</time>
      </trkpt>
      <trkpt lat="43.64189" lon="3.82592">
        <ele>135</ele>
        <time>2017-10-24T10:43:20Z</time>
      </trkpt>
      <trkpt lat="43.64196" lon="3.82581">
        <ele>135.2</ele>
        <time>2017-10-24T10:43:23Z</time>
      </trkpt>
      <trkpt lat="43.64201" lon="3.82574">
        <ele>135.3</ele>
        <time>2017-10-24T10:43:25Z</time>
      </trkpt>
      <trkpt lat="43.64208" lon="3.82563">
        <ele>135.5</ele>
        <time>2017-10-24T10:43:28Z</time>
      </trkpt>
      <trkpt lat="43.64213" lon="3.82552">
        <ele>135.7</ele>
        <time>2017-10-24T10:43:31Z</time>
      </trkpt>
      <trkpt lat="43.64218" lon="3.82541">
        <ele>135.9</ele>
        <time>2017-10-24T10:43:34Z</time>
      </trkpt>
      <trkpt lat="43.64224" lon="3.82529">
        <ele>136.1</ele>
        <time>2017-10-24T10:43:37Z</time>
      </trkpt>
      <trkpt lat="43.6423" lon="3.82519">
        <ele>136.4</ele>
        <time>2017-10-24T10:43:40Z</time>
      </trkpt>
      <trkpt lat="43.64235" lon="3.82511">
        <ele>136.5</ele>
        <time>2017-10-24T10:43:42Z</time>
      </trkpt>
      <trkpt lat="43.64241" lon="3.82498">
        <ele>136.7</ele>
        <time>2017-10-24T10:43:45Z</time>
      </trkpt>
      <trkpt lat="43.64245" lon="3.82489">
        <ele>136.8</ele>
        <time>2017-10-24T10:43:47Z</time>
      </trkpt>
      <trkpt lat="43.64251" lon="3.82476">
        <ele>136.9</ele>
        <time>2017-10-24T10:43:50Z</time>
      </trkpt>
      <trkpt lat="43.64254" lon="3.82465">
        <ele>136.9</ele>
        <time>2017-10-24T10:43:52Z</time>
      </trkpt>
      <trkpt lat="43.64258" lon="3.82456">
        <ele>137</ele>
        <time>2017-10-24T10:43:54Z</time>
      </trkpt>
      <trkpt lat="43.64262" lon="3.82447">
        <ele>137.1</ele>
        <time>2017-10-24T10:43:56Z</time>
      </trkpt>
      <trkpt lat="43.64266" lon="3.82438">
        <ele>137.1</ele>
        <time>2017-10-24T10:43:58Z</time>
      </trkpt>
      <trkpt lat="43.6427" lon="3.82426">
        <ele>137.3</ele>
        <time>2017-10-24T10:44:01Z</time>
      </trkpt>
      <trkpt lat="43.64275" lon="3.82414">
        <ele>137.4</ele>
        <time>2017-10-24T10:44:04Z</time>
      </trkpt>
      <trkpt lat="43.64279" lon="3.82405">
        <ele>137.5</ele>
        <time>2017-10-24T10:44:06Z</time>
      </trkpt>
      <trkpt lat="43.64285" lon="3.82396">
        <ele>137.7</ele>
        <time>2017-10-24T10:44:08Z</time>
      </trkpt>
      <trkpt lat="43.64291" lon="3.8239">
        <ele>137.9</ele>
        <time>2017-10-24T10:44:10Z</time>
      </trkpt>
      <trkpt lat="43.64299" lon="3.82384">
        <ele>138.3</ele>
        <time>2017-10-24T10:44:13Z</time>
      </trkpt>
      <trkpt lat="43.64304" lon="3.82371">
        <ele>138.5</ele>
        <time>2017-10-24T10:44:16Z</time>
      </trkpt>
      <trkpt lat="43.64306" lon="3.82361">
        <ele>138.6</ele>
        <time>2017-10-24T10:44:19Z</time>
      </trkpt>
      <trkpt lat="43.64308" lon="3.82351">
        <ele>138.6</ele>
        <time>2017-10-24T10:44:21Z</time>
      </trkpt>
      <trkpt lat="43.64311" lon="3.8234">
        <ele>138.6</ele>
        <time>2017-10-24T10:44:23Z</time>
      </trkpt>
      <trkpt lat="43.64316" lon="3.82329">
        <ele>138.7</ele>
        <time>2017-10-24T10:44:26Z</time>
      </trkpt>
      <trkpt lat="43.64319" lon="3.8232">
        <ele>138.7</ele>
        <time>2017-10-24T10:44:28Z</time>
      </trkpt>
      <trkpt lat="43.64323" lon="3.82308">
        <ele>138.7</ele>
        <time>2017-10-24T10:44:31Z</time>
      </trkpt>
      <trkpt lat="43.64328" lon="3.82297">
        <ele>138.7</ele>
        <time>2017-10-24T10:44:34Z</time>
      </trkpt>
      <trkpt lat="43.64332" lon="3.82287">
        <ele>138.6</ele>
        <time>2017-10-24T10:44:37Z</time>
      </trkpt>
      <trkpt lat="43.64338" lon="3.82277">
        <ele>138.7</ele>
        <time>2017-10-24T10:44:40Z</time>
      </trkpt>
      <trkpt lat="43.64344" lon="3.82269">
        <ele>138.8</ele>
        <time>2017-10-24T10:44:43Z</time>
      </trkpt>
      <trkpt lat="43.64351" lon="3.82259">
        <ele>138.9</ele>
        <time>2017-10-24T10:44:46Z</time>
      </trkpt>
      <trkpt lat="43.64358" lon="3.82253">
        <ele>138.9</ele>
        <time>2017-10-24T10:44:48Z</time>
      </trkpt>
      <trkpt lat="43.64361" lon="3.82242">
        <ele>138.6</ele>
        <time>2017-10-24T10:44:54Z</time>
      </trkpt>
      <trkpt lat="43.64362" lon="3.82229">
        <ele>138.5</ele>
        <time>2017-10-24T10:44:58Z</time>
      </trkpt>
      <trkpt lat="43.6436" lon="3.82218">
        <ele>138.5</ele>
        <time>2017-10-24T10:45:01Z</time>
      </trkpt>
      <trkpt lat="43.64356" lon="3.82209">
        <ele>138.4</ele>
        <time>2017-10-24T10:45:04Z</time>
      </trkpt>
      <trkpt lat="43.64351" lon="3.82199">
        <ele>138.3</ele>
        <time>2017-10-24T10:45:08Z</time>
      </trkpt>
      <trkpt lat="43.64345" lon="3.82188">
        <ele>138</ele>
        <time>2017-10-24T10:45:14Z</time>
      </trkpt>
      <trkpt lat="43.6434" lon="3.82176">
        <ele>137.9</ele>
        <time>2017-10-24T10:45:17Z</time>
      </trkpt>
      <trkpt lat="43.64337" lon="3.82167">
        <ele>137.9</ele>
        <time>2017-10-24T10:45:19Z</time>
      </trkpt>
      <trkpt lat="43.64334" lon="3.82158">
        <ele>138</ele>
        <time>2017-10-24T10:45:22Z</time>
      </trkpt>
      <trkpt lat="43.64332" lon="3.82146">
        <ele>138.1</ele>
        <time>2017-10-24T10:45:25Z</time>
      </trkpt>
      <trkpt lat="43.64332" lon="3.82135">
        <ele>138.5</ele>
        <time>2017-10-24T10:45:28Z</time>
      </trkpt>
      <trkpt lat="43.64331" lon="3.82122">
        <ele>140.2</ele>
        <time>2017-10-24T10:45:31Z</time>
      </trkpt>
      <trkpt lat="43.6433" lon="3.82111">
        <ele>140.4</ele>
        <time>2017-10-24T10:45:33Z</time>
      </trkpt>
      <trkpt lat="43.64331" lon="3.82097">
        <ele>140.9</ele>
        <time>2017-10-24T10:45:37Z</time>
      </trkpt>
      <trkpt lat="43.64333" lon="3.82086">
        <ele>141.3</ele>
        <time>2017-10-24T10:45:40Z</time>
      </trkpt>
      <trkpt lat="43.64338" lon="3.82074">
        <ele>141.8</ele>
        <time>2017-10-24T10:45:44Z</time>
      </trkpt>
      <trkpt lat="43.64343" lon="3.82065">
        <ele>142.3</ele>
        <time>2017-10-24T10:45:47Z</time>
      </trkpt>
      <trkpt lat="43.64347" lon="3.82054">
        <ele>142.7</ele>
        <time>2017-10-24T10:45:50Z</time>
      </trkpt>
      <trkpt lat="43.64352" lon="3.82045">
        <ele>143.1</ele>
        <time>2017-10-24T10:45:53Z</time>
      </trkpt>
      <trkpt lat="43.64355" lon="3.82035">
        <ele>143.4</ele>
        <time>2017-10-24T10:45:55Z</time>
      </trkpt>
      <trkpt lat="43.64359" lon="3.82025">
        <ele>143.7</ele>
        <time>2017-10-24T10:45:58Z</time>
      </trkpt>
      <trkpt lat="43.64366" lon="3.82013">
        <ele>144.1</ele>
        <time>2017-10-24T10:46:01Z</time>
      </trkpt>
      <trkpt lat="43.6437" lon="3.82004">
        <ele>144.4</ele>
        <time>2017-10-24T10:46:03Z</time>
      </trkpt>
      <trkpt lat="43.64375" lon="3.81994">
        <ele>144.7</ele>
        <time>2017-10-24T10:46:06Z</time>
      </trkpt>
      <trkpt lat="43.64378" lon="3.81984">
        <ele>145</ele>
        <time>2017-10-24T10:46:09Z</time>
      </trkpt>
      <trkpt lat="43.64381" lon="3.81973">
        <ele>145.3</ele>
        <time>2017-10-24T10:46:12Z</time>
      </trkpt>
      <trkpt lat="43.64385" lon="3.81964">
        <ele>145.7</ele>
        <time>2017-10-24T10:46:14Z</time>
      </trkpt>
      <trkpt lat="43.64392" lon="3.81953">
        <ele>146</ele>
        <time>2017-10-24T10:46:17Z</time>
      </trkpt>
      <trkpt lat="43.64395" lon="3.81942">
        <ele>146.6</ele>
        <time>2017-10-24T10:46:21Z</time>
      </trkpt>
      <trkpt lat="43.64396" lon="3.81933">
        <ele>146.8</ele>
        <time>2017-10-24T10:46:24Z</time>
      </trkpt>
      <trkpt lat="43.64401" lon="3.81922">
        <ele>147</ele>
        <time>2017-10-24T10:46:28Z</time>
      </trkpt>
      <trkpt lat="43.64405" lon="3.81913">
        <ele>147.3</ele>
        <time>2017-10-24T10:46:31Z</time>
      </trkpt>
      <trkpt lat="43.64408" lon="3.81902">
        <ele>147.6</ele>
        <time>2017-10-24T10:46:35Z</time>
      </trkpt>
      <trkpt lat="43.64409" lon="3.81891">
        <ele>147.9</ele>
        <time>2017-10-24T10:46:38Z</time>
      </trkpt>
      <trkpt lat="43.64408" lon="3.81879">
        <ele>148.2</ele>
        <time>2017-10-24T10:46:41Z</time>
      </trkpt>
      <trkpt lat="43.64408" lon="3.81867">
        <ele>148.7</ele>
        <time>2017-10-24T10:46:44Z</time>
      </trkpt>
      <trkpt lat="43.64408" lon="3.81856">
        <ele>149.3</ele>
        <time>2017-10-24T10:46:47Z</time>
      </trkpt>
      <trkpt lat="43.64408" lon="3.81846">
        <ele>150.3</ele>
        <time>2017-10-24T10:46:51Z</time>
      </trkpt>
      <trkpt lat="43.64406" lon="3.81832">
        <ele>151</ele>
        <time>2017-10-24T10:46:54Z</time>
      </trkpt>
      <trkpt lat="43.64408" lon="3.81818">
        <ele>151.5</ele>
        <time>2017-10-24T10:46:57Z</time>
      </trkpt>
      <trkpt lat="43.64414" lon="3.81807">
        <ele>152</ele>
        <time>2017-10-24T10:47:01Z</time>
      </trkpt>
      <trkpt lat="43.64413" lon="3.81797">
        <ele>152.4</ele>
        <time>2017-10-24T10:47:04Z</time>
      </trkpt>
      <trkpt lat="43.64408" lon="3.81783">
        <ele>153.1</ele>
        <time>2017-10-24T10:47:08Z</time>
      </trkpt>
      <trkpt lat="43.64401" lon="3.81773">
        <ele>153.7</ele>
        <time>2017-10-24T10:47:11Z</time>
      </trkpt>
      <trkpt lat="43.64395" lon="3.81762">
        <ele>154.2</ele>
        <time>2017-10-24T10:47:14Z</time>
      </trkpt>
      <trkpt lat="43.6439" lon="3.8175">
        <ele>154.7</ele>
        <time>2017-10-24T10:47:17Z</time>
      </trkpt>
      <trkpt lat="43.64385" lon="3.81742">
        <ele>155</ele>
        <time>2017-10-24T10:47:19Z</time>
      </trkpt>
      <trkpt lat="43.64381" lon="3.81734">
        <ele>155.3</ele>
        <time>2017-10-24T10:47:21Z</time>
      </trkpt>
      <trkpt lat="43.64376" lon="3.81726">
        <ele>155.6</ele>
        <time>2017-10-24T10:47:23Z</time>
      </trkpt>
      <trkpt lat="43.64372" lon="3.81715">
        <ele>158.1</ele>
        <time>2017-10-24T10:47:25Z</time>
      </trkpt>
      <trkpt lat="43.64368" lon="3.81702">
        <ele>158.4</ele>
        <time>2017-10-24T10:47:28Z</time>
      </trkpt>
      <trkpt lat="43.64364" lon="3.8169">
        <ele>158.7</ele>
        <time>2017-10-24T10:47:31Z</time>
      </trkpt>
      <trkpt lat="43.64361" lon="3.8168">
        <ele>158.8</ele>
        <time>2017-10-24T10:47:33Z</time>
      </trkpt>
      <trkpt lat="43.64358" lon="3.81669">
        <ele>159</ele>
        <time>2017-10-24T10:47:36Z</time>
      </trkpt>
      <trkpt lat="43.64353" lon="3.81657">
        <ele>159.1</ele>
        <time>2017-10-24T10:47:39Z</time>
      </trkpt>
      <trkpt lat="43.64349" lon="3.81648">
        <ele>159.1</ele>
        <time>2017-10-24T10:47:41Z</time>
      </trkpt>
      <trkpt lat="43.64345" lon="3.81637">
        <ele>159.2</ele>
        <time>2017-10-24T10:47:44Z</time>
      </trkpt>
      <trkpt lat="43.64341" lon="3.81625">
        <ele>159.2</ele>
        <time>2017-10-24T10:47:47Z</time>
      </trkpt>
      <trkpt lat="43.64338" lon="3.81616">
        <ele>159.3</ele>
        <time>2017-10-24T10:47:49Z</time>
      </trkpt>
      <trkpt lat="43.64334" lon="3.81606">
        <ele>159.3</ele>
        <time>2017-10-24T10:47:51Z</time>
      </trkpt>
      <trkpt lat="43.64331" lon="3.81596">
        <ele>159.3</ele>
        <time>2017-10-24T10:47:53Z</time>
      </trkpt>
      <trkpt lat="43.64328" lon="3.81586">
        <ele>159.3</ele>
        <time>2017-10-24T10:47:55Z</time>
      </trkpt>
      <trkpt lat="43.64325" lon="3.81577">
        <ele>159.2</ele>
        <time>2017-10-24T10:47:57Z</time>
      </trkpt>
      <trkpt lat="43.64322" lon="3.81563">
        <ele>159.1</ele>
        <time>2017-10-24T10:48:00Z</time>
      </trkpt>
      <trkpt lat="43.6432" lon="3.81552">
        <ele>159.1</ele>
        <time>2017-10-24T10:48:02Z</time>
      </trkpt>
      <trkpt lat="43.64317" lon="3.8154">
        <ele>159.2</ele>
        <time>2017-10-24T10:48:04Z</time>
      </trkpt>
      <trkpt lat="43.64314" lon="3.81528">
        <ele>159.6</ele>
        <time>2017-10-24T10:48:06Z</time>
      </trkpt>
      <trkpt lat="43.64312" lon="3.81515">
        <ele>159.7</ele>
        <time>2017-10-24T10:48:08Z</time>
      </trkpt>
      <trkpt lat="43.64309" lon="3.81502">
        <ele>159.7</ele>
        <time>2017-10-24T10:48:10Z</time>
      </trkpt>
      <trkpt lat="43.64306" lon="3.81488">
        <ele>160</ele>
        <time>2017-10-24T10:48:12Z</time>
      </trkpt>
      <trkpt lat="43.64301" lon="3.81474">
        <ele>160.1</ele>
        <time>2017-10-24T10:48:14Z</time>
      </trkpt>
      <trkpt lat="43.64297" lon="3.8146">
        <ele>160.3</ele>
        <time>2017-10-24T10:48:16Z</time>
      </trkpt>
      <trkpt lat="43.64292" lon="3.81439">
        <ele>159.5</ele>
        <time>2017-10-24T10:48:19Z</time>
      </trkpt>
      <trkpt lat="43.64288" lon="3.81424">
        <ele>160.5</ele>
        <time>2017-10-24T10:48:21Z</time>
      </trkpt>
      <trkpt lat="43.64283" lon="3.81406">
        <ele>161.6</ele>
        <time>2017-10-24T10:48:23Z</time>
      </trkpt>
      <trkpt lat="43.64278" lon="3.81391">
        <ele>162.8</ele>
        <time>2017-10-24T10:48:25Z</time>
      </trkpt>
      <trkpt lat="43.64271" lon="3.81375">
        <ele>163.3</ele>
        <time>2017-10-24T10:48:27Z</time>
      </trkpt>
      <trkpt lat="43.64263" lon="3.81357">
        <ele>163.2</ele>
        <time>2017-10-24T10:48:29Z</time>
      </trkpt>
      <trkpt lat="43.6426" lon="3.81348">
        <ele>163</ele>
        <time>2017-10-24T10:48:30Z</time>
      </trkpt>
      <trkpt lat="43.64251" lon="3.81333">
        <ele>162.7</ele>
        <time>2017-10-24T10:48:32Z</time>
      </trkpt>
      <trkpt lat="43.64242" lon="3.81318">
        <ele>162.6</ele>
        <time>2017-10-24T10:48:34Z</time>
      </trkpt>
      <trkpt lat="43.64233" lon="3.81306">
        <ele>162.5</ele>
        <time>2017-10-24T10:48:36Z</time>
      </trkpt>
      <trkpt lat="43.64226" lon="3.81293">
        <ele>163</ele>
        <time>2017-10-24T10:48:38Z</time>
      </trkpt>
      <trkpt lat="43.64219" lon="3.8128">
        <ele>163.8</ele>
        <time>2017-10-24T10:48:40Z</time>
      </trkpt>
      <trkpt lat="43.64212" lon="3.81269">
        <ele>164.9</ele>
        <time>2017-10-24T10:48:42Z</time>
      </trkpt>
      <trkpt lat="43.64207" lon="3.81258">
        <ele>165.6</ele>
        <time>2017-10-24T10:48:44Z</time>
      </trkpt>
      <trkpt lat="43.642" lon="3.81247">
        <ele>166</ele>
        <time>2017-10-24T10:48:46Z</time>
      </trkpt>
      <trkpt lat="43.64193" lon="3.81236">
        <ele>166.6</ele>
        <time>2017-10-24T10:48:48Z</time>
      </trkpt>
      <trkpt lat="43.64186" lon="3.81223">
        <ele>167.2</ele>
        <time>2017-10-24T10:48:50Z</time>
      </trkpt>
      <trkpt lat="43.64179" lon="3.81213">
        <ele>167.7</ele>
        <time>2017-10-24T10:48:52Z</time>
      </trkpt>
      <trkpt lat="43.6417" lon="3.81203">
        <ele>167.7</ele>
        <time>2017-10-24T10:48:54Z</time>
      </trkpt>
      <trkpt lat="43.64162" lon="3.8119">
        <ele>167.3</ele>
        <time>2017-10-24T10:48:56Z</time>
      </trkpt>
      <trkpt lat="43.64152" lon="3.8118">
        <ele>167</ele>
        <time>2017-10-24T10:48:58Z</time>
      </trkpt>
      <trkpt lat="43.64143" lon="3.8117">
        <ele>166.8</ele>
        <time>2017-10-24T10:49:00Z</time>
      </trkpt>
      <trkpt lat="43.64133" lon="3.8116">
        <ele>166.4</ele>
        <time>2017-10-24T10:49:02Z</time>
      </trkpt>
      <trkpt lat="43.64123" lon="3.81148">
        <ele>166</ele>
        <time>2017-10-24T10:49:04Z</time>
      </trkpt>
      <trkpt lat="43.64115" lon="3.81138">
        <ele>165.9</ele>
        <time>2017-10-24T10:49:06Z</time>
      </trkpt>
      <trkpt lat="43.64107" lon="3.81126">
        <ele>165.4</ele>
        <time>2017-10-24T10:49:08Z</time>
      </trkpt>
      <trkpt lat="43.641" lon="3.81115">
        <ele>165.6</ele>
        <time>2017-10-24T10:49:10Z</time>
      </trkpt>
      <trkpt lat="43.64094" lon="3.81108">
        <ele>165.8</ele>
        <time>2017-10-24T10:49:12Z</time>
      </trkpt>
      <trkpt lat="43.64088" lon="3.81099">
        <ele>165.9</ele>
        <time>2017-10-24T10:49:14Z</time>
      </trkpt>
      <trkpt lat="43.64085" lon="3.81084">
        <ele>165.2</ele>
        <time>2017-10-24T10:49:17Z</time>
      </trkpt>
      <trkpt lat="43.64088" lon="3.81071">
        <ele>164.6</ele>
        <time>2017-10-24T10:49:19Z</time>
      </trkpt>
      <trkpt lat="43.64098" lon="3.81058">
        <ele>163.5</ele>
        <time>2017-10-24T10:49:21Z</time>
      </trkpt>
      <trkpt lat="43.64102" lon="3.81049">
        <ele>162.7</ele>
        <time>2017-10-24T10:49:22Z</time>
      </trkpt>
      <trkpt lat="43.64106" lon="3.81039">
        <ele>161.9</ele>
        <time>2017-10-24T10:49:23Z</time>
      </trkpt>
      <trkpt lat="43.6411" lon="3.81028">
        <ele>161.3</ele>
        <time>2017-10-24T10:49:24Z</time>
      </trkpt>
      <trkpt lat="43.64113" lon="3.81015">
        <ele>160.6</ele>
        <time>2017-10-24T10:49:25Z</time>
      </trkpt>
      <trkpt lat="43.64116" lon="3.81004">
        <ele>160.2</ele>
        <time>2017-10-24T10:49:26Z</time>
      </trkpt>
      <trkpt lat="43.64121" lon="3.80993">
        <ele>159.6</ele>
        <time>2017-10-24T10:49:27Z</time>
      </trkpt>
      <trkpt lat="43.64128" lon="3.80984">
        <ele>158.8</ele>
        <time>2017-10-24T10:49:28Z</time>
      </trkpt>
      <trkpt lat="43.64135" lon="3.80973">
        <ele>157.8</ele>
        <time>2017-10-24T10:49:29Z</time>
      </trkpt>
      <trkpt lat="43.6414" lon="3.8096">
        <ele>157</ele>
        <time>2017-10-24T10:49:30Z</time>
      </trkpt>
      <trkpt lat="43.64143" lon="3.8095">
        <ele>156.1</ele>
        <time>2017-10-24T10:49:31Z</time>
      </trkpt>
      <trkpt lat="43.64148" lon="3.80939">
        <ele>154.7</ele>
        <time>2017-10-24T10:49:33Z</time>
      </trkpt>
      <trkpt lat="43.64152" lon="3.80931">
        <ele>154.6</ele>
        <time>2017-10-24T10:49:35Z</time>
      </trkpt>
      <trkpt lat="43.64159" lon="3.80926">
        <ele>154.3</ele>
        <time>2017-10-24T10:49:38Z</time>
      </trkpt>
      <trkpt lat="43.64165" lon="3.80919">
        <ele>154</ele>
        <time>2017-10-24T10:49:41Z</time>
      </trkpt>
      <trkpt lat="43.6417" lon="3.80911">
        <ele>153.7</ele>
        <time>2017-10-24T10:49:43Z</time>
      </trkpt>
      <trkpt lat="43.64175" lon="3.80901">
        <ele>153</ele>
        <time>2017-10-24T10:49:45Z</time>
      </trkpt>
      <trkpt lat="43.64181" lon="3.80892">
        <ele>152.8</ele>
        <time>2017-10-24T10:49:47Z</time>
      </trkpt>
      <trkpt lat="43.64176" lon="3.80882">
        <ele>153.3</ele>
        <time>2017-10-24T10:49:49Z</time>
      </trkpt>
      <trkpt lat="43.64171" lon="3.80871">
        <ele>153.8</ele>
        <time>2017-10-24T10:49:51Z</time>
      </trkpt>
      <trkpt lat="43.64168" lon="3.80856">
        <ele>153.4</ele>
        <time>2017-10-24T10:49:53Z</time>
      </trkpt>
      <trkpt lat="43.64166" lon="3.80846">
        <ele>153.3</ele>
        <time>2017-10-24T10:49:54Z</time>
      </trkpt>
      <trkpt lat="43.64163" lon="3.80831">
        <ele>153.8</ele>
        <time>2017-10-24T10:49:56Z</time>
      </trkpt>
      <trkpt lat="43.64162" lon="3.80818">
        <ele>154.4</ele>
        <time>2017-10-24T10:49:58Z</time>
      </trkpt>
      <trkpt lat="43.64161" lon="3.80802">
        <ele>153.9</ele>
        <time>2017-10-24T10:50:00Z</time>
      </trkpt>
      <trkpt lat="43.6416" lon="3.80787">
        <ele>153.2</ele>
        <time>2017-10-24T10:50:02Z</time>
      </trkpt>
      <trkpt lat="43.64159" lon="3.80776">
        <ele>152.3</ele>
        <time>2017-10-24T10:50:03Z</time>
      </trkpt>
      <trkpt lat="43.64158" lon="3.80766">
        <ele>151.9</ele>
        <time>2017-10-24T10:50:04Z</time>
      </trkpt>
      <trkpt lat="43.64159" lon="3.80755">
        <ele>151.6</ele>
        <time>2017-10-24T10:50:05Z</time>
      </trkpt>
      <trkpt lat="43.64159" lon="3.80741">
        <ele>150.9</ele>
        <time>2017-10-24T10:50:06Z</time>
      </trkpt>
      <trkpt lat="43.64158" lon="3.80726">
        <ele>149.9</ele>
        <time>2017-10-24T10:50:07Z</time>
      </trkpt>
      <trkpt lat="43.64156" lon="3.80711">
        <ele>149</ele>
        <time>2017-10-24T10:50:08Z</time>
      </trkpt>
      <trkpt lat="43.64154" lon="3.80697">
        <ele>148</ele>
        <time>2017-10-24T10:50:09Z</time>
      </trkpt>
      <trkpt lat="43.64154" lon="3.80682">
        <ele>147.6</ele>
        <time>2017-10-24T10:50:10Z</time>
      </trkpt>
      <trkpt lat="43.64151" lon="3.80668">
        <ele>147.1</ele>
        <time>2017-10-24T10:50:11Z</time>
      </trkpt>
      <trkpt lat="43.64148" lon="3.80654">
        <ele>146.5</ele>
        <time>2017-10-24T10:50:12Z</time>
      </trkpt>
      <trkpt lat="43.64147" lon="3.80642">
        <ele>145.9</ele>
        <time>2017-10-24T10:50:13Z</time>
      </trkpt>
      <trkpt lat="43.64141" lon="3.8063">
        <ele>145.5</ele>
        <time>2017-10-24T10:50:15Z</time>
      </trkpt>
      <trkpt lat="43.64133" lon="3.80624">
        <ele>144.8</ele>
        <time>2017-10-24T10:50:19Z</time>
      </trkpt>
      <trkpt lat="43.64125" lon="3.8062">
        <ele>141.4</ele>
        <time>2017-10-24T10:50:21Z</time>
      </trkpt>
      <trkpt lat="43.64118" lon="3.80612">
        <ele>141</ele>
        <time>2017-10-24T10:50:24Z</time>
      </trkpt>
      <trkpt lat="43.64109" lon="3.80615">
        <ele>140.1</ele>
        <time>2017-10-24T10:50:28Z</time>
      </trkpt>
      <trkpt lat="43.64102" lon="3.80619">
        <ele>135.6</ele>
        <time>2017-10-24T10:50:30Z</time>
      </trkpt>
      <trkpt lat="43.64095" lon="3.80623">
        <ele>135.3</ele>
        <time>2017-10-24T10:50:32Z</time>
      </trkpt>
      <trkpt lat="43.64086" lon="3.80625">
        <ele>134.6</ele>
        <time>2017-10-24T10:50:35Z</time>
      </trkpt>
      <trkpt lat="43.64076" lon="3.80624">
        <ele>131.8</ele>
        <time>2017-10-24T10:50:38Z</time>
      </trkpt>
      <trkpt lat="43.64065" lon="3.80629">
        <ele>129.5</ele>
        <time>2017-10-24T10:50:40Z</time>
      </trkpt>
      <trkpt lat="43.64056" lon="3.80631">
        <ele>129.1</ele>
        <time>2017-10-24T10:50:42Z</time>
      </trkpt>
      <trkpt lat="43.64047" lon="3.80629">
        <ele>126.3</ele>
        <time>2017-10-24T10:50:44Z</time>
      </trkpt>
      <trkpt lat="43.64036" lon="3.80634">
        <ele>122.1</ele>
        <time>2017-10-24T10:50:47Z</time>
      </trkpt>
      <trkpt lat="43.64026" lon="3.80642">
        <ele>118.4</ele>
        <time>2017-10-24T10:50:49Z</time>
      </trkpt>
      <trkpt lat="43.64013" lon="3.80647">
        <ele>115.4</ele>
        <time>2017-10-24T10:50:51Z</time>
      </trkpt>
      <trkpt lat="43.64005" lon="3.8065">
        <ele>113.1</ele>
        <time>2017-10-24T10:50:53Z</time>
      </trkpt>
      <trkpt lat="43.63994" lon="3.80656">
        <ele>111.8</ele>
        <time>2017-10-24T10:50:55Z</time>
      </trkpt>
      <trkpt lat="43.63979" lon="3.80659">
        <ele>110.4</ele>
        <time>2017-10-24T10:50:57Z</time>
      </trkpt>
      <trkpt lat="43.6397" lon="3.80661">
        <ele>109.8</ele>
        <time>2017-10-24T10:50:58Z</time>
      </trkpt>
      <trkpt lat="43.63958" lon="3.80663">
        <ele>109.5</ele>
        <time>2017-10-24T10:51:00Z</time>
      </trkpt>
      <trkpt lat="43.6395" lon="3.8067">
        <ele>109.3</ele>
        <time>2017-10-24T10:51:03Z</time>
      </trkpt>
      <trkpt lat="43.63941" lon="3.80671">
        <ele>109.1</ele>
        <time>2017-10-24T10:51:05Z</time>
      </trkpt>
      <trkpt lat="43.6393" lon="3.80674">
        <ele>108</ele>
        <time>2017-10-24T10:51:07Z</time>
      </trkpt>
      <trkpt lat="43.63922" lon="3.80673">
        <ele>107.2</ele>
        <time>2017-10-24T10:51:09Z</time>
      </trkpt>
      <trkpt lat="43.63915" lon="3.80682">
        <ele>106.3</ele>
        <time>2017-10-24T10:51:11Z</time>
      </trkpt>
      <trkpt lat="43.63912" lon="3.80693">
        <ele>105</ele>
        <time>2017-10-24T10:51:13Z</time>
      </trkpt>
      <trkpt lat="43.63911" lon="3.80706">
        <ele>104.1</ele>
        <time>2017-10-24T10:51:15Z</time>
      </trkpt>
      <trkpt lat="43.63908" lon="3.80717">
        <ele>104</ele>
        <time>2017-10-24T10:51:18Z</time>
      </trkpt>
      <trkpt lat="43.639" lon="3.80721">
        <ele>103.9</ele>
        <time>2017-10-24T10:51:21Z</time>
      </trkpt>
      <trkpt lat="43.63893" lon="3.80724">
        <ele>103.8</ele>
        <time>2017-10-24T10:51:25Z</time>
      </trkpt>
      <trkpt lat="43.6389" lon="3.80721">
        <ele>103.3</ele>
        <time>2017-10-24T10:51:32Z</time>
      </trkpt>
      <trkpt lat="43.63882" lon="3.80725">
        <ele>102.4</ele>
        <time>2017-10-24T10:51:38Z</time>
      </trkpt>
      <trkpt lat="43.63874" lon="3.80731">
        <ele>101.6</ele>
        <time>2017-10-24T10:51:49Z</time>
      </trkpt>
      <trkpt lat="43.63871" lon="3.80736">
        <ele>101.8</ele>
        <time>2017-10-24T10:51:56Z</time>
      </trkpt>
      <trkpt lat="43.63865" lon="3.80744">
        <ele>102.1</ele>
        <time>2017-10-24T10:52:00Z</time>
      </trkpt>
      <trkpt lat="43.63858" lon="3.80746">
        <ele>102.9</ele>
        <time>2017-10-24T10:52:07Z</time>
      </trkpt>
      <trkpt lat="43.63857" lon="3.80746">
        <ele>103</ele>
        <time>2017-10-24T10:52:14Z</time>
      </trkpt>
      <trkpt lat="43.63849" lon="3.80746">
        <ele>103.2</ele>
        <time>2017-10-24T10:52:15Z</time>
      </trkpt>
      <trkpt lat="43.63841" lon="3.8074">
        <ele>103.7</ele>
        <time>2017-10-24T10:52:18Z</time>
      </trkpt>
      <trkpt lat="43.63833" lon="3.80735">
        <ele>104.4</ele>
        <time>2017-10-24T10:52:24Z</time>
      </trkpt>
      <trkpt lat="43.63825" lon="3.80736">
        <ele>104.4</ele>
        <time>2017-10-24T10:52:27Z</time>
      </trkpt>
      <trkpt lat="43.63816" lon="3.80739">
        <ele>104.3</ele>
        <time>2017-10-24T10:52:30Z</time>
      </trkpt>
      <trkpt lat="43.63807" lon="3.80744">
        <ele>104.1</ele>
        <time>2017-10-24T10:52:34Z</time>
      </trkpt>
      <trkpt lat="43.63797" lon="3.80744">
        <ele>103.9</ele>
        <time>2017-10-24T10:52:37Z</time>
      </trkpt>
      <trkpt lat="43.6379" lon="3.80739">
        <ele>103.9</ele>
        <time>2017-10-24T10:52:40Z</time>
      </trkpt>
      <trkpt lat="43.63785" lon="3.80731">
        <ele>104</ele>
        <time>2017-10-24T10:52:43Z</time>
      </trkpt>
      <trkpt lat="43.63784" lon="3.80719">
        <ele>104.4</ele>
        <time>2017-10-24T10:52:47Z</time>
      </trkpt>
      <trkpt lat="43.63782" lon="3.80709">
        <ele>104.9</ele>
        <time>2017-10-24T10:52:51Z</time>
      </trkpt>
      <trkpt lat="43.63778" lon="3.807">
        <ele>105.6</ele>
        <time>2017-10-24T10:52:56Z</time>
      </trkpt>
      <trkpt lat="43.63774" lon="3.80691">
        <ele>106.3</ele>
        <time>2017-10-24T10:53:01Z</time>
      </trkpt>
      <trkpt lat="43.63767" lon="3.80684">
        <ele>107.2</ele>
        <time>2017-10-24T10:53:07Z</time>
      </trkpt>
      <trkpt lat="43.63763" lon="3.80675">
        <ele>108.5</ele>
        <time>2017-10-24T10:53:13Z</time>
      </trkpt>
      <trkpt lat="43.63757" lon="3.80668">
        <ele>110</ele>
        <time>2017-10-24T10:53:19Z</time>
      </trkpt>
      <trkpt lat="43.63752" lon="3.80658">
        <ele>111.1</ele>
        <time>2017-10-24T10:53:23Z</time>
      </trkpt>
      <trkpt lat="43.63747" lon="3.8065">
        <ele>112.3</ele>
        <time>2017-10-24T10:53:28Z</time>
      </trkpt>
      <trkpt lat="43.63742" lon="3.80641">
        <ele>113.5</ele>
        <time>2017-10-24T10:53:34Z</time>
      </trkpt>
      <trkpt lat="43.63738" lon="3.80629">
        <ele>114.1</ele>
        <time>2017-10-24T10:53:37Z</time>
      </trkpt>
      <trkpt lat="43.63735" lon="3.8062">
        <ele>114.5</ele>
        <time>2017-10-24T10:53:40Z</time>
      </trkpt>
      <trkpt lat="43.63732" lon="3.80611">
        <ele>114.9</ele>
        <time>2017-10-24T10:53:45Z</time>
      </trkpt>
      <trkpt lat="43.63728" lon="3.80602">
        <ele>115.7</ele>
        <time>2017-10-24T10:53:51Z</time>
      </trkpt>
      <trkpt lat="43.63724" lon="3.80594">
        <ele>116.8</ele>
        <time>2017-10-24T10:53:56Z</time>
      </trkpt>
      <trkpt lat="43.63721" lon="3.80584">
        <ele>118.1</ele>
        <time>2017-10-24T10:54:01Z</time>
      </trkpt>
      <trkpt lat="43.63718" lon="3.80574">
        <ele>120</ele>
        <time>2017-10-24T10:54:08Z</time>
      </trkpt>
      <trkpt lat="43.63714" lon="3.80564">
        <ele>121.8</ele>
        <time>2017-10-24T10:54:14Z</time>
      </trkpt>
      <trkpt lat="43.63708" lon="3.80557">
        <ele>123.4</ele>
        <time>2017-10-24T10:54:19Z</time>
      </trkpt>
      <trkpt lat="43.63707" lon="3.80545">
        <ele>125.5</ele>
        <time>2017-10-24T10:54:30Z</time>
      </trkpt>
      <trkpt lat="43.63707" lon="3.80542">
        <ele>127.4</ele>
        <time>2017-10-24T10:54:37Z</time>
      </trkpt>
      <trkpt lat="43.637" lon="3.80533">
        <ele>131.7</ele>
        <time>2017-10-24T10:54:50Z</time>
      </trkpt>
      <trkpt lat="43.63698" lon="3.80529">
        <ele>134.4</ele>
        <time>2017-10-24T10:54:57Z</time>
      </trkpt>
      <trkpt lat="43.63694" lon="3.80519">
        <ele>137.1</ele>
        <time>2017-10-24T10:55:03Z</time>
      </trkpt>
      <trkpt lat="43.63691" lon="3.80507">
        <ele>140</ele>
        <time>2017-10-24T10:55:10Z</time>
      </trkpt>
      <trkpt lat="43.6369" lon="3.80506">
        <ele>141.9</ele>
        <time>2017-10-24T10:55:17Z</time>
      </trkpt>
      <trkpt lat="43.63688" lon="3.80495">
        <ele>143.2</ele>
        <time>2017-10-24T10:55:22Z</time>
      </trkpt>
      <trkpt lat="43.63683" lon="3.80485">
        <ele>145.1</ele>
        <time>2017-10-24T10:55:28Z</time>
      </trkpt>
      <trkpt lat="43.63678" lon="3.80475">
        <ele>146.8</ele>
        <time>2017-10-24T10:55:34Z</time>
      </trkpt>
      <trkpt lat="43.63674" lon="3.80465">
        <ele>148.2</ele>
        <time>2017-10-24T10:55:39Z</time>
      </trkpt>
      <trkpt lat="43.6367" lon="3.80454">
        <ele>149.7</ele>
        <time>2017-10-24T10:55:45Z</time>
      </trkpt>
      <trkpt lat="43.63665" lon="3.80446">
        <ele>151.4</ele>
        <time>2017-10-24T10:55:53Z</time>
      </trkpt>
      <trkpt lat="43.6366" lon="3.80437">
        <ele>152.8</ele>
        <time>2017-10-24T10:55:59Z</time>
      </trkpt>
      <trkpt lat="43.63656" lon="3.80429">
        <ele>154.1</ele>
        <time>2017-10-24T10:56:06Z</time>
      </trkpt>
      <trkpt lat="43.63651" lon="3.8042">
        <ele>155.2</ele>
        <time>2017-10-24T10:56:12Z</time>
      </trkpt>
      <trkpt lat="43.63645" lon="3.80413">
        <ele>156.2</ele>
        <time>2017-10-24T10:56:18Z</time>
      </trkpt>
      <trkpt lat="43.63639" lon="3.80405">
        <ele>157.1</ele>
        <time>2017-10-24T10:56:23Z</time>
      </trkpt>
      <trkpt lat="43.63633" lon="3.80397">
        <ele>157.8</ele>
        <time>2017-10-24T10:56:27Z</time>
      </trkpt>
      <trkpt lat="43.63628" lon="3.80388">
        <ele>158.6</ele>
        <time>2017-10-24T10:56:32Z</time>
      </trkpt>
      <trkpt lat="43.63623" lon="3.8038">
        <ele>159.3</ele>
        <time>2017-10-24T10:56:36Z</time>
      </trkpt>
      <trkpt lat="43.63618" lon="3.80372">
        <ele>160</ele>
        <time>2017-10-24T10:56:40Z</time>
      </trkpt>
      <trkpt lat="43.63612" lon="3.80365">
        <ele>160.9</ele>
        <time>2017-10-24T10:56:45Z</time>
      </trkpt>
      <trkpt lat="43.63606" lon="3.80357">
        <ele>161.6</ele>
        <time>2017-10-24T10:56:49Z</time>
      </trkpt>
      <trkpt lat="43.636" lon="3.80348">
        <ele>162.2</ele>
        <time>2017-10-24T10:56:53Z</time>
      </trkpt>
      <trkpt lat="43.63595" lon="3.80339">
        <ele>162.7</ele>
        <time>2017-10-24T10:56:57Z</time>
      </trkpt>
      <trkpt lat="43.63594" lon="3.80329">
        <ele>163</ele>
        <time>2017-10-24T10:57:00Z</time>
      </trkpt>
      <trkpt lat="43.63595" lon="3.80315">
        <ele>163.4</ele>
        <time>2017-10-24T10:57:04Z</time>
      </trkpt>
      <trkpt lat="43.63595" lon="3.80304">
        <ele>163.7</ele>
        <time>2017-10-24T10:57:07Z</time>
      </trkpt>
      <trkpt lat="43.63596" lon="3.80291">
        <ele>163.9</ele>
        <time>2017-10-24T10:57:10Z</time>
      </trkpt>
      <trkpt lat="43.63597" lon="3.80278">
        <ele>164</ele>
        <time>2017-10-24T10:57:13Z</time>
      </trkpt>
      <trkpt lat="43.63598" lon="3.80265">
        <ele>164.2</ele>
        <time>2017-10-24T10:57:16Z</time>
      </trkpt>
      <trkpt lat="43.636" lon="3.80252">
        <ele>164.2</ele>
        <time>2017-10-24T10:57:19Z</time>
      </trkpt>
      <trkpt lat="43.63601" lon="3.80238">
        <ele>164.3</ele>
        <time>2017-10-24T10:57:22Z</time>
      </trkpt>
      <trkpt lat="43.63599" lon="3.80224">
        <ele>164.2</ele>
        <time>2017-10-24T10:57:25Z</time>
      </trkpt>
      <trkpt lat="43.63595" lon="3.80213">
        <ele>163.9</ele>
        <time>2017-10-24T10:57:27Z</time>
      </trkpt>
      <trkpt lat="43.63589" lon="3.80204">
        <ele>164</ele>
        <time>2017-10-24T10:57:29Z</time>
      </trkpt>
      <trkpt lat="43.63584" lon="3.80197">
        <ele>164.3</ele>
        <time>2017-10-24T10:57:31Z</time>
      </trkpt>
      <trkpt lat="43.63578" lon="3.80188">
        <ele>164.7</ele>
        <time>2017-10-24T10:57:33Z</time>
      </trkpt>
      <trkpt lat="43.63572" lon="3.8018">
        <ele>164.9</ele>
        <time>2017-10-24T10:57:35Z</time>
      </trkpt>
      <trkpt lat="43.63568" lon="3.80172">
        <ele>164.9</ele>
        <time>2017-10-24T10:57:37Z</time>
      </trkpt>
      <trkpt lat="43.63564" lon="3.80163">
        <ele>164.9</ele>
        <time>2017-10-24T10:57:39Z</time>
      </trkpt>
      <trkpt lat="43.6356" lon="3.80154">
        <ele>165</ele>
        <time>2017-10-24T10:57:41Z</time>
      </trkpt>
      <trkpt lat="43.63555" lon="3.80143">
        <ele>164.9</ele>
        <time>2017-10-24T10:57:43Z</time>
      </trkpt>
      <trkpt lat="43.63551" lon="3.80131">
        <ele>165.1</ele>
        <time>2017-10-24T10:57:45Z</time>
      </trkpt>
      <trkpt lat="43.63547" lon="3.80118">
        <ele>165.1</ele>
        <time>2017-10-24T10:57:47Z</time>
      </trkpt>
      <trkpt lat="43.63544" lon="3.80102">
        <ele>166</ele>
        <time>2017-10-24T10:57:49Z</time>
      </trkpt>
      <trkpt lat="43.63549" lon="3.80088">
        <ele>166.9</ele>
        <time>2017-10-24T10:57:51Z</time>
      </trkpt>
      <trkpt lat="43.63557" lon="3.80077">
        <ele>167.2</ele>
        <time>2017-10-24T10:57:53Z</time>
      </trkpt>
      <trkpt lat="43.63565" lon="3.80062">
        <ele>167.1</ele>
        <time>2017-10-24T10:57:55Z</time>
      </trkpt>
      <trkpt lat="43.63571" lon="3.80047">
        <ele>166.3</ele>
        <time>2017-10-24T10:57:57Z</time>
      </trkpt>
      <trkpt lat="43.63576" lon="3.80033">
        <ele>165.5</ele>
        <time>2017-10-24T10:57:59Z</time>
      </trkpt>
      <trkpt lat="43.63582" lon="3.8002">
        <ele>165.1</ele>
        <time>2017-10-24T10:58:01Z</time>
      </trkpt>
      <trkpt lat="43.63585" lon="3.80008">
        <ele>164.8</ele>
        <time>2017-10-24T10:58:03Z</time>
      </trkpt>
      <trkpt lat="43.63592" lon="3.79997">
        <ele>164.5</ele>
        <time>2017-10-24T10:58:05Z</time>
      </trkpt>
      <trkpt lat="43.63597" lon="3.79985">
        <ele>163.6</ele>
        <time>2017-10-24T10:58:07Z</time>
      </trkpt>
      <trkpt lat="43.63603" lon="3.79977">
        <ele>163.7</ele>
        <time>2017-10-24T10:58:09Z</time>
      </trkpt>
      <trkpt lat="43.63609" lon="3.79968">
        <ele>163.3</ele>
        <time>2017-10-24T10:58:11Z</time>
      </trkpt>
      <trkpt lat="43.63613" lon="3.79959">
        <ele>163.1</ele>
        <time>2017-10-24T10:58:13Z</time>
      </trkpt>
      <trkpt lat="43.63618" lon="3.7995">
        <ele>162.8</ele>
        <time>2017-10-24T10:58:15Z</time>
      </trkpt>
      <trkpt lat="43.63625" lon="3.79941">
        <ele>162.3</ele>
        <time>2017-10-24T10:58:17Z</time>
      </trkpt>
      <trkpt lat="43.63636" lon="3.79924">
        <ele>161.5</ele>
        <time>2017-10-24T10:58:21Z</time>
      </trkpt>
      <trkpt lat="43.63643" lon="3.79913">
        <ele>160.6</ele>
        <time>2017-10-24T10:58:23Z</time>
      </trkpt>
      <trkpt lat="43.63648" lon="3.79904">
        <ele>160.2</ele>
        <time>2017-10-24T10:58:25Z</time>
      </trkpt>
      <trkpt lat="43.63654" lon="3.79894">
        <ele>159.5</ele>
        <time>2017-10-24T10:58:27Z</time>
      </trkpt>
      <trkpt lat="43.63658" lon="3.79885">
        <ele>159.4</ele>
        <time>2017-10-24T10:58:29Z</time>
      </trkpt>
      <trkpt lat="43.63664" lon="3.79877">
        <ele>158.8</ele>
        <time>2017-10-24T10:58:32Z</time>
      </trkpt>
      <trkpt lat="43.6367" lon="3.79865">
        <ele>157.7</ele>
        <time>2017-10-24T10:58:34Z</time>
      </trkpt>
      <trkpt lat="43.63675" lon="3.79853">
        <ele>156.8</ele>
        <time>2017-10-24T10:58:36Z</time>
      </trkpt>
      <trkpt lat="43.6368" lon="3.79843">
        <ele>155.9</ele>
        <time>2017-10-24T10:58:38Z</time>
      </trkpt>
      <trkpt lat="43.63687" lon="3.79834">
        <ele>155.1</ele>
        <time>2017-10-24T10:58:40Z</time>
      </trkpt>
      <trkpt lat="43.63694" lon="3.79828">
        <ele>154.9</ele>
        <time>2017-10-24T10:58:42Z</time>
      </trkpt>
      <trkpt lat="43.63699" lon="3.79819">
        <ele>154.4</ele>
        <time>2017-10-24T10:58:44Z</time>
      </trkpt>
      <trkpt lat="43.63706" lon="3.79811">
        <ele>154.3</ele>
        <time>2017-10-24T10:58:46Z</time>
      </trkpt>
      <trkpt lat="43.63709" lon="3.79798">
        <ele>154.2</ele>
        <time>2017-10-24T10:58:49Z</time>
      </trkpt>
      <trkpt lat="43.63714" lon="3.79788">
        <ele>154.1</ele>
        <time>2017-10-24T10:58:52Z</time>
      </trkpt>
      <trkpt lat="43.63718" lon="3.79779">
        <ele>154.1</ele>
        <time>2017-10-24T10:58:54Z</time>
      </trkpt>
      <trkpt lat="43.63726" lon="3.79768">
        <ele>154.1</ele>
        <time>2017-10-24T10:58:57Z</time>
      </trkpt>
      <trkpt lat="43.63731" lon="3.7976">
        <ele>154.1</ele>
        <time>2017-10-24T10:58:59Z</time>
      </trkpt>
      <trkpt lat="43.63737" lon="3.79753">
        <ele>154.5</ele>
        <time>2017-10-24T10:59:02Z</time>
      </trkpt>
      <trkpt lat="43.63745" lon="3.79744">
        <ele>154.7</ele>
        <time>2017-10-24T10:59:05Z</time>
      </trkpt>
      <trkpt lat="43.63753" lon="3.79737">
        <ele>154.8</ele>
        <time>2017-10-24T10:59:08Z</time>
      </trkpt>
      <trkpt lat="43.63761" lon="3.79729">
        <ele>155.1</ele>
        <time>2017-10-24T10:59:11Z</time>
      </trkpt>
      <trkpt lat="43.63772" lon="3.79722">
        <ele>155.5</ele>
        <time>2017-10-24T10:59:14Z</time>
      </trkpt>
      <trkpt lat="43.63779" lon="3.79717">
        <ele>156.6</ele>
        <time>2017-10-24T10:59:16Z</time>
      </trkpt>
      <trkpt lat="43.63788" lon="3.79711">
        <ele>157.5</ele>
        <time>2017-10-24T10:59:18Z</time>
      </trkpt>
      <trkpt lat="43.63797" lon="3.79704">
        <ele>158.8</ele>
        <time>2017-10-24T10:59:20Z</time>
      </trkpt>
      <trkpt lat="43.63803" lon="3.79694">
        <ele>159.4</ele>
        <time>2017-10-24T10:59:22Z</time>
      </trkpt>
      <trkpt lat="43.63813" lon="3.79687">
        <ele>159.2</ele>
        <time>2017-10-24T10:59:24Z</time>
      </trkpt>
      <trkpt lat="43.63821" lon="3.79676">
        <ele>159.6</ele>
        <time>2017-10-24T10:59:26Z</time>
      </trkpt>
      <trkpt lat="43.63833" lon="3.79669">
        <ele>159.8</ele>
        <time>2017-10-24T10:59:28Z</time>
      </trkpt>
      <trkpt lat="43.63842" lon="3.79665">
        <ele>160</ele>
        <time>2017-10-24T10:59:31Z</time>
      </trkpt>
      <trkpt lat="43.63849" lon="3.79667">
        <ele>160.2</ele>
        <time>2017-10-24T10:59:33Z</time>
      </trkpt>
      <trkpt lat="43.63857" lon="3.79663">
        <ele>160.4</ele>
        <time>2017-10-24T10:59:36Z</time>
      </trkpt>
      <trkpt lat="43.63863" lon="3.79657">
        <ele>160.8</ele>
        <time>2017-10-24T10:59:39Z</time>
      </trkpt>
      <trkpt lat="43.63872" lon="3.79654">
        <ele>161.3</ele>
        <time>2017-10-24T10:59:42Z</time>
      </trkpt>
      <trkpt lat="43.63879" lon="3.79664">
        <ele>161.9</ele>
        <time>2017-10-24T10:59:45Z</time>
      </trkpt>
      <trkpt lat="43.63884" lon="3.79671">
        <ele>162.2</ele>
        <time>2017-10-24T10:59:47Z</time>
      </trkpt>
      <trkpt lat="43.63891" lon="3.79675">
        <ele>162.6</ele>
        <time>2017-10-24T10:59:49Z</time>
      </trkpt>
      <trkpt lat="43.63899" lon="3.79678">
        <ele>163</ele>
        <time>2017-10-24T10:59:51Z</time>
      </trkpt>
      <trkpt lat="43.63907" lon="3.79681">
        <ele>164.9</ele>
        <time>2017-10-24T10:59:53Z</time>
      </trkpt>
      <trkpt lat="43.63915" lon="3.79684">
        <ele>167.1</ele>
        <time>2017-10-24T10:59:55Z</time>
      </trkpt>
      <trkpt lat="43.63923" lon="3.79689">
        <ele>167.4</ele>
        <time>2017-10-24T10:59:57Z</time>
      </trkpt>
      <trkpt lat="43.63931" lon="3.79699">
        <ele>168</ele>
        <time>2017-10-24T10:59:59Z</time>
      </trkpt>
      <trkpt lat="43.6394" lon="3.79709">
        <ele>168.1</ele>
        <time>2017-10-24T11:00:01Z</time>
      </trkpt>
      <trkpt lat="43.63947" lon="3.79716">
        <ele>168.4</ele>
        <time>2017-10-24T11:00:03Z</time>
      </trkpt>
      <trkpt lat="43.63955" lon="3.79722">
        <ele>167.8</ele>
        <time>2017-10-24T11:00:05Z</time>
      </trkpt>
      <trkpt lat="43.63963" lon="3.79728">
        <ele>167</ele>
        <time>2017-10-24T11:00:07Z</time>
      </trkpt>
      <trkpt lat="43.63972" lon="3.79735">
        <ele>166.1</ele>
        <time>2017-10-24T11:00:09Z</time>
      </trkpt>
      <trkpt lat="43.63983" lon="3.79742">
        <ele>165.1</ele>
        <time>2017-10-24T11:00:11Z</time>
      </trkpt>
      <trkpt lat="43.63994" lon="3.79748">
        <ele>164.8</ele>
        <time>2017-10-24T11:00:13Z</time>
      </trkpt>
      <trkpt lat="43.64" lon="3.79754">
        <ele>165.2</ele>
        <time>2017-10-24T11:00:14Z</time>
      </trkpt>
      <trkpt lat="43.64004" lon="3.79771">
        <ele>165.2</ele>
        <time>2017-10-24T11:00:16Z</time>
      </trkpt>
      <trkpt lat="43.64005" lon="3.79788">
        <ele>165.1</ele>
        <time>2017-10-24T11:00:18Z</time>
      </trkpt>
      <trkpt lat="43.64007" lon="3.79798">
        <ele>164.9</ele>
        <time>2017-10-24T11:00:21Z</time>
      </trkpt>
      <trkpt lat="43.64018" lon="3.798">
        <ele>164.7</ele>
        <time>2017-10-24T11:00:24Z</time>
      </trkpt>
      <trkpt lat="43.64025" lon="3.79796">
        <ele>164.5</ele>
        <time>2017-10-24T11:00:27Z</time>
      </trkpt>
      <trkpt lat="43.64033" lon="3.79796">
        <ele>164.3</ele>
        <time>2017-10-24T11:00:30Z</time>
      </trkpt>
      <trkpt lat="43.64041" lon="3.79796">
        <ele>163.8</ele>
        <time>2017-10-24T11:00:33Z</time>
      </trkpt>
      <trkpt lat="43.64051" lon="3.79802">
        <ele>163.2</ele>
        <time>2017-10-24T11:00:36Z</time>
      </trkpt>
      <trkpt lat="43.64057" lon="3.79808">
        <ele>162.6</ele>
        <time>2017-10-24T11:00:39Z</time>
      </trkpt>
      <trkpt lat="43.64065" lon="3.79811">
        <ele>162.1</ele>
        <time>2017-10-24T11:00:43Z</time>
      </trkpt>
      <trkpt lat="43.64072" lon="3.79804">
        <ele>160.7</ele>
        <time>2017-10-24T11:00:49Z</time>
      </trkpt>
      <trkpt lat="43.6408" lon="3.79796">
        <ele>159.7</ele>
        <time>2017-10-24T11:00:53Z</time>
      </trkpt>
      <trkpt lat="43.64088" lon="3.79792">
        <ele>159.1</ele>
        <time>2017-10-24T11:00:55Z</time>
      </trkpt>
      <trkpt lat="43.64095" lon="3.79789">
        <ele>158.1</ele>
        <time>2017-10-24T11:00:58Z</time>
      </trkpt>
      <trkpt lat="43.64104" lon="3.79785">
        <ele>157.3</ele>
        <time>2017-10-24T11:01:01Z</time>
      </trkpt>
      <trkpt lat="43.64113" lon="3.7978">
        <ele>156.4</ele>
        <time>2017-10-24T11:01:04Z</time>
      </trkpt>
      <trkpt lat="43.6412" lon="3.79783">
        <ele>155.8</ele>
        <time>2017-10-24T11:01:06Z</time>
      </trkpt>
      <trkpt lat="43.6413" lon="3.79783">
        <ele>154.8</ele>
        <time>2017-10-24T11:01:09Z</time>
      </trkpt>
      <trkpt lat="43.64136" lon="3.79771">
        <ele>149.7</ele>
        <time>2017-10-24T11:01:14Z</time>
      </trkpt>
      <trkpt lat="43.64144" lon="3.79763">
        <ele>145.8</ele>
        <time>2017-10-24T11:01:16Z</time>
      </trkpt>
      <trkpt lat="43.64153" lon="3.79757">
        <ele>144.9</ele>
        <time>2017-10-24T11:01:19Z</time>
      </trkpt>
      <trkpt lat="43.64161" lon="3.79761">
        <ele>142.1</ele>
        <time>2017-10-24T11:01:21Z</time>
      </trkpt>
      <trkpt lat="43.64169" lon="3.79759">
        <ele>141.6</ele>
        <time>2017-10-24T11:01:23Z</time>
      </trkpt>
      <trkpt lat="43.64176" lon="3.79756">
        <ele>141.2</ele>
        <time>2017-10-24T11:01:25Z</time>
      </trkpt>
      <trkpt lat="43.64184" lon="3.79752">
        <ele>140.5</ele>
        <time>2017-10-24T11:01:28Z</time>
      </trkpt>
      <trkpt lat="43.64188" lon="3.79743">
        <ele>139.7</ele>
        <time>2017-10-24T11:01:32Z</time>
      </trkpt>
      <trkpt lat="43.64192" lon="3.79729">
        <ele>138.6</ele>
        <time>2017-10-24T11:01:36Z</time>
      </trkpt>
      <trkpt lat="43.64195" lon="3.79717">
        <ele>137.6</ele>
        <time>2017-10-24T11:01:40Z</time>
      </trkpt>
      <trkpt lat="43.642" lon="3.79706">
        <ele>136.9</ele>
        <time>2017-10-24T11:01:43Z</time>
      </trkpt>
      <trkpt lat="43.64203" lon="3.79696">
        <ele>136</ele>
        <time>2017-10-24T11:01:46Z</time>
      </trkpt>
      <trkpt lat="43.64203" lon="3.79686">
        <ele>134.2</ele>
        <time>2017-10-24T11:01:53Z</time>
      </trkpt>
      <trkpt lat="43.64205" lon="3.79674">
        <ele>133</ele>
        <time>2017-10-24T11:01:57Z</time>
      </trkpt>
      <trkpt lat="43.64207" lon="3.79662">
        <ele>132</ele>
        <time>2017-10-24T11:02:01Z</time>
      </trkpt>
      <trkpt lat="43.64211" lon="3.79651">
        <ele>131.2</ele>
        <time>2017-10-24T11:02:05Z</time>
      </trkpt>
      <trkpt lat="43.64218" lon="3.79642">
        <ele>129.5</ele>
        <time>2017-10-24T11:02:08Z</time>
      </trkpt>
      <trkpt lat="43.64225" lon="3.79635">
        <ele>127.6</ele>
        <time>2017-10-24T11:02:10Z</time>
      </trkpt>
      <trkpt lat="43.64232" lon="3.79625">
        <ele>127.2</ele>
        <time>2017-10-24T11:02:13Z</time>
      </trkpt>
      <trkpt lat="43.64236" lon="3.79616">
        <ele>126.8</ele>
        <time>2017-10-24T11:02:16Z</time>
      </trkpt>
      <trkpt lat="43.6424" lon="3.79608">
        <ele>126.1</ele>
        <time>2017-10-24T11:02:20Z</time>
      </trkpt>
      <trkpt lat="43.64248" lon="3.79603">
        <ele>125.5</ele>
        <time>2017-10-24T11:02:24Z</time>
      </trkpt>
      <trkpt lat="43.64257" lon="3.79602">
        <ele>124.8</ele>
        <time>2017-10-24T11:02:28Z</time>
      </trkpt>
      <trkpt lat="43.64264" lon="3.79599">
        <ele>124.1</ele>
        <time>2017-10-24T11:02:33Z</time>
      </trkpt>
      <trkpt lat="43.64269" lon="3.79588">
        <ele>123.4</ele>
        <time>2017-10-24T11:02:38Z</time>
      </trkpt>
      <trkpt lat="43.64274" lon="3.79579">
        <ele>122.8</ele>
        <time>2017-10-24T11:02:44Z</time>
      </trkpt>
      <trkpt lat="43.64279" lon="3.79569">
        <ele>122.3</ele>
        <time>2017-10-24T11:02:50Z</time>
      </trkpt>
      <trkpt lat="43.64284" lon="3.79559">
        <ele>121.6</ele>
        <time>2017-10-24T11:02:56Z</time>
      </trkpt>
      <trkpt lat="43.64289" lon="3.7955">
        <ele>121.2</ele>
        <time>2017-10-24T11:03:00Z</time>
      </trkpt>
      <trkpt lat="43.64291" lon="3.79539">
        <ele>120.8</ele>
        <time>2017-10-24T11:03:05Z</time>
      </trkpt>
      <trkpt lat="43.64295" lon="3.79529">
        <ele>120.5</ele>
        <time>2017-10-24T11:03:09Z</time>
      </trkpt>
      <trkpt lat="43.643" lon="3.79523">
        <ele>120</ele>
        <time>2017-10-24T11:03:13Z</time>
      </trkpt>
      <trkpt lat="43.64308" lon="3.79516">
        <ele>119.6</ele>
        <time>2017-10-24T11:03:17Z</time>
      </trkpt>
      <trkpt lat="43.64315" lon="3.79515">
        <ele>119.5</ele>
        <time>2017-10-24T11:03:22Z</time>
      </trkpt>
      <trkpt lat="43.64322" lon="3.7952">
        <ele>120</ele>
        <time>2017-10-24T11:03:27Z</time>
      </trkpt>
      <trkpt lat="43.6433" lon="3.79521">
        <ele>120.3</ele>
        <time>2017-10-24T11:03:30Z</time>
      </trkpt>
      <trkpt lat="43.64337" lon="3.79528">
        <ele>120.5</ele>
        <time>2017-10-24T11:03:32Z</time>
      </trkpt>
      <trkpt lat="43.64343" lon="3.79536">
        <ele>120.5</ele>
        <time>2017-10-24T11:03:34Z</time>
      </trkpt>
      <trkpt lat="43.64348" lon="3.79546">
        <ele>120.5</ele>
        <time>2017-10-24T11:03:36Z</time>
      </trkpt>
      <trkpt lat="43.64356" lon="3.79541">
        <ele>120.6</ele>
        <time>2017-10-24T11:03:39Z</time>
      </trkpt>
      <trkpt lat="43.64366" lon="3.79541">
        <ele>121.4</ele>
        <time>2017-10-24T11:03:41Z</time>
      </trkpt>
      <trkpt lat="43.64377" lon="3.79535">
        <ele>123.3</ele>
        <time>2017-10-24T11:03:43Z</time>
      </trkpt>
      <trkpt lat="43.64384" lon="3.79527">
        <ele>123.5</ele>
        <time>2017-10-24T11:03:45Z</time>
      </trkpt>
      <trkpt lat="43.64392" lon="3.79518">
        <ele>123.7</ele>
        <time>2017-10-24T11:03:48Z</time>
      </trkpt>
      <trkpt lat="43.64399" lon="3.79511">
        <ele>123.9</ele>
        <time>2017-10-24T11:03:51Z</time>
      </trkpt>
      <trkpt lat="43.64406" lon="3.79502">
        <ele>124</ele>
        <time>2017-10-24T11:03:54Z</time>
      </trkpt>
      <trkpt lat="43.64412" lon="3.79495">
        <ele>124.3</ele>
        <time>2017-10-24T11:03:57Z</time>
      </trkpt>
      <trkpt lat="43.64419" lon="3.7949">
        <ele>124.4</ele>
        <time>2017-10-24T11:04:00Z</time>
      </trkpt>
      <trkpt lat="43.64427" lon="3.79485">
        <ele>124.5</ele>
        <time>2017-10-24T11:04:04Z</time>
      </trkpt>
      <trkpt lat="43.64433" lon="3.79478">
        <ele>124.4</ele>
        <time>2017-10-24T11:04:07Z</time>
      </trkpt>
      <trkpt lat="43.6444" lon="3.7947">
        <ele>124.2</ele>
        <time>2017-10-24T11:04:11Z</time>
      </trkpt>
      <trkpt lat="43.64447" lon="3.79465">
        <ele>124</ele>
        <time>2017-10-24T11:04:14Z</time>
      </trkpt>
      <trkpt lat="43.64452" lon="3.79458">
        <ele>123.7</ele>
        <time>2017-10-24T11:04:17Z</time>
      </trkpt>
      <trkpt lat="43.64459" lon="3.79452">
        <ele>123.5</ele>
        <time>2017-10-24T11:04:20Z</time>
      </trkpt>
      <trkpt lat="43.64465" lon="3.79445">
        <ele>123.3</ele>
        <time>2017-10-24T11:04:23Z</time>
      </trkpt>
      <trkpt lat="43.64473" lon="3.79445">
        <ele>122</ele>
        <time>2017-10-24T11:04:25Z</time>
      </trkpt>
      <trkpt lat="43.64481" lon="3.79444">
        <ele>121.8</ele>
        <time>2017-10-24T11:04:27Z</time>
      </trkpt>
      <trkpt lat="43.6449" lon="3.79441">
        <ele>121.3</ele>
        <time>2017-10-24T11:04:30Z</time>
      </trkpt>
      <trkpt lat="43.645" lon="3.79437">
        <ele>120.6</ele>
        <time>2017-10-24T11:04:32Z</time>
      </trkpt>
      <trkpt lat="43.64509" lon="3.79437">
        <ele>120.5</ele>
        <time>2017-10-24T11:04:34Z</time>
      </trkpt>
      <trkpt lat="43.64518" lon="3.79433">
        <ele>119.8</ele>
        <time>2017-10-24T11:04:37Z</time>
      </trkpt>
      <trkpt lat="43.64526" lon="3.79433">
        <ele>120.5</ele>
        <time>2017-10-24T11:04:39Z</time>
      </trkpt>
      <trkpt lat="43.64533" lon="3.79444">
        <ele>120.5</ele>
        <time>2017-10-24T11:04:41Z</time>
      </trkpt>
      <trkpt lat="43.64543" lon="3.7944">
        <ele>122.9</ele>
        <time>2017-10-24T11:04:44Z</time>
      </trkpt>
      <trkpt lat="43.64554" lon="3.79444">
        <ele>122.2</ele>
        <time>2017-10-24T11:04:46Z</time>
      </trkpt>
      <trkpt lat="43.64561" lon="3.79448">
        <ele>121.6</ele>
        <time>2017-10-24T11:04:47Z</time>
      </trkpt>
      <trkpt lat="43.64571" lon="3.79452">
        <ele>121.6</ele>
        <time>2017-10-24T11:04:49Z</time>
      </trkpt>
      <trkpt lat="43.6458" lon="3.79452">
        <ele>121.6</ele>
        <time>2017-10-24T11:04:53Z</time>
      </trkpt>
      <trkpt lat="43.64586" lon="3.79447">
        <ele>121.5</ele>
        <time>2017-10-24T11:04:55Z</time>
      </trkpt>
      <trkpt lat="43.64591" lon="3.79437">
        <ele>121.2</ele>
        <time>2017-10-24T11:04:58Z</time>
      </trkpt>
      <trkpt lat="43.64597" lon="3.79428">
        <ele>120.8</ele>
        <time>2017-10-24T11:05:01Z</time>
      </trkpt>
      <trkpt lat="43.64604" lon="3.79419">
        <ele>120.5</ele>
        <time>2017-10-24T11:05:04Z</time>
      </trkpt>
      <trkpt lat="43.64613" lon="3.79412">
        <ele>120.3</ele>
        <time>2017-10-24T11:05:07Z</time>
      </trkpt>
      <trkpt lat="43.64618" lon="3.79402">
        <ele>120</ele>
        <time>2017-10-24T11:05:10Z</time>
      </trkpt>
      <trkpt lat="43.64626" lon="3.79391">
        <ele>120</ele>
        <time>2017-10-24T11:05:13Z</time>
      </trkpt>
      <trkpt lat="43.6463" lon="3.79381">
        <ele>119.8</ele>
        <time>2017-10-24T11:05:15Z</time>
      </trkpt>
      <trkpt lat="43.64633" lon="3.79369">
        <ele>119.6</ele>
        <time>2017-10-24T11:05:19Z</time>
      </trkpt>
      <trkpt lat="43.64637" lon="3.79356">
        <ele>119.5</ele>
        <time>2017-10-24T11:05:23Z</time>
      </trkpt>
      <trkpt lat="43.64637" lon="3.79343">
        <ele>119.5</ele>
        <time>2017-10-24T11:05:27Z</time>
      </trkpt>
      <trkpt lat="43.64638" lon="3.79331">
        <ele>119.4</ele>
        <time>2017-10-24T11:05:30Z</time>
      </trkpt>
      <trkpt lat="43.64643" lon="3.79322">
        <ele>119.4</ele>
        <time>2017-10-24T11:05:33Z</time>
      </trkpt>
      <trkpt lat="43.64645" lon="3.79312">
        <ele>119.3</ele>
        <time>2017-10-24T11:05:35Z</time>
      </trkpt>
      <trkpt lat="43.6465" lon="3.79304">
        <ele>119.2</ele>
        <time>2017-10-24T11:05:37Z</time>
      </trkpt>
      <trkpt lat="43.64657" lon="3.79296">
        <ele>119.2</ele>
        <time>2017-10-24T11:05:40Z</time>
      </trkpt>
      <trkpt lat="43.64665" lon="3.79295">
        <ele>121</ele>
        <time>2017-10-24T11:05:42Z</time>
      </trkpt>
      <trkpt lat="43.64672" lon="3.79294">
        <ele>121.1</ele>
        <time>2017-10-24T11:05:44Z</time>
      </trkpt>
      <trkpt lat="43.64679" lon="3.79289">
        <ele>121.3</ele>
        <time>2017-10-24T11:05:46Z</time>
      </trkpt>
      <trkpt lat="43.64683" lon="3.7928">
        <ele>121.4</ele>
        <time>2017-10-24T11:05:48Z</time>
      </trkpt>
      <trkpt lat="43.64686" lon="3.79269">
        <ele>121.5</ele>
        <time>2017-10-24T11:05:50Z</time>
      </trkpt>
      <trkpt lat="43.6469" lon="3.7926">
        <ele>121.5</ele>
        <time>2017-10-24T11:05:52Z</time>
      </trkpt>
      <trkpt lat="43.64697" lon="3.79251">
        <ele>121.5</ele>
        <time>2017-10-24T11:05:55Z</time>
      </trkpt>
      <trkpt lat="43.64699" lon="3.79242">
        <ele>121.5</ele>
        <time>2017-10-24T11:05:58Z</time>
      </trkpt>
      <trkpt lat="43.64701" lon="3.7923">
        <ele>121.6</ele>
        <time>2017-10-24T11:06:01Z</time>
      </trkpt>
      <trkpt lat="43.64704" lon="3.79219">
        <ele>121.8</ele>
        <time>2017-10-24T11:06:04Z</time>
      </trkpt>
      <trkpt lat="43.64707" lon="3.79212">
        <ele>122.6</ele>
        <time>2017-10-24T11:06:11Z</time>
      </trkpt>
      <trkpt lat="43.64707" lon="3.79213">
        <ele>123.4</ele>
        <time>2017-10-24T11:06:18Z</time>
      </trkpt>
      <trkpt lat="43.64704" lon="3.79215">
        <ele>124.4</ele>
        <time>2017-10-24T11:06:25Z</time>
      </trkpt>
      <trkpt lat="43.64704" lon="3.79227">
        <ele>125.9</ele>
        <time>2017-10-24T11:06:28Z</time>
      </trkpt>
      <trkpt lat="43.64708" lon="3.79244">
        <ele>126.1</ele>
        <time>2017-10-24T11:06:30Z</time>
      </trkpt>
      <trkpt lat="43.64708" lon="3.79252">
        <ele>125.6</ele>
        <time>2017-10-24T11:06:37Z</time>
      </trkpt>
      <trkpt lat="43.64709" lon="3.79242">
        <ele>125.5</ele>
        <time>2017-10-24T11:06:42Z</time>
      </trkpt>
      <trkpt lat="43.6471" lon="3.79228">
        <ele>125.4</ele>
        <time>2017-10-24T11:06:45Z</time>
      </trkpt>
      <trkpt lat="43.64712" lon="3.79216">
        <ele>125.4</ele>
        <time>2017-10-24T11:06:48Z</time>
      </trkpt>
      <trkpt lat="43.64712" lon="3.79206">
        <ele>125.5</ele>
        <time>2017-10-24T11:06:53Z</time>
      </trkpt>
      <trkpt lat="43.64717" lon="3.79195">
        <ele>125.9</ele>
        <time>2017-10-24T11:07:00Z</time>
      </trkpt>
      <trkpt lat="43.64724" lon="3.79192">
        <ele>126.2</ele>
        <time>2017-10-24T11:07:03Z</time>
      </trkpt>
      <trkpt lat="43.6473" lon="3.79183">
        <ele>127</ele>
        <time>2017-10-24T11:07:08Z</time>
      </trkpt>
      <trkpt lat="43.64736" lon="3.79177">
        <ele>127.6</ele>
        <time>2017-10-24T11:07:11Z</time>
      </trkpt>
      <trkpt lat="43.64741" lon="3.79166">
        <ele>128</ele>
        <time>2017-10-24T11:07:14Z</time>
      </trkpt>
      <trkpt lat="43.64748" lon="3.79159">
        <ele>128.4</ele>
        <time>2017-10-24T11:07:17Z</time>
      </trkpt>
      <trkpt lat="43.64754" lon="3.79153">
        <ele>128.7</ele>
        <time>2017-10-24T11:07:19Z</time>
      </trkpt>
      <trkpt lat="43.6476" lon="3.79144">
        <ele>129.1</ele>
        <time>2017-10-24T11:07:23Z</time>
      </trkpt>
      <trkpt lat="43.64763" lon="3.79135">
        <ele>130</ele>
        <time>2017-10-24T11:07:30Z</time>
      </trkpt>
      <trkpt lat="43.64764" lon="3.79133">
        <ele>130.1</ele>
        <time>2017-10-24T11:07:37Z</time>
      </trkpt>
      <trkpt lat="43.64769" lon="3.79132">
        <ele>126.1</ele>
        <time>2017-10-24T11:08:43Z</time>
      </trkpt>
      <trkpt lat="43.64772" lon="3.79127">
        <ele>125.1</ele>
        <time>2017-10-24T11:08:50Z</time>
      </trkpt>
      <trkpt lat="43.64773" lon="3.79125">
        <ele>124.2</ele>
        <time>2017-10-24T11:08:57Z</time>
      </trkpt>
      <trkpt lat="43.64781" lon="3.79128">
        <ele>123.7</ele>
        <time>2017-10-24T11:09:00Z</time>
      </trkpt>
      <trkpt lat="43.64791" lon="3.79124">
        <ele>121.6</ele>
        <time>2017-10-24T11:09:03Z</time>
      </trkpt>
      <trkpt lat="43.64801" lon="3.79118">
        <ele>119.5</ele>
        <time>2017-10-24T11:09:05Z</time>
      </trkpt>
      <trkpt lat="43.6481" lon="3.79109">
        <ele>117.5</ele>
        <time>2017-10-24T11:09:07Z</time>
      </trkpt>
      <trkpt lat="43.64817" lon="3.791">
        <ele>117</ele>
        <time>2017-10-24T11:09:09Z</time>
      </trkpt>
      <trkpt lat="43.64821" lon="3.79091">
        <ele>117</ele>
        <time>2017-10-24T11:09:11Z</time>
      </trkpt>
      <trkpt lat="43.64828" lon="3.79084">
        <ele>117.1</ele>
        <time>2017-10-24T11:09:13Z</time>
      </trkpt>
      <trkpt lat="43.64835" lon="3.7908">
        <ele>117.2</ele>
        <time>2017-10-24T11:09:15Z</time>
      </trkpt>
      <trkpt lat="43.64845" lon="3.79073">
        <ele>117.3</ele>
        <time>2017-10-24T11:09:17Z</time>
      </trkpt>
      <trkpt lat="43.64853" lon="3.79069">
        <ele>117.4</ele>
        <time>2017-10-24T11:09:19Z</time>
      </trkpt>
      <trkpt lat="43.64859" lon="3.79061">
        <ele>118.5</ele>
        <time>2017-10-24T11:09:21Z</time>
      </trkpt>
      <trkpt lat="43.64869" lon="3.79054">
        <ele>118.7</ele>
        <time>2017-10-24T11:09:23Z</time>
      </trkpt>
      <trkpt lat="43.64876" lon="3.79049">
        <ele>118.9</ele>
        <time>2017-10-24T11:09:25Z</time>
      </trkpt>
      <trkpt lat="43.64883" lon="3.79044">
        <ele>120.1</ele>
        <time>2017-10-24T11:09:27Z</time>
      </trkpt>
      <trkpt lat="43.6489" lon="3.79038">
        <ele>120.2</ele>
        <time>2017-10-24T11:09:29Z</time>
      </trkpt>
      <trkpt lat="43.64898" lon="3.79033">
        <ele>120.3</ele>
        <time>2017-10-24T11:09:31Z</time>
      </trkpt>
      <trkpt lat="43.64908" lon="3.7903">
        <ele>122.5</ele>
        <time>2017-10-24T11:09:34Z</time>
      </trkpt>
      <trkpt lat="43.64919" lon="3.79024">
        <ele>122.9</ele>
        <time>2017-10-24T11:09:36Z</time>
      </trkpt>
      <trkpt lat="43.64926" lon="3.79018">
        <ele>122.5</ele>
        <time>2017-10-24T11:09:38Z</time>
      </trkpt>
      <trkpt lat="43.64933" lon="3.7901">
        <ele>122.3</ele>
        <time>2017-10-24T11:09:40Z</time>
      </trkpt>
      <trkpt lat="43.64941" lon="3.79004">
        <ele>122.1</ele>
        <time>2017-10-24T11:09:42Z</time>
      </trkpt>
      <trkpt lat="43.64947" lon="3.78997">
        <ele>122.1</ele>
        <time>2017-10-24T11:09:44Z</time>
      </trkpt>
      <trkpt lat="43.64955" lon="3.78989">
        <ele>122</ele>
        <time>2017-10-24T11:09:46Z</time>
      </trkpt>
      <trkpt lat="43.64961" lon="3.78983">
        <ele>122</ele>
        <time>2017-10-24T11:09:48Z</time>
      </trkpt>
      <trkpt lat="43.6497" lon="3.78978">
        <ele>122</ele>
        <time>2017-10-24T11:09:50Z</time>
      </trkpt>
      <trkpt lat="43.6498" lon="3.7897">
        <ele>120.7</ele>
        <time>2017-10-24T11:09:52Z</time>
      </trkpt>
      <trkpt lat="43.64987" lon="3.78964">
        <ele>120.5</ele>
        <time>2017-10-24T11:09:54Z</time>
      </trkpt>
      <trkpt lat="43.64993" lon="3.78958">
        <ele>120.5</ele>
        <time>2017-10-24T11:09:56Z</time>
      </trkpt>
      <trkpt lat="43.65" lon="3.78951">
        <ele>120.6</ele>
        <time>2017-10-24T11:09:58Z</time>
      </trkpt>
      <trkpt lat="43.65008" lon="3.78944">
        <ele>120.6</ele>
        <time>2017-10-24T11:10:01Z</time>
      </trkpt>
      <trkpt lat="43.65015" lon="3.78934">
        <ele>120.5</ele>
        <time>2017-10-24T11:10:04Z</time>
      </trkpt>
      <trkpt lat="43.65022" lon="3.78928">
        <ele>120.6</ele>
        <time>2017-10-24T11:10:07Z</time>
      </trkpt>
      <trkpt lat="43.65028" lon="3.7892">
        <ele>121</ele>
        <time>2017-10-24T11:10:11Z</time>
      </trkpt>
      <trkpt lat="43.65038" lon="3.78916">
        <ele>121.5</ele>
        <time>2017-10-24T11:10:14Z</time>
      </trkpt>
      <trkpt lat="43.65046" lon="3.7891">
        <ele>123.3</ele>
        <time>2017-10-24T11:10:17Z</time>
      </trkpt>
      <trkpt lat="43.65053" lon="3.789">
        <ele>123.7</ele>
        <time>2017-10-24T11:10:20Z</time>
      </trkpt>
      <trkpt lat="43.65061" lon="3.78911">
        <ele>124.9</ele>
        <time>2017-10-24T11:10:27Z</time>
      </trkpt>
      <trkpt lat="43.65068" lon="3.78919">
        <ele>125.2</ele>
        <time>2017-10-24T11:10:29Z</time>
      </trkpt>
      <trkpt lat="43.65073" lon="3.78929">
        <ele>126.6</ele>
        <time>2017-10-24T11:10:32Z</time>
      </trkpt>
      <trkpt lat="43.65078" lon="3.78938">
        <ele>126.7</ele>
        <time>2017-10-24T11:10:34Z</time>
      </trkpt>
      <trkpt lat="43.65083" lon="3.78948">
        <ele>126.8</ele>
        <time>2017-10-24T11:10:36Z</time>
      </trkpt>
      <trkpt lat="43.65088" lon="3.78961">
        <ele>126.8</ele>
        <time>2017-10-24T11:10:39Z</time>
      </trkpt>
      <trkpt lat="43.65093" lon="3.78973">
        <ele>126.9</ele>
        <time>2017-10-24T11:10:42Z</time>
      </trkpt>
      <trkpt lat="43.65097" lon="3.78982">
        <ele>127.3</ele>
        <time>2017-10-24T11:10:44Z</time>
      </trkpt>
      <trkpt lat="43.65099" lon="3.78992">
        <ele>127.3</ele>
        <time>2017-10-24T11:10:46Z</time>
      </trkpt>
      <trkpt lat="43.651" lon="3.79003">
        <ele>127.2</ele>
        <time>2017-10-24T11:10:48Z</time>
      </trkpt>
      <trkpt lat="43.65099" lon="3.79018">
        <ele>127</ele>
        <time>2017-10-24T11:10:50Z</time>
      </trkpt>
      <trkpt lat="43.65098" lon="3.79031">
        <ele>126.7</ele>
        <time>2017-10-24T11:10:52Z</time>
      </trkpt>
      <trkpt lat="43.65098" lon="3.79043">
        <ele>126.4</ele>
        <time>2017-10-24T11:10:55Z</time>
      </trkpt>
      <trkpt lat="43.65093" lon="3.79052">
        <ele>125.6</ele>
        <time>2017-10-24T11:10:57Z</time>
      </trkpt>
      <trkpt lat="43.65087" lon="3.79061">
        <ele>125.4</ele>
        <time>2017-10-24T11:11:00Z</time>
      </trkpt>
      <trkpt lat="43.65082" lon="3.79072">
        <ele>125.3</ele>
        <time>2017-10-24T11:11:03Z</time>
      </trkpt>
      <trkpt lat="43.65077" lon="3.7908">
        <ele>124.9</ele>
        <time>2017-10-24T11:11:08Z</time>
      </trkpt>
      <trkpt lat="43.65075" lon="3.79082">
        <ele>124.9</ele>
        <time>2017-10-24T11:11:15Z</time>
      </trkpt>
      <trkpt lat="43.65075" lon="3.79078">
        <ele>124.2</ele>
        <time>2017-10-24T11:11:25Z</time>
      </trkpt>
      <trkpt lat="43.65082" lon="3.79076">
        <ele>123.6</ele>
        <time>2017-10-24T11:11:32Z</time>
      </trkpt>
      <trkpt lat="43.6509" lon="3.79072">
        <ele>123.4</ele>
        <time>2017-10-24T11:11:37Z</time>
      </trkpt>
      <trkpt lat="43.65097" lon="3.79069">
        <ele>122.9</ele>
        <time>2017-10-24T11:11:40Z</time>
      </trkpt>
      <trkpt lat="43.65104" lon="3.79064">
        <ele>122.2</ele>
        <time>2017-10-24T11:11:42Z</time>
      </trkpt>
      <trkpt lat="43.65113" lon="3.79058">
        <ele>121.9</ele>
        <time>2017-10-24T11:11:45Z</time>
      </trkpt>
      <trkpt lat="43.65121" lon="3.79051">
        <ele>121.7</ele>
        <time>2017-10-24T11:11:48Z</time>
      </trkpt>
      <trkpt lat="43.65132" lon="3.79049">
        <ele>121.3</ele>
        <time>2017-10-24T11:11:51Z</time>
      </trkpt>
      <trkpt lat="43.6514" lon="3.79047">
        <ele>121</ele>
        <time>2017-10-24T11:11:53Z</time>
      </trkpt>
      <trkpt lat="43.65147" lon="3.79045">
        <ele>120.6</ele>
        <time>2017-10-24T11:11:55Z</time>
      </trkpt>
      <trkpt lat="43.65155" lon="3.79045">
        <ele>120.2</ele>
        <time>2017-10-24T11:11:57Z</time>
      </trkpt>
      <trkpt lat="43.65163" lon="3.79045">
        <ele>119.8</ele>
        <time>2017-10-24T11:11:59Z</time>
      </trkpt>
      <trkpt lat="43.65171" lon="3.79045">
        <ele>119.4</ele>
        <time>2017-10-24T11:12:01Z</time>
      </trkpt>
      <trkpt lat="43.65179" lon="3.79046">
        <ele>115.3</ele>
        <time>2017-10-24T11:12:03Z</time>
      </trkpt>
      <trkpt lat="43.6519" lon="3.79046">
        <ele>115</ele>
        <time>2017-10-24T11:12:06Z</time>
      </trkpt>
      <trkpt lat="43.65199" lon="3.79051">
        <ele>114.3</ele>
        <time>2017-10-24T11:12:09Z</time>
      </trkpt>
      <trkpt lat="43.65205" lon="3.79061">
        <ele>113.5</ele>
        <time>2017-10-24T11:12:11Z</time>
      </trkpt>
      <trkpt lat="43.65212" lon="3.79066">
        <ele>113.5</ele>
        <time>2017-10-24T11:12:16Z</time>
      </trkpt>
      <trkpt lat="43.65221" lon="3.79071">
        <ele>113.6</ele>
        <time>2017-10-24T11:12:19Z</time>
      </trkpt>
      <trkpt lat="43.65231" lon="3.79073">
        <ele>113.7</ele>
        <time>2017-10-24T11:12:23Z</time>
      </trkpt>
      <trkpt lat="43.65239" lon="3.79079">
        <ele>114</ele>
        <time>2017-10-24T11:12:27Z</time>
      </trkpt>
      <trkpt lat="43.65247" lon="3.79085">
        <ele>114.3</ele>
        <time>2017-10-24T11:12:31Z</time>
      </trkpt>
      <trkpt lat="43.65254" lon="3.79091">
        <ele>114.8</ele>
        <time>2017-10-24T11:12:36Z</time>
      </trkpt>
      <trkpt lat="43.65261" lon="3.79092">
        <ele>115.4</ele>
        <time>2017-10-24T11:12:40Z</time>
      </trkpt>
      <trkpt lat="43.65269" lon="3.7909">
        <ele>116</ele>
        <time>2017-10-24T11:12:43Z</time>
      </trkpt>
      <trkpt lat="43.65278" lon="3.79089">
        <ele>118.4</ele>
        <time>2017-10-24T11:12:45Z</time>
      </trkpt>
      <trkpt lat="43.65286" lon="3.79089">
        <ele>119</ele>
        <time>2017-10-24T11:12:48Z</time>
      </trkpt>
      <trkpt lat="43.65295" lon="3.79092">
        <ele>119.5</ele>
        <time>2017-10-24T11:12:51Z</time>
      </trkpt>
      <trkpt lat="43.65303" lon="3.79097">
        <ele>120.2</ele>
        <time>2017-10-24T11:12:54Z</time>
      </trkpt>
      <trkpt lat="43.65311" lon="3.79102">
        <ele>121.1</ele>
        <time>2017-10-24T11:12:58Z</time>
      </trkpt>
      <trkpt lat="43.65318" lon="3.79108">
        <ele>122</ele>
        <time>2017-10-24T11:13:03Z</time>
      </trkpt>
      <trkpt lat="43.65326" lon="3.79114">
        <ele>122.6</ele>
        <time>2017-10-24T11:13:06Z</time>
      </trkpt>
      <trkpt lat="43.65332" lon="3.79121">
        <ele>123.2</ele>
        <time>2017-10-24T11:13:09Z</time>
      </trkpt>
      <trkpt lat="43.65339" lon="3.79119">
        <ele>123.8</ele>
        <time>2017-10-24T11:13:12Z</time>
      </trkpt>
      <trkpt lat="43.65347" lon="3.79122">
        <ele>124.3</ele>
        <time>2017-10-24T11:13:15Z</time>
      </trkpt>
      <trkpt lat="43.65357" lon="3.79123">
        <ele>126.2</ele>
        <time>2017-10-24T11:13:18Z</time>
      </trkpt>
      <trkpt lat="43.65367" lon="3.79123">
        <ele>126.7</ele>
        <time>2017-10-24T11:13:21Z</time>
      </trkpt>
      <trkpt lat="43.65375" lon="3.79124">
        <ele>128.3</ele>
        <time>2017-10-24T11:13:23Z</time>
      </trkpt>
      <trkpt lat="43.65386" lon="3.79127">
        <ele>130.8</ele>
        <time>2017-10-24T11:13:25Z</time>
      </trkpt>
      <trkpt lat="43.65397" lon="3.7913">
        <ele>132.3</ele>
        <time>2017-10-24T11:13:27Z</time>
      </trkpt>
      <trkpt lat="43.65408" lon="3.79133">
        <ele>133.7</ele>
        <time>2017-10-24T11:13:29Z</time>
      </trkpt>
      <trkpt lat="43.65417" lon="3.79133">
        <ele>133.8</ele>
        <time>2017-10-24T11:13:31Z</time>
      </trkpt>
      <trkpt lat="43.65424" lon="3.79135">
        <ele>134.7</ele>
        <time>2017-10-24T11:13:33Z</time>
      </trkpt>
      <trkpt lat="43.65435" lon="3.79135">
        <ele>135.4</ele>
        <time>2017-10-24T11:13:35Z</time>
      </trkpt>
      <trkpt lat="43.65444" lon="3.79134">
        <ele>136.8</ele>
        <time>2017-10-24T11:13:37Z</time>
      </trkpt>
      <trkpt lat="43.65454" lon="3.79139">
        <ele>137.7</ele>
        <time>2017-10-24T11:13:39Z</time>
      </trkpt>
      <trkpt lat="43.65462" lon="3.79143">
        <ele>137.7</ele>
        <time>2017-10-24T11:13:41Z</time>
      </trkpt>
      <trkpt lat="43.6547" lon="3.79142">
        <ele>138</ele>
        <time>2017-10-24T11:13:44Z</time>
      </trkpt>
      <trkpt lat="43.65478" lon="3.79141">
        <ele>138</ele>
        <time>2017-10-24T11:13:46Z</time>
      </trkpt>
      <trkpt lat="43.65488" lon="3.79147">
        <ele>137.8</ele>
        <time>2017-10-24T11:13:49Z</time>
      </trkpt>
      <trkpt lat="43.65495" lon="3.79151">
        <ele>137.8</ele>
        <time>2017-10-24T11:13:52Z</time>
      </trkpt>
      <trkpt lat="43.65504" lon="3.79154">
        <ele>137.8</ele>
        <time>2017-10-24T11:13:55Z</time>
      </trkpt>
      <trkpt lat="43.65512" lon="3.79153">
        <ele>137.8</ele>
        <time>2017-10-24T11:13:57Z</time>
      </trkpt>
      <trkpt lat="43.65519" lon="3.79153">
        <ele>137.2</ele>
        <time>2017-10-24T11:13:59Z</time>
      </trkpt>
      <trkpt lat="43.65528" lon="3.79152">
        <ele>137.1</ele>
        <time>2017-10-24T11:14:01Z</time>
      </trkpt>
      <trkpt lat="43.65536" lon="3.79153">
        <ele>136.7</ele>
        <time>2017-10-24T11:14:04Z</time>
      </trkpt>
      <trkpt lat="43.65546" lon="3.7916">
        <ele>133.8</ele>
        <time>2017-10-24T11:14:06Z</time>
      </trkpt>
      <trkpt lat="43.65552" lon="3.79169">
        <ele>133.7</ele>
        <time>2017-10-24T11:14:08Z</time>
      </trkpt>
      <trkpt lat="43.65557" lon="3.79177">
        <ele>133.7</ele>
        <time>2017-10-24T11:14:10Z</time>
      </trkpt>
      <trkpt lat="43.65564" lon="3.79183">
        <ele>133.6</ele>
        <time>2017-10-24T11:14:12Z</time>
      </trkpt>
      <trkpt lat="43.6557" lon="3.79189">
        <ele>133.5</ele>
        <time>2017-10-24T11:14:14Z</time>
      </trkpt>
      <trkpt lat="43.65576" lon="3.79197">
        <ele>133.3</ele>
        <time>2017-10-24T11:14:18Z</time>
      </trkpt>
      <trkpt lat="43.65583" lon="3.79203">
        <ele>133.1</ele>
        <time>2017-10-24T11:14:21Z</time>
      </trkpt>
      <trkpt lat="43.65591" lon="3.79209">
        <ele>132.9</ele>
        <time>2017-10-24T11:14:25Z</time>
      </trkpt>
      <trkpt lat="43.65599" lon="3.79214">
        <ele>132.8</ele>
        <time>2017-10-24T11:14:28Z</time>
      </trkpt>
      <trkpt lat="43.65607" lon="3.79217">
        <ele>132.8</ele>
        <time>2017-10-24T11:14:33Z</time>
      </trkpt>
      <trkpt lat="43.65614" lon="3.79224">
        <ele>132.7</ele>
        <time>2017-10-24T11:14:38Z</time>
      </trkpt>
      <trkpt lat="43.65622" lon="3.79227">
        <ele>132.7</ele>
        <time>2017-10-24T11:14:43Z</time>
      </trkpt>
      <trkpt lat="43.65629" lon="3.79235">
        <ele>132.7</ele>
        <time>2017-10-24T11:14:48Z</time>
      </trkpt>
      <trkpt lat="43.65638" lon="3.79239">
        <ele>132.8</ele>
        <time>2017-10-24T11:14:52Z</time>
      </trkpt>
      <trkpt lat="43.65636" lon="3.79251">
        <ele>133.4</ele>
        <time>2017-10-24T11:14:57Z</time>
      </trkpt>
      <trkpt lat="43.65639" lon="3.79266">
        <ele>134.2</ele>
        <time>2017-10-24T11:15:02Z</time>
      </trkpt>
      <trkpt lat="43.65643" lon="3.79276">
        <ele>134.8</ele>
        <time>2017-10-24T11:15:05Z</time>
      </trkpt>
      <trkpt lat="43.65653" lon="3.79275">
        <ele>135.5</ele>
        <time>2017-10-24T11:15:09Z</time>
      </trkpt>
      <trkpt lat="43.65661" lon="3.7928">
        <ele>136.4</ele>
        <time>2017-10-24T11:15:14Z</time>
      </trkpt>
      <trkpt lat="43.6567" lon="3.79286">
        <ele>137.2</ele>
        <time>2017-10-24T11:15:18Z</time>
      </trkpt>
      <trkpt lat="43.65678" lon="3.79289">
        <ele>137.7</ele>
        <time>2017-10-24T11:15:22Z</time>
      </trkpt>
      <trkpt lat="43.65685" lon="3.79293">
        <ele>137.9</ele>
        <time>2017-10-24T11:15:25Z</time>
      </trkpt>
      <trkpt lat="43.65691" lon="3.79298">
        <ele>138.1</ele>
        <time>2017-10-24T11:15:28Z</time>
      </trkpt>
      <trkpt lat="43.65699" lon="3.793">
        <ele>138.6</ele>
        <time>2017-10-24T11:15:32Z</time>
      </trkpt>
      <trkpt lat="43.65707" lon="3.79304">
        <ele>139.1</ele>
        <time>2017-10-24T11:15:36Z</time>
      </trkpt>
      <trkpt lat="43.65714" lon="3.79303">
        <ele>139.3</ele>
        <time>2017-10-24T11:15:38Z</time>
      </trkpt>
      <trkpt lat="43.65722" lon="3.79303">
        <ele>140.1</ele>
        <time>2017-10-24T11:15:40Z</time>
      </trkpt>
      <trkpt lat="43.65728" lon="3.79312">
        <ele>140.2</ele>
        <time>2017-10-24T11:15:42Z</time>
      </trkpt>
      <trkpt lat="43.65732" lon="3.7932">
        <ele>140.2</ele>
        <time>2017-10-24T11:15:44Z</time>
      </trkpt>
      <trkpt lat="43.65739" lon="3.79328">
        <ele>139.6</ele>
        <time>2017-10-24T11:15:46Z</time>
      </trkpt>
      <trkpt lat="43.65747" lon="3.79336">
        <ele>138.7</ele>
        <time>2017-10-24T11:15:48Z</time>
      </trkpt>
      <trkpt lat="43.65759" lon="3.79347">
        <ele>138.2</ele>
        <time>2017-10-24T11:15:50Z</time>
      </trkpt>
      <trkpt lat="43.65764" lon="3.79357">
        <ele>138.1</ele>
        <time>2017-10-24T11:15:52Z</time>
      </trkpt>
      <trkpt lat="43.65772" lon="3.79366">
        <ele>137.2</ele>
        <time>2017-10-24T11:15:54Z</time>
      </trkpt>
      <trkpt lat="43.65776" lon="3.79377">
        <ele>136.9</ele>
        <time>2017-10-24T11:15:56Z</time>
      </trkpt>
      <trkpt lat="43.65785" lon="3.79384">
        <ele>136.6</ele>
        <time>2017-10-24T11:15:58Z</time>
      </trkpt>
      <trkpt lat="43.65794" lon="3.79391">
        <ele>136.5</ele>
        <time>2017-10-24T11:16:01Z</time>
      </trkpt>
      <trkpt lat="43.65801" lon="3.79396">
        <ele>136.4</ele>
        <time>2017-10-24T11:16:03Z</time>
      </trkpt>
      <trkpt lat="43.65807" lon="3.79403">
        <ele>136.4</ele>
        <time>2017-10-24T11:16:06Z</time>
      </trkpt>
      <trkpt lat="43.65813" lon="3.79412">
        <ele>136.4</ele>
        <time>2017-10-24T11:16:09Z</time>
      </trkpt>
      <trkpt lat="43.65821" lon="3.79413">
        <ele>136.3</ele>
        <time>2017-10-24T11:16:15Z</time>
      </trkpt>
      <trkpt lat="43.65828" lon="3.79409">
        <ele>136.2</ele>
        <time>2017-10-24T11:16:17Z</time>
      </trkpt>
      <trkpt lat="43.65834" lon="3.79402">
        <ele>135.6</ele>
        <time>2017-10-24T11:16:19Z</time>
      </trkpt>
      <trkpt lat="43.65837" lon="3.7939">
        <ele>134.5</ele>
        <time>2017-10-24T11:16:21Z</time>
      </trkpt>
      <trkpt lat="43.65841" lon="3.79379">
        <ele>134.4</ele>
        <time>2017-10-24T11:16:24Z</time>
      </trkpt>
      <trkpt lat="43.65847" lon="3.79368">
        <ele>134.3</ele>
        <time>2017-10-24T11:16:28Z</time>
      </trkpt>
      <trkpt lat="43.65854" lon="3.7936">
        <ele>133.4</ele>
        <time>2017-10-24T11:16:30Z</time>
      </trkpt>
      <trkpt lat="43.65862" lon="3.79355">
        <ele>133.5</ele>
        <time>2017-10-24T11:16:32Z</time>
      </trkpt>
      <trkpt lat="43.65872" lon="3.79349">
        <ele>133.6</ele>
        <time>2017-10-24T11:16:35Z</time>
      </trkpt>
      <trkpt lat="43.65878" lon="3.79343">
        <ele>133.5</ele>
        <time>2017-10-24T11:16:38Z</time>
      </trkpt>
      <trkpt lat="43.65886" lon="3.79332">
        <ele>133.6</ele>
        <time>2017-10-24T11:16:41Z</time>
      </trkpt>
      <trkpt lat="43.65892" lon="3.7932">
        <ele>133.8</ele>
        <time>2017-10-24T11:16:44Z</time>
      </trkpt>
      <trkpt lat="43.65901" lon="3.79315">
        <ele>134</ele>
        <time>2017-10-24T11:16:46Z</time>
      </trkpt>
      <trkpt lat="43.6591" lon="3.79313">
        <ele>134.2</ele>
        <time>2017-10-24T11:16:48Z</time>
      </trkpt>
      <trkpt lat="43.65918" lon="3.79311">
        <ele>134.5</ele>
        <time>2017-10-24T11:16:50Z</time>
      </trkpt>
      <trkpt lat="43.65926" lon="3.79311">
        <ele>136</ele>
        <time>2017-10-24T11:16:52Z</time>
      </trkpt>
      <trkpt lat="43.65938" lon="3.79311">
        <ele>137.2</ele>
        <time>2017-10-24T11:16:54Z</time>
      </trkpt>
      <trkpt lat="43.65947" lon="3.79313">
        <ele>137.4</ele>
        <time>2017-10-24T11:16:56Z</time>
      </trkpt>
      <trkpt lat="43.65958" lon="3.79319">
        <ele>138.1</ele>
        <time>2017-10-24T11:16:58Z</time>
      </trkpt>
      <trkpt lat="43.65968" lon="3.79325">
        <ele>138.2</ele>
        <time>2017-10-24T11:17:00Z</time>
      </trkpt>
      <trkpt lat="43.65976" lon="3.79332">
        <ele>138.3</ele>
        <time>2017-10-24T11:17:02Z</time>
      </trkpt>
      <trkpt lat="43.65984" lon="3.79338">
        <ele>137.9</ele>
        <time>2017-10-24T11:17:04Z</time>
      </trkpt>
      <trkpt lat="43.65996" lon="3.7934">
        <ele>136</ele>
        <time>2017-10-24T11:17:06Z</time>
      </trkpt>
      <trkpt lat="43.66006" lon="3.79342">
        <ele>135.4</ele>
        <time>2017-10-24T11:17:08Z</time>
      </trkpt>
      <trkpt lat="43.66011" lon="3.79355">
        <ele>135.4</ele>
        <time>2017-10-24T11:17:10Z</time>
      </trkpt>
      <trkpt lat="43.66014" lon="3.79366">
        <ele>135.3</ele>
        <time>2017-10-24T11:17:12Z</time>
      </trkpt>
      <trkpt lat="43.66019" lon="3.79377">
        <ele>135.2</ele>
        <time>2017-10-24T11:17:14Z</time>
      </trkpt>
      <trkpt lat="43.66023" lon="3.7939">
        <ele>135.1</ele>
        <time>2017-10-24T11:17:16Z</time>
      </trkpt>
      <trkpt lat="43.66025" lon="3.79404">
        <ele>134.9</ele>
        <time>2017-10-24T11:17:19Z</time>
      </trkpt>
      <trkpt lat="43.66028" lon="3.79417">
        <ele>134.5</ele>
        <time>2017-10-24T11:17:23Z</time>
      </trkpt>
      <trkpt lat="43.6603" lon="3.79429">
        <ele>134.4</ele>
        <time>2017-10-24T11:17:26Z</time>
      </trkpt>
      <trkpt lat="43.66032" lon="3.79441">
        <ele>134.2</ele>
        <time>2017-10-24T11:17:29Z</time>
      </trkpt>
      <trkpt lat="43.66033" lon="3.79456">
        <ele>134.1</ele>
        <time>2017-10-24T11:17:32Z</time>
      </trkpt>
      <trkpt lat="43.66032" lon="3.79467">
        <ele>133.9</ele>
        <time>2017-10-24T11:17:35Z</time>
      </trkpt>
      <trkpt lat="43.66031" lon="3.7948">
        <ele>133.8</ele>
        <time>2017-10-24T11:17:38Z</time>
      </trkpt>
      <trkpt lat="43.66031" lon="3.79491">
        <ele>133.6</ele>
        <time>2017-10-24T11:17:41Z</time>
      </trkpt>
      <trkpt lat="43.6603" lon="3.79502">
        <ele>133.6</ele>
        <time>2017-10-24T11:17:44Z</time>
      </trkpt>
      <trkpt lat="43.6603" lon="3.79515">
        <ele>133.6</ele>
        <time>2017-10-24T11:17:47Z</time>
      </trkpt>
      <trkpt lat="43.6603" lon="3.79527">
        <ele>133.6</ele>
        <time>2017-10-24T11:17:50Z</time>
      </trkpt>
      <trkpt lat="43.6603" lon="3.79538">
        <ele>133.7</ele>
        <time>2017-10-24T11:17:53Z</time>
      </trkpt>
      <trkpt lat="43.66032" lon="3.7955">
        <ele>133.7</ele>
        <time>2017-10-24T11:17:56Z</time>
      </trkpt>
      <trkpt lat="43.66032" lon="3.79563">
        <ele>133.9</ele>
        <time>2017-10-24T11:18:00Z</time>
      </trkpt>
      <trkpt lat="43.66034" lon="3.79574">
        <ele>134</ele>
        <time>2017-10-24T11:18:04Z</time>
      </trkpt>
      <trkpt lat="43.66035" lon="3.79585">
        <ele>134.1</ele>
        <time>2017-10-24T11:18:07Z</time>
      </trkpt>
      <trkpt lat="43.66035" lon="3.79595">
        <ele>134.3</ele>
        <time>2017-10-24T11:18:10Z</time>
      </trkpt>
      <trkpt lat="43.66035" lon="3.79606">
        <ele>134.6</ele>
        <time>2017-10-24T11:18:13Z</time>
      </trkpt>
      <trkpt lat="43.66034" lon="3.79616">
        <ele>134.8</ele>
        <time>2017-10-24T11:18:16Z</time>
      </trkpt>
      <trkpt lat="43.66034" lon="3.79627">
        <ele>135</ele>
        <time>2017-10-24T11:18:18Z</time>
      </trkpt>
      <trkpt lat="43.66032" lon="3.79637">
        <ele>135.1</ele>
        <time>2017-10-24T11:18:20Z</time>
      </trkpt>
      <trkpt lat="43.66028" lon="3.79656">
        <ele>135.4</ele>
        <time>2017-10-24T11:18:25Z</time>
      </trkpt>
      <trkpt lat="43.66026" lon="3.79667">
        <ele>135.5</ele>
        <time>2017-10-24T11:18:28Z</time>
      </trkpt>
      <trkpt lat="43.66025" lon="3.79679">
        <ele>135.6</ele>
        <time>2017-10-24T11:18:31Z</time>
      </trkpt>
      <trkpt lat="43.66024" lon="3.79684">
        <ele>136.1</ele>
        <time>2017-10-24T11:18:38Z</time>
      </trkpt>
      <trkpt lat="43.66026" lon="3.79673">
        <ele>136.4</ele>
        <time>2017-10-24T11:18:42Z</time>
      </trkpt>
      <trkpt lat="43.6603" lon="3.79663">
        <ele>136.6</ele>
        <time>2017-10-24T11:18:45Z</time>
      </trkpt>
      <trkpt lat="43.66035" lon="3.79652">
        <ele>137.5</ele>
        <time>2017-10-24T11:18:48Z</time>
      </trkpt>
      <trkpt lat="43.6604" lon="3.79643">
        <ele>137.7</ele>
        <time>2017-10-24T11:18:50Z</time>
      </trkpt>
      <trkpt lat="43.66047" lon="3.79635">
        <ele>137.8</ele>
        <time>2017-10-24T11:18:53Z</time>
      </trkpt>
      <trkpt lat="43.66052" lon="3.79628">
        <ele>137.9</ele>
        <time>2017-10-24T11:18:55Z</time>
      </trkpt>
      <trkpt lat="43.6606" lon="3.79625">
        <ele>138</ele>
        <time>2017-10-24T11:18:57Z</time>
      </trkpt>
      <trkpt lat="43.66069" lon="3.79621">
        <ele>138.4</ele>
        <time>2017-10-24T11:19:00Z</time>
      </trkpt>
      <trkpt lat="43.66077" lon="3.79624">
        <ele>139.8</ele>
        <time>2017-10-24T11:19:02Z</time>
      </trkpt>
      <trkpt lat="43.66085" lon="3.79629">
        <ele>140</ele>
        <time>2017-10-24T11:19:05Z</time>
      </trkpt>
      <trkpt lat="43.66092" lon="3.79638">
        <ele>141.2</ele>
        <time>2017-10-24T11:19:08Z</time>
      </trkpt>
      <trkpt lat="43.66098" lon="3.79645">
        <ele>141.4</ele>
        <time>2017-10-24T11:19:10Z</time>
      </trkpt>
      <trkpt lat="43.66106" lon="3.79651">
        <ele>141.7</ele>
        <time>2017-10-24T11:19:13Z</time>
      </trkpt>
      <trkpt lat="43.66113" lon="3.7966">
        <ele>142</ele>
        <time>2017-10-24T11:19:16Z</time>
      </trkpt>
      <trkpt lat="43.6612" lon="3.79667">
        <ele>142.2</ele>
        <time>2017-10-24T11:19:19Z</time>
      </trkpt>
      <trkpt lat="43.66127" lon="3.79673">
        <ele>142.4</ele>
        <time>2017-10-24T11:19:22Z</time>
      </trkpt>
      <trkpt lat="43.66134" lon="3.79681">
        <ele>142.6</ele>
        <time>2017-10-24T11:19:25Z</time>
      </trkpt>
      <trkpt lat="43.6614" lon="3.79688">
        <ele>142.8</ele>
        <time>2017-10-24T11:19:27Z</time>
      </trkpt>
      <trkpt lat="43.66146" lon="3.79695">
        <ele>143</ele>
        <time>2017-10-24T11:19:29Z</time>
      </trkpt>
      <trkpt lat="43.66155" lon="3.79703">
        <ele>143.4</ele>
        <time>2017-10-24T11:19:32Z</time>
      </trkpt>
      <trkpt lat="43.66162" lon="3.7971">
        <ele>143.8</ele>
        <time>2017-10-24T11:19:35Z</time>
      </trkpt>
      <trkpt lat="43.6617" lon="3.79718">
        <ele>144.5</ele>
        <time>2017-10-24T11:19:39Z</time>
      </trkpt>
      <trkpt lat="43.66178" lon="3.79726">
        <ele>145</ele>
        <time>2017-10-24T11:19:42Z</time>
      </trkpt>
      <trkpt lat="43.66185" lon="3.79731">
        <ele>146.8</ele>
        <time>2017-10-24T11:19:44Z</time>
      </trkpt>
      <trkpt lat="43.66192" lon="3.79737">
        <ele>147.1</ele>
        <time>2017-10-24T11:19:46Z</time>
      </trkpt>
      <trkpt lat="43.662" lon="3.79744">
        <ele>147.6</ele>
        <time>2017-10-24T11:19:49Z</time>
      </trkpt>
      <trkpt lat="43.66207" lon="3.7975">
        <ele>148.1</ele>
        <time>2017-10-24T11:19:52Z</time>
      </trkpt>
      <trkpt lat="43.66216" lon="3.79756">
        <ele>148.6</ele>
        <time>2017-10-24T11:19:55Z</time>
      </trkpt>
      <trkpt lat="43.66224" lon="3.79762">
        <ele>149</ele>
        <time>2017-10-24T11:19:58Z</time>
      </trkpt>
      <trkpt lat="43.66233" lon="3.79766">
        <ele>149.5</ele>
        <time>2017-10-24T11:20:01Z</time>
      </trkpt>
      <trkpt lat="43.66241" lon="3.79774">
        <ele>149.8</ele>
        <time>2017-10-24T11:20:04Z</time>
      </trkpt>
      <trkpt lat="43.66248" lon="3.79783">
        <ele>150.2</ele>
        <time>2017-10-24T11:20:07Z</time>
      </trkpt>
      <trkpt lat="43.66254" lon="3.79792">
        <ele>150.5</ele>
        <time>2017-10-24T11:20:09Z</time>
      </trkpt>
      <trkpt lat="43.6626" lon="3.79803">
        <ele>150.9</ele>
        <time>2017-10-24T11:20:12Z</time>
      </trkpt>
      <trkpt lat="43.66264" lon="3.79811">
        <ele>151.3</ele>
        <time>2017-10-24T11:20:14Z</time>
      </trkpt>
      <trkpt lat="43.66269" lon="3.79821">
        <ele>152</ele>
        <time>2017-10-24T11:20:17Z</time>
      </trkpt>
      <trkpt lat="43.66275" lon="3.79825">
        <ele>152.6</ele>
        <time>2017-10-24T11:20:20Z</time>
      </trkpt>
      <trkpt lat="43.66285" lon="3.79825">
        <ele>153.7</ele>
        <time>2017-10-24T11:20:25Z</time>
      </trkpt>
      <trkpt lat="43.66293" lon="3.79823">
        <ele>154.5</ele>
        <time>2017-10-24T11:20:28Z</time>
      </trkpt>
      <trkpt lat="43.66302" lon="3.79827">
        <ele>155.2</ele>
        <time>2017-10-24T11:20:31Z</time>
      </trkpt>
      <trkpt lat="43.66311" lon="3.79831">
        <ele>157.5</ele>
        <time>2017-10-24T11:20:33Z</time>
      </trkpt>
      <trkpt lat="43.6632" lon="3.79837">
        <ele>160.6</ele>
        <time>2017-10-24T11:20:35Z</time>
      </trkpt>
      <trkpt lat="43.66327" lon="3.79846">
        <ele>160.7</ele>
        <time>2017-10-24T11:20:37Z</time>
      </trkpt>
      <trkpt lat="43.66333" lon="3.79855">
        <ele>160.8</ele>
        <time>2017-10-24T11:20:39Z</time>
      </trkpt>
      <trkpt lat="43.66339" lon="3.79864">
        <ele>160.9</ele>
        <time>2017-10-24T11:20:41Z</time>
      </trkpt>
      <trkpt lat="43.66345" lon="3.79872">
        <ele>161.1</ele>
        <time>2017-10-24T11:20:43Z</time>
      </trkpt>
      <trkpt lat="43.6635" lon="3.7988">
        <ele>161.1</ele>
        <time>2017-10-24T11:20:45Z</time>
      </trkpt>
      <trkpt lat="43.66355" lon="3.79888">
        <ele>161.2</ele>
        <time>2017-10-24T11:20:47Z</time>
      </trkpt>
      <trkpt lat="43.66361" lon="3.79897">
        <ele>161.2</ele>
        <time>2017-10-24T11:20:49Z</time>
      </trkpt>
      <trkpt lat="43.66366" lon="3.79908">
        <ele>161.3</ele>
        <time>2017-10-24T11:20:51Z</time>
      </trkpt>
      <trkpt lat="43.66369" lon="3.79919">
        <ele>161.4</ele>
        <time>2017-10-24T11:20:53Z</time>
      </trkpt>
      <trkpt lat="43.66374" lon="3.79928">
        <ele>161.6</ele>
        <time>2017-10-24T11:20:55Z</time>
      </trkpt>
      <trkpt lat="43.66378" lon="3.79941">
        <ele>163.2</ele>
        <time>2017-10-24T11:20:58Z</time>
      </trkpt>
      <trkpt lat="43.66386" lon="3.79947">
        <ele>163.5</ele>
        <time>2017-10-24T11:21:00Z</time>
      </trkpt>
      <trkpt lat="43.66396" lon="3.79952">
        <ele>163.7</ele>
        <time>2017-10-24T11:21:03Z</time>
      </trkpt>
      <trkpt lat="43.66406" lon="3.79955">
        <ele>163.8</ele>
        <time>2017-10-24T11:21:06Z</time>
      </trkpt>
      <trkpt lat="43.66414" lon="3.79957">
        <ele>163.9</ele>
        <time>2017-10-24T11:21:08Z</time>
      </trkpt>
      <trkpt lat="43.66421" lon="3.79964">
        <ele>163.9</ele>
        <time>2017-10-24T11:21:10Z</time>
      </trkpt>
      <trkpt lat="43.66428" lon="3.79969">
        <ele>163.9</ele>
        <time>2017-10-24T11:21:12Z</time>
      </trkpt>
      <trkpt lat="43.66436" lon="3.79975">
        <ele>163.6</ele>
        <time>2017-10-24T11:21:14Z</time>
      </trkpt>
      <trkpt lat="43.66443" lon="3.79979">
        <ele>163.3</ele>
        <time>2017-10-24T11:21:16Z</time>
      </trkpt>
      <trkpt lat="43.66454" lon="3.79986">
        <ele>162.9</ele>
        <time>2017-10-24T11:21:19Z</time>
      </trkpt>
      <trkpt lat="43.66461" lon="3.79991">
        <ele>162.7</ele>
        <time>2017-10-24T11:21:21Z</time>
      </trkpt>
      <trkpt lat="43.66468" lon="3.79997">
        <ele>162.4</ele>
        <time>2017-10-24T11:21:23Z</time>
      </trkpt>
      <trkpt lat="43.66475" lon="3.80002">
        <ele>161.6</ele>
        <time>2017-10-24T11:21:25Z</time>
      </trkpt>
      <trkpt lat="43.66484" lon="3.8001">
        <ele>161</ele>
        <time>2017-10-24T11:21:27Z</time>
      </trkpt>
      <trkpt lat="43.66493" lon="3.80016">
        <ele>160.8</ele>
        <time>2017-10-24T11:21:29Z</time>
      </trkpt>
      <trkpt lat="43.66501" lon="3.80023">
        <ele>160.7</ele>
        <time>2017-10-24T11:21:31Z</time>
      </trkpt>
      <trkpt lat="43.66508" lon="3.80028">
        <ele>160.7</ele>
        <time>2017-10-24T11:21:33Z</time>
      </trkpt>
      <trkpt lat="43.66517" lon="3.80034">
        <ele>161.1</ele>
        <time>2017-10-24T11:21:36Z</time>
      </trkpt>
      <trkpt lat="43.66524" lon="3.8004">
        <ele>161.2</ele>
        <time>2017-10-24T11:21:38Z</time>
      </trkpt>
      <trkpt lat="43.66531" lon="3.80042">
        <ele>161.3</ele>
        <time>2017-10-24T11:21:40Z</time>
      </trkpt>
      <trkpt lat="43.66541" lon="3.80046">
        <ele>161.4</ele>
        <time>2017-10-24T11:21:42Z</time>
      </trkpt>
      <trkpt lat="43.66549" lon="3.80053">
        <ele>161.9</ele>
        <time>2017-10-24T11:21:44Z</time>
      </trkpt>
      <trkpt lat="43.66557" lon="3.80058">
        <ele>162.7</ele>
        <time>2017-10-24T11:21:46Z</time>
      </trkpt>
      <trkpt lat="43.66566" lon="3.80065">
        <ele>162.9</ele>
        <time>2017-10-24T11:21:48Z</time>
      </trkpt>
      <trkpt lat="43.66573" lon="3.80071">
        <ele>163.2</ele>
        <time>2017-10-24T11:21:50Z</time>
      </trkpt>
      <trkpt lat="43.66581" lon="3.80076">
        <ele>163.3</ele>
        <time>2017-10-24T11:21:52Z</time>
      </trkpt>
      <trkpt lat="43.66587" lon="3.80083">
        <ele>163.6</ele>
        <time>2017-10-24T11:21:54Z</time>
      </trkpt>
      <trkpt lat="43.66595" lon="3.80092">
        <ele>163.8</ele>
        <time>2017-10-24T11:21:56Z</time>
      </trkpt>
      <trkpt lat="43.66601" lon="3.80101">
        <ele>163.8</ele>
        <time>2017-10-24T11:21:58Z</time>
      </trkpt>
      <trkpt lat="43.66607" lon="3.8011">
        <ele>163.8</ele>
        <time>2017-10-24T11:22:00Z</time>
      </trkpt>
      <trkpt lat="43.66613" lon="3.80118">
        <ele>163.8</ele>
        <time>2017-10-24T11:22:02Z</time>
      </trkpt>
      <trkpt lat="43.66619" lon="3.80126">
        <ele>164</ele>
        <time>2017-10-24T11:22:04Z</time>
      </trkpt>
      <trkpt lat="43.66626" lon="3.80131">
        <ele>163.7</ele>
        <time>2017-10-24T11:22:06Z</time>
      </trkpt>
      <trkpt lat="43.66636" lon="3.8013">
        <ele>163.7</ele>
        <time>2017-10-24T11:22:09Z</time>
      </trkpt>
      <trkpt lat="43.66647" lon="3.80129">
        <ele>163.6</ele>
        <time>2017-10-24T11:22:12Z</time>
      </trkpt>
      <trkpt lat="43.66656" lon="3.8013">
        <ele>163.6</ele>
        <time>2017-10-24T11:22:15Z</time>
      </trkpt>
      <trkpt lat="43.66664" lon="3.80134">
        <ele>163.5</ele>
        <time>2017-10-24T11:22:17Z</time>
      </trkpt>
      <trkpt lat="43.66672" lon="3.80135">
        <ele>163.6</ele>
        <time>2017-10-24T11:22:19Z</time>
      </trkpt>
      <trkpt lat="43.66679" lon="3.80142">
        <ele>163.5</ele>
        <time>2017-10-24T11:22:21Z</time>
      </trkpt>
      <trkpt lat="43.66687" lon="3.80148">
        <ele>163.6</ele>
        <time>2017-10-24T11:22:24Z</time>
      </trkpt>
      <trkpt lat="43.66694" lon="3.80153">
        <ele>164.2</ele>
        <time>2017-10-24T11:22:26Z</time>
      </trkpt>
      <trkpt lat="43.66705" lon="3.80154">
        <ele>164.4</ele>
        <time>2017-10-24T11:22:29Z</time>
      </trkpt>
      <trkpt lat="43.66713" lon="3.80156">
        <ele>164.6</ele>
        <time>2017-10-24T11:22:32Z</time>
      </trkpt>
      <trkpt lat="43.66723" lon="3.8016">
        <ele>165</ele>
        <time>2017-10-24T11:22:35Z</time>
      </trkpt>
      <trkpt lat="43.66732" lon="3.80166">
        <ele>165.5</ele>
        <time>2017-10-24T11:22:38Z</time>
      </trkpt>
      <trkpt lat="43.66741" lon="3.80171">
        <ele>166.1</ele>
        <time>2017-10-24T11:22:41Z</time>
      </trkpt>
      <trkpt lat="43.66748" lon="3.80177">
        <ele>166.6</ele>
        <time>2017-10-24T11:22:44Z</time>
      </trkpt>
      <trkpt lat="43.66754" lon="3.80182">
        <ele>167.1</ele>
        <time>2017-10-24T11:22:46Z</time>
      </trkpt>
      <trkpt lat="43.66762" lon="3.80186">
        <ele>167.7</ele>
        <time>2017-10-24T11:22:49Z</time>
      </trkpt>
      <trkpt lat="43.6677" lon="3.80193">
        <ele>168.2</ele>
        <time>2017-10-24T11:22:52Z</time>
      </trkpt>
      <trkpt lat="43.66779" lon="3.80199">
        <ele>168.6</ele>
        <time>2017-10-24T11:22:55Z</time>
      </trkpt>
      <trkpt lat="43.66786" lon="3.80201">
        <ele>168.9</ele>
        <time>2017-10-24T11:22:58Z</time>
      </trkpt>
      <trkpt lat="43.66794" lon="3.80201">
        <ele>169.3</ele>
        <time>2017-10-24T11:23:01Z</time>
      </trkpt>
      <trkpt lat="43.66801" lon="3.80195">
        <ele>170</ele>
        <time>2017-10-24T11:23:05Z</time>
      </trkpt>
      <trkpt lat="43.66808" lon="3.80191">
        <ele>170.6</ele>
        <time>2017-10-24T11:23:08Z</time>
      </trkpt>
      <trkpt lat="43.66816" lon="3.80187">
        <ele>171.3</ele>
        <time>2017-10-24T11:23:11Z</time>
      </trkpt>
      <trkpt lat="43.66825" lon="3.80185">
        <ele>171.9</ele>
        <time>2017-10-24T11:23:14Z</time>
      </trkpt>
      <trkpt lat="43.66834" lon="3.80184">
        <ele>172.1</ele>
        <time>2017-10-24T11:23:16Z</time>
      </trkpt>
      <trkpt lat="43.66846" lon="3.80185">
        <ele>172.2</ele>
        <time>2017-10-24T11:23:19Z</time>
      </trkpt>
      <trkpt lat="43.66853" lon="3.80187">
        <ele>172.4</ele>
        <time>2017-10-24T11:23:21Z</time>
      </trkpt>
      <trkpt lat="43.66862" lon="3.80191">
        <ele>172.5</ele>
        <time>2017-10-24T11:23:23Z</time>
      </trkpt>
      <trkpt lat="43.66871" lon="3.80196">
        <ele>172.7</ele>
        <time>2017-10-24T11:23:25Z</time>
      </trkpt>
      <trkpt lat="43.66879" lon="3.80199">
        <ele>172.9</ele>
        <time>2017-10-24T11:23:27Z</time>
      </trkpt>
      <trkpt lat="43.66888" lon="3.80207">
        <ele>173.4</ele>
        <time>2017-10-24T11:23:30Z</time>
      </trkpt>
      <trkpt lat="43.66895" lon="3.80213">
        <ele>173.7</ele>
        <time>2017-10-24T11:23:32Z</time>
      </trkpt>
      <trkpt lat="43.66904" lon="3.80219">
        <ele>174.4</ele>
        <time>2017-10-24T11:23:35Z</time>
      </trkpt>
      <trkpt lat="43.66914" lon="3.80228">
        <ele>174.9</ele>
        <time>2017-10-24T11:23:38Z</time>
      </trkpt>
      <trkpt lat="43.66915" lon="3.8024">
        <ele>175.3</ele>
        <time>2017-10-24T11:23:40Z</time>
      </trkpt>
      <trkpt lat="43.66912" lon="3.80244">
        <ele>176.3</ele>
        <time>2017-10-24T11:23:47Z</time>
      </trkpt>
      <trkpt lat="43.66902" lon="3.80242">
        <ele>176.8</ele>
        <time>2017-10-24T11:23:50Z</time>
      </trkpt>
      <trkpt lat="43.66894" lon="3.80244">
        <ele>177.3</ele>
        <time>2017-10-24T11:23:53Z</time>
      </trkpt>
      <trkpt lat="43.66884" lon="3.80245">
        <ele>177.6</ele>
        <time>2017-10-24T11:23:55Z</time>
      </trkpt>
      <trkpt lat="43.66877" lon="3.80247">
        <ele>177.9</ele>
        <time>2017-10-24T11:23:57Z</time>
      </trkpt>
      <trkpt lat="43.66869" lon="3.80253">
        <ele>178.5</ele>
        <time>2017-10-24T11:24:00Z</time>
      </trkpt>
      <trkpt lat="43.66863" lon="3.80258">
        <ele>179.2</ele>
        <time>2017-10-24T11:24:03Z</time>
      </trkpt>
      <trkpt lat="43.66854" lon="3.80267">
        <ele>180.2</ele>
        <time>2017-10-24T11:24:07Z</time>
      </trkpt>
      <trkpt lat="43.66846" lon="3.80272">
        <ele>181</ele>
        <time>2017-10-24T11:24:10Z</time>
      </trkpt>
      <trkpt lat="43.66839" lon="3.80278">
        <ele>181.6</ele>
        <time>2017-10-24T11:24:12Z</time>
      </trkpt>
      <trkpt lat="43.66831" lon="3.80283">
        <ele>182.6</ele>
        <time>2017-10-24T11:24:15Z</time>
      </trkpt>
      <trkpt lat="43.66822" lon="3.80286">
        <ele>185.6</ele>
        <time>2017-10-24T11:24:18Z</time>
      </trkpt>
      <trkpt lat="43.66813" lon="3.80285">
        <ele>186</ele>
        <time>2017-10-24T11:24:20Z</time>
      </trkpt>
      <trkpt lat="43.66805" lon="3.80288">
        <ele>186.6</ele>
        <time>2017-10-24T11:24:22Z</time>
      </trkpt>
      <trkpt lat="43.66796" lon="3.8029">
        <ele>187.5</ele>
        <time>2017-10-24T11:24:25Z</time>
      </trkpt>
      <trkpt lat="43.66786" lon="3.80288">
        <ele>188.1</ele>
        <time>2017-10-24T11:24:27Z</time>
      </trkpt>
      <trkpt lat="43.66777" lon="3.80289">
        <ele>188.8</ele>
        <time>2017-10-24T11:24:29Z</time>
      </trkpt>
      <trkpt lat="43.66764" lon="3.8029">
        <ele>189.5</ele>
        <time>2017-10-24T11:24:31Z</time>
      </trkpt>
      <trkpt lat="43.66757" lon="3.80293">
        <ele>189.9</ele>
        <time>2017-10-24T11:24:33Z</time>
      </trkpt>
      <trkpt lat="43.66747" lon="3.80295">
        <ele>190.6</ele>
        <time>2017-10-24T11:24:36Z</time>
      </trkpt>
      <trkpt lat="43.66739" lon="3.80298">
        <ele>191.2</ele>
        <time>2017-10-24T11:24:39Z</time>
      </trkpt>
      <trkpt lat="43.66729" lon="3.80298">
        <ele>191.9</ele>
        <time>2017-10-24T11:24:42Z</time>
      </trkpt>
      <trkpt lat="43.6672" lon="3.803">
        <ele>192.3</ele>
        <time>2017-10-24T11:24:45Z</time>
      </trkpt>
      <trkpt lat="43.66712" lon="3.80296">
        <ele>192.6</ele>
        <time>2017-10-24T11:24:48Z</time>
      </trkpt>
      <trkpt lat="43.66704" lon="3.80297">
        <ele>192.7</ele>
        <time>2017-10-24T11:24:51Z</time>
      </trkpt>
      <trkpt lat="43.66696" lon="3.80296">
        <ele>192.8</ele>
        <time>2017-10-24T11:24:54Z</time>
      </trkpt>
      <trkpt lat="43.66689" lon="3.80296">
        <ele>192.9</ele>
        <time>2017-10-24T11:24:57Z</time>
      </trkpt>
      <trkpt lat="43.6668" lon="3.80293">
        <ele>192.9</ele>
        <time>2017-10-24T11:25:00Z</time>
      </trkpt>
      <trkpt lat="43.66669" lon="3.80292">
        <ele>193.1</ele>
        <time>2017-10-24T11:25:03Z</time>
      </trkpt>
      <trkpt lat="43.66662" lon="3.80292">
        <ele>193.3</ele>
        <time>2017-10-24T11:25:05Z</time>
      </trkpt>
      <trkpt lat="43.66653" lon="3.80291">
        <ele>193.6</ele>
        <time>2017-10-24T11:25:08Z</time>
      </trkpt>
      <trkpt lat="43.66642" lon="3.80291">
        <ele>195.6</ele>
        <time>2017-10-24T11:25:10Z</time>
      </trkpt>
      <trkpt lat="43.66633" lon="3.80293">
        <ele>195.7</ele>
        <time>2017-10-24T11:25:13Z</time>
      </trkpt>
      <trkpt lat="43.66624" lon="3.80293">
        <ele>195.8</ele>
        <time>2017-10-24T11:25:15Z</time>
      </trkpt>
      <trkpt lat="43.66617" lon="3.80296">
        <ele>196</ele>
        <time>2017-10-24T11:25:17Z</time>
      </trkpt>
      <trkpt lat="43.6661" lon="3.80297">
        <ele>196.1</ele>
        <time>2017-10-24T11:25:20Z</time>
      </trkpt>
      <trkpt lat="43.66601" lon="3.80299">
        <ele>197.9</ele>
        <time>2017-10-24T11:25:23Z</time>
      </trkpt>
      <trkpt lat="43.66595" lon="3.80305">
        <ele>198.1</ele>
        <time>2017-10-24T11:25:26Z</time>
      </trkpt>
      <trkpt lat="43.66588" lon="3.80311">
        <ele>198.1</ele>
        <time>2017-10-24T11:25:29Z</time>
      </trkpt>
      <trkpt lat="43.66581" lon="3.80318">
        <ele>198.2</ele>
        <time>2017-10-24T11:25:32Z</time>
      </trkpt>
      <trkpt lat="43.66575" lon="3.80325">
        <ele>198.3</ele>
        <time>2017-10-24T11:25:35Z</time>
      </trkpt>
      <trkpt lat="43.66567" lon="3.80331">
        <ele>198.4</ele>
        <time>2017-10-24T11:25:39Z</time>
      </trkpt>
      <trkpt lat="43.66562" lon="3.80338">
        <ele>198.4</ele>
        <time>2017-10-24T11:25:42Z</time>
      </trkpt>
      <trkpt lat="43.66556" lon="3.80345">
        <ele>198.5</ele>
        <time>2017-10-24T11:25:45Z</time>
      </trkpt>
      <trkpt lat="43.6655" lon="3.80353">
        <ele>198.7</ele>
        <time>2017-10-24T11:25:48Z</time>
      </trkpt>
      <trkpt lat="43.66543" lon="3.80359">
        <ele>198.9</ele>
        <time>2017-10-24T11:25:51Z</time>
      </trkpt>
      <trkpt lat="43.66536" lon="3.80365">
        <ele>199.1</ele>
        <time>2017-10-24T11:25:53Z</time>
      </trkpt>
      <trkpt lat="43.6653" lon="3.80372">
        <ele>199.2</ele>
        <time>2017-10-24T11:25:56Z</time>
      </trkpt>
      <trkpt lat="43.66526" lon="3.80382">
        <ele>199.7</ele>
        <time>2017-10-24T11:26:01Z</time>
      </trkpt>
      <trkpt lat="43.66523" lon="3.80393">
        <ele>200.1</ele>
        <time>2017-10-24T11:26:05Z</time>
      </trkpt>
      <trkpt lat="43.66518" lon="3.80404">
        <ele>200.3</ele>
        <time>2017-10-24T11:26:08Z</time>
      </trkpt>
      <trkpt lat="43.66514" lon="3.80416">
        <ele>200.6</ele>
        <time>2017-10-24T11:26:11Z</time>
      </trkpt>
      <trkpt lat="43.6651" lon="3.80428">
        <ele>200.9</ele>
        <time>2017-10-24T11:26:14Z</time>
      </trkpt>
      <trkpt lat="43.66507" lon="3.8044">
        <ele>201.1</ele>
        <time>2017-10-24T11:26:17Z</time>
      </trkpt>
      <trkpt lat="43.66504" lon="3.80453">
        <ele>201.1</ele>
        <time>2017-10-24T11:26:20Z</time>
      </trkpt>
      <trkpt lat="43.66502" lon="3.80466">
        <ele>201.1</ele>
        <time>2017-10-24T11:26:23Z</time>
      </trkpt>
      <trkpt lat="43.665" lon="3.80481">
        <ele>201.1</ele>
        <time>2017-10-24T11:26:26Z</time>
      </trkpt>
      <trkpt lat="43.66499" lon="3.80493">
        <ele>201.1</ele>
        <time>2017-10-24T11:26:29Z</time>
      </trkpt>
      <trkpt lat="43.66496" lon="3.80506">
        <ele>200.7</ele>
        <time>2017-10-24T11:26:31Z</time>
      </trkpt>
      <trkpt lat="43.66493" lon="3.80516">
        <ele>200.6</ele>
        <time>2017-10-24T11:26:34Z</time>
      </trkpt>
      <trkpt lat="43.66497" lon="3.80528">
        <ele>200.5</ele>
        <time>2017-10-24T11:26:38Z</time>
      </trkpt>
      <trkpt lat="43.66503" lon="3.80536">
        <ele>200.4</ele>
        <time>2017-10-24T11:26:41Z</time>
      </trkpt>
      <trkpt lat="43.6651" lon="3.80547">
        <ele>200.3</ele>
        <time>2017-10-24T11:26:44Z</time>
      </trkpt>
      <trkpt lat="43.66517" lon="3.80555">
        <ele>200.2</ele>
        <time>2017-10-24T11:26:46Z</time>
      </trkpt>
      <trkpt lat="43.66523" lon="3.80561">
        <ele>200.2</ele>
        <time>2017-10-24T11:26:48Z</time>
      </trkpt>
      <trkpt lat="43.66528" lon="3.80569">
        <ele>200.2</ele>
        <time>2017-10-24T11:26:50Z</time>
      </trkpt>
      <trkpt lat="43.66533" lon="3.80578">
        <ele>200.5</ele>
        <time>2017-10-24T11:26:52Z</time>
      </trkpt>
      <trkpt lat="43.66537" lon="3.80586">
        <ele>200.6</ele>
        <time>2017-10-24T11:26:54Z</time>
      </trkpt>
      <trkpt lat="43.66543" lon="3.80596">
        <ele>201.1</ele>
        <time>2017-10-24T11:26:56Z</time>
      </trkpt>
      <trkpt lat="43.66548" lon="3.80605">
        <ele>201</ele>
        <time>2017-10-24T11:26:58Z</time>
      </trkpt>
      <trkpt lat="43.66552" lon="3.80614">
        <ele>200.6</ele>
        <time>2017-10-24T11:27:00Z</time>
      </trkpt>
      <trkpt lat="43.66559" lon="3.80625">
        <ele>200.2</ele>
        <time>2017-10-24T11:27:02Z</time>
      </trkpt>
      <trkpt lat="43.66565" lon="3.80636">
        <ele>200.1</ele>
        <time>2017-10-24T11:27:04Z</time>
      </trkpt>
      <trkpt lat="43.6657" lon="3.80649">
        <ele>199.9</ele>
        <time>2017-10-24T11:27:06Z</time>
      </trkpt>
      <trkpt lat="43.66575" lon="3.8066">
        <ele>199.9</ele>
        <time>2017-10-24T11:27:08Z</time>
      </trkpt>
      <trkpt lat="43.6658" lon="3.80673">
        <ele>199.7</ele>
        <time>2017-10-24T11:27:10Z</time>
      </trkpt>
      <trkpt lat="43.66585" lon="3.80685">
        <ele>199.7</ele>
        <time>2017-10-24T11:27:12Z</time>
      </trkpt>
      <trkpt lat="43.6659" lon="3.80697">
        <ele>199.4</ele>
        <time>2017-10-24T11:27:14Z</time>
      </trkpt>
      <trkpt lat="43.66594" lon="3.80708">
        <ele>199.1</ele>
        <time>2017-10-24T11:27:16Z</time>
      </trkpt>
      <trkpt lat="43.66599" lon="3.80718">
        <ele>198.6</ele>
        <time>2017-10-24T11:27:18Z</time>
      </trkpt>
      <trkpt lat="43.66604" lon="3.80731">
        <ele>198.7</ele>
        <time>2017-10-24T11:27:20Z</time>
      </trkpt>
      <trkpt lat="43.66606" lon="3.80743">
        <ele>199.2</ele>
        <time>2017-10-24T11:27:22Z</time>
      </trkpt>
      <trkpt lat="43.66607" lon="3.80756">
        <ele>199.9</ele>
        <time>2017-10-24T11:27:24Z</time>
      </trkpt>
      <trkpt lat="43.66609" lon="3.80767">
        <ele>201.1</ele>
        <time>2017-10-24T11:27:26Z</time>
      </trkpt>
      <trkpt lat="43.66611" lon="3.8078">
        <ele>201.7</ele>
        <time>2017-10-24T11:27:28Z</time>
      </trkpt>
      <trkpt lat="43.66612" lon="3.80793">
        <ele>202</ele>
        <time>2017-10-24T11:27:30Z</time>
      </trkpt>
      <trkpt lat="43.66614" lon="3.80805">
        <ele>202.1</ele>
        <time>2017-10-24T11:27:32Z</time>
      </trkpt>
      <trkpt lat="43.66615" lon="3.80819">
        <ele>202.2</ele>
        <time>2017-10-24T11:27:34Z</time>
      </trkpt>
      <trkpt lat="43.66616" lon="3.80832">
        <ele>202.5</ele>
        <time>2017-10-24T11:27:36Z</time>
      </trkpt>
      <trkpt lat="43.66617" lon="3.80844">
        <ele>202.7</ele>
        <time>2017-10-24T11:27:38Z</time>
      </trkpt>
      <trkpt lat="43.66619" lon="3.80856">
        <ele>202.8</ele>
        <time>2017-10-24T11:27:40Z</time>
      </trkpt>
      <trkpt lat="43.66621" lon="3.80867">
        <ele>203</ele>
        <time>2017-10-24T11:27:42Z</time>
      </trkpt>
      <trkpt lat="43.66623" lon="3.80879">
        <ele>203.1</ele>
        <time>2017-10-24T11:27:44Z</time>
      </trkpt>
      <trkpt lat="43.66624" lon="3.80889">
        <ele>203.1</ele>
        <time>2017-10-24T11:27:46Z</time>
      </trkpt>
      <trkpt lat="43.66626" lon="3.80903">
        <ele>203</ele>
        <time>2017-10-24T11:27:49Z</time>
      </trkpt>
      <trkpt lat="43.66628" lon="3.80913">
        <ele>202.6</ele>
        <time>2017-10-24T11:27:51Z</time>
      </trkpt>
      <trkpt lat="43.66631" lon="3.80925">
        <ele>202.1</ele>
        <time>2017-10-24T11:27:53Z</time>
      </trkpt>
      <trkpt lat="43.66634" lon="3.80936">
        <ele>202.2</ele>
        <time>2017-10-24T11:27:55Z</time>
      </trkpt>
      <trkpt lat="43.66637" lon="3.80949">
        <ele>201.5</ele>
        <time>2017-10-24T11:27:57Z</time>
      </trkpt>
      <trkpt lat="43.66641" lon="3.80964">
        <ele>201.1</ele>
        <time>2017-10-24T11:27:59Z</time>
      </trkpt>
      <trkpt lat="43.66644" lon="3.8098">
        <ele>200.6</ele>
        <time>2017-10-24T11:28:01Z</time>
      </trkpt>
      <trkpt lat="43.66647" lon="3.80995">
        <ele>199.8</ele>
        <time>2017-10-24T11:28:03Z</time>
      </trkpt>
      <trkpt lat="43.66651" lon="3.81012">
        <ele>198.7</ele>
        <time>2017-10-24T11:28:05Z</time>
      </trkpt>
      <trkpt lat="43.66655" lon="3.81028">
        <ele>197.5</ele>
        <time>2017-10-24T11:28:07Z</time>
      </trkpt>
      <trkpt lat="43.66657" lon="3.81042">
        <ele>196.4</ele>
        <time>2017-10-24T11:28:09Z</time>
      </trkpt>
      <trkpt lat="43.66657" lon="3.81055">
        <ele>195.3</ele>
        <time>2017-10-24T11:28:11Z</time>
      </trkpt>
      <trkpt lat="43.66656" lon="3.81067">
        <ele>194.4</ele>
        <time>2017-10-24T11:28:13Z</time>
      </trkpt>
      <trkpt lat="43.66658" lon="3.8108">
        <ele>193.7</ele>
        <time>2017-10-24T11:28:15Z</time>
      </trkpt>
      <trkpt lat="43.66661" lon="3.8109">
        <ele>193.3</ele>
        <time>2017-10-24T11:28:17Z</time>
      </trkpt>
      <trkpt lat="43.66665" lon="3.81101">
        <ele>193.5</ele>
        <time>2017-10-24T11:28:19Z</time>
      </trkpt>
      <trkpt lat="43.66669" lon="3.81114">
        <ele>193.8</ele>
        <time>2017-10-24T11:28:21Z</time>
      </trkpt>
      <trkpt lat="43.66674" lon="3.81125">
        <ele>193.8</ele>
        <time>2017-10-24T11:28:23Z</time>
      </trkpt>
      <trkpt lat="43.66677" lon="3.81135">
        <ele>193.8</ele>
        <time>2017-10-24T11:28:26Z</time>
      </trkpt>
      <trkpt lat="43.66676" lon="3.81148">
        <ele>193.6</ele>
        <time>2017-10-24T11:28:27Z</time>
      </trkpt>
      <trkpt lat="43.66673" lon="3.8116">
        <ele>192.9</ele>
        <time>2017-10-24T11:28:29Z</time>
      </trkpt>
      <trkpt lat="43.6667" lon="3.81173">
        <ele>192.3</ele>
        <time>2017-10-24T11:28:31Z</time>
      </trkpt>
      <trkpt lat="43.66666" lon="3.81185">
        <ele>191.3</ele>
        <time>2017-10-24T11:28:33Z</time>
      </trkpt>
      <trkpt lat="43.66661" lon="3.81196">
        <ele>190.2</ele>
        <time>2017-10-24T11:28:35Z</time>
      </trkpt>
      <trkpt lat="43.66656" lon="3.81209">
        <ele>189.2</ele>
        <time>2017-10-24T11:28:37Z</time>
      </trkpt>
      <trkpt lat="43.66647" lon="3.81217">
        <ele>188.7</ele>
        <time>2017-10-24T11:28:39Z</time>
      </trkpt>
      <trkpt lat="43.66638" lon="3.81218">
        <ele>188.7</ele>
        <time>2017-10-24T11:28:42Z</time>
      </trkpt>
      <trkpt lat="43.66631" lon="3.8122">
        <ele>188.6</ele>
        <time>2017-10-24T11:28:46Z</time>
      </trkpt>
      <trkpt lat="43.66625" lon="3.81227">
        <ele>188.6</ele>
        <time>2017-10-24T11:28:49Z</time>
      </trkpt>
      <trkpt lat="43.66619" lon="3.81235">
        <ele>188.6</ele>
        <time>2017-10-24T11:28:52Z</time>
      </trkpt>
      <trkpt lat="43.66611" lon="3.81241">
        <ele>188.6</ele>
        <time>2017-10-24T11:28:55Z</time>
      </trkpt>
      <trkpt lat="43.66603" lon="3.81244">
        <ele>188.4</ele>
        <time>2017-10-24T11:28:57Z</time>
      </trkpt>
      <trkpt lat="43.66594" lon="3.81245">
        <ele>188.3</ele>
        <time>2017-10-24T11:28:59Z</time>
      </trkpt>
      <trkpt lat="43.66581" lon="3.81243">
        <ele>188.4</ele>
        <time>2017-10-24T11:29:01Z</time>
      </trkpt>
      <trkpt lat="43.66573" lon="3.81242">
        <ele>188.2</ele>
        <time>2017-10-24T11:29:02Z</time>
      </trkpt>
      <trkpt lat="43.66566" lon="3.81242">
        <ele>187.8</ele>
        <time>2017-10-24T11:29:03Z</time>
      </trkpt>
      <trkpt lat="43.66555" lon="3.81243">
        <ele>187</ele>
        <time>2017-10-24T11:29:04Z</time>
      </trkpt>
      <trkpt lat="43.66545" lon="3.81245">
        <ele>186</ele>
        <time>2017-10-24T11:29:05Z</time>
      </trkpt>
      <trkpt lat="43.66533" lon="3.81246">
        <ele>184.5</ele>
        <time>2017-10-24T11:29:06Z</time>
      </trkpt>
      <trkpt lat="43.66521" lon="3.81246">
        <ele>182.7</ele>
        <time>2017-10-24T11:29:07Z</time>
      </trkpt>
      <trkpt lat="43.66508" lon="3.81246">
        <ele>180.9</ele>
        <time>2017-10-24T11:29:08Z</time>
      </trkpt>
      <trkpt lat="43.66496" lon="3.81246">
        <ele>179.7</ele>
        <time>2017-10-24T11:29:09Z</time>
      </trkpt>
      <trkpt lat="43.66483" lon="3.81245">
        <ele>178.8</ele>
        <time>2017-10-24T11:29:10Z</time>
      </trkpt>
      <trkpt lat="43.66471" lon="3.81243">
        <ele>177.9</ele>
        <time>2017-10-24T11:29:11Z</time>
      </trkpt>
      <trkpt lat="43.66459" lon="3.81243">
        <ele>177</ele>
        <time>2017-10-24T11:29:12Z</time>
      </trkpt>
      <trkpt lat="43.66447" lon="3.81242">
        <ele>175.9</ele>
        <time>2017-10-24T11:29:13Z</time>
      </trkpt>
      <trkpt lat="43.66436" lon="3.81241">
        <ele>174.8</ele>
        <time>2017-10-24T11:29:14Z</time>
      </trkpt>
      <trkpt lat="43.66424" lon="3.8124">
        <ele>173.9</ele>
        <time>2017-10-24T11:29:15Z</time>
      </trkpt>
      <trkpt lat="43.66412" lon="3.81243">
        <ele>173</ele>
        <time>2017-10-24T11:29:16Z</time>
      </trkpt>
      <trkpt lat="43.664" lon="3.81244">
        <ele>172.2</ele>
        <time>2017-10-24T11:29:17Z</time>
      </trkpt>
      <trkpt lat="43.66389" lon="3.81244">
        <ele>171.3</ele>
        <time>2017-10-24T11:29:18Z</time>
      </trkpt>
      <trkpt lat="43.66377" lon="3.81243">
        <ele>170.2</ele>
        <time>2017-10-24T11:29:19Z</time>
      </trkpt>
      <trkpt lat="43.66367" lon="3.81243">
        <ele>169.3</ele>
        <time>2017-10-24T11:29:20Z</time>
      </trkpt>
      <trkpt lat="43.66357" lon="3.81243">
        <ele>168.5</ele>
        <time>2017-10-24T11:29:21Z</time>
      </trkpt>
      <trkpt lat="43.66349" lon="3.81242">
        <ele>167.8</ele>
        <time>2017-10-24T11:29:22Z</time>
      </trkpt>
      <trkpt lat="43.66341" lon="3.81241">
        <ele>166.7</ele>
        <time>2017-10-24T11:29:23Z</time>
      </trkpt>
      <trkpt lat="43.66334" lon="3.81241">
        <ele>165.6</ele>
        <time>2017-10-24T11:29:24Z</time>
      </trkpt>
      <trkpt lat="43.66325" lon="3.81243">
        <ele>164.5</ele>
        <time>2017-10-24T11:29:25Z</time>
      </trkpt>
      <trkpt lat="43.66316" lon="3.81246">
        <ele>163.3</ele>
        <time>2017-10-24T11:29:26Z</time>
      </trkpt>
      <trkpt lat="43.66307" lon="3.81247">
        <ele>161.9</ele>
        <time>2017-10-24T11:29:27Z</time>
      </trkpt>
      <trkpt lat="43.66298" lon="3.81249">
        <ele>160.6</ele>
        <time>2017-10-24T11:29:28Z</time>
      </trkpt>
      <trkpt lat="43.66288" lon="3.81254">
        <ele>159.3</ele>
        <time>2017-10-24T11:29:29Z</time>
      </trkpt>
      <trkpt lat="43.66278" lon="3.81262">
        <ele>157.9</ele>
        <time>2017-10-24T11:29:30Z</time>
      </trkpt>
      <trkpt lat="43.6627" lon="3.8127">
        <ele>156.9</ele>
        <time>2017-10-24T11:29:31Z</time>
      </trkpt>
      <trkpt lat="43.66263" lon="3.81277">
        <ele>156</ele>
        <time>2017-10-24T11:29:32Z</time>
      </trkpt>
      <trkpt lat="43.66255" lon="3.81281">
        <ele>154.9</ele>
        <time>2017-10-24T11:29:33Z</time>
      </trkpt>
      <trkpt lat="43.66247" lon="3.81284">
        <ele>153.8</ele>
        <time>2017-10-24T11:29:34Z</time>
      </trkpt>
      <trkpt lat="43.66238" lon="3.81285">
        <ele>152.8</ele>
        <time>2017-10-24T11:29:35Z</time>
      </trkpt>
      <trkpt lat="43.6623" lon="3.81287">
        <ele>151.8</ele>
        <time>2017-10-24T11:29:36Z</time>
      </trkpt>
      <trkpt lat="43.66221" lon="3.81289">
        <ele>150.7</ele>
        <time>2017-10-24T11:29:37Z</time>
      </trkpt>
      <trkpt lat="43.66211" lon="3.81294">
        <ele>149.4</ele>
        <time>2017-10-24T11:29:38Z</time>
      </trkpt>
      <trkpt lat="43.66203" lon="3.81297">
        <ele>148.4</ele>
        <time>2017-10-24T11:29:39Z</time>
      </trkpt>
      <trkpt lat="43.66195" lon="3.81303">
        <ele>147.5</ele>
        <time>2017-10-24T11:29:40Z</time>
      </trkpt>
      <trkpt lat="43.66186" lon="3.81308">
        <ele>146.5</ele>
        <time>2017-10-24T11:29:41Z</time>
      </trkpt>
      <trkpt lat="43.66179" lon="3.81312">
        <ele>145.5</ele>
        <time>2017-10-24T11:29:42Z</time>
      </trkpt>
      <trkpt lat="43.6617" lon="3.81315">
        <ele>144.8</ele>
        <time>2017-10-24T11:29:44Z</time>
      </trkpt>
      <trkpt lat="43.66163" lon="3.81319">
        <ele>144.5</ele>
        <time>2017-10-24T11:29:47Z</time>
      </trkpt>
      <trkpt lat="43.66156" lon="3.81322">
        <ele>144.2</ele>
        <time>2017-10-24T11:29:50Z</time>
      </trkpt>
      <trkpt lat="43.6615" lon="3.81328">
        <ele>143.8</ele>
        <time>2017-10-24T11:29:55Z</time>
      </trkpt>
      <trkpt lat="43.66151" lon="3.8134">
        <ele>143.3</ele>
        <time>2017-10-24T11:30:00Z</time>
      </trkpt>
      <trkpt lat="43.66153" lon="3.81351">
        <ele>142.8</ele>
        <time>2017-10-24T11:30:05Z</time>
      </trkpt>
      <trkpt lat="43.66155" lon="3.81364">
        <ele>142.4</ele>
        <time>2017-10-24T11:30:10Z</time>
      </trkpt>
      <trkpt lat="43.66157" lon="3.81374">
        <ele>142.1</ele>
        <time>2017-10-24T11:30:14Z</time>
      </trkpt>
      <trkpt lat="43.66161" lon="3.81383">
        <ele>141.9</ele>
        <time>2017-10-24T11:30:17Z</time>
      </trkpt>
      <trkpt lat="43.66164" lon="3.81395">
        <ele>141.8</ele>
        <time>2017-10-24T11:30:21Z</time>
      </trkpt>
      <trkpt lat="43.66168" lon="3.81404">
        <ele>141.8</ele>
        <time>2017-10-24T11:30:26Z</time>
      </trkpt>
      <trkpt lat="43.66172" lon="3.81413">
        <ele>142</ele>
        <time>2017-10-24T11:30:31Z</time>
      </trkpt>
      <trkpt lat="43.66171" lon="3.81424">
        <ele>142.3</ele>
        <time>2017-10-24T11:30:34Z</time>
      </trkpt>
      <trkpt lat="43.6617" lon="3.81436">
        <ele>142.4</ele>
        <time>2017-10-24T11:30:37Z</time>
      </trkpt>
      <trkpt lat="43.66169" lon="3.81447">
        <ele>142.3</ele>
        <time>2017-10-24T11:30:41Z</time>
      </trkpt>
      <trkpt lat="43.6617" lon="3.81457">
        <ele>142.1</ele>
        <time>2017-10-24T11:30:47Z</time>
      </trkpt>
      <trkpt lat="43.66176" lon="3.81465">
        <ele>142.3</ele>
        <time>2017-10-24T11:30:54Z</time>
      </trkpt>
      <trkpt lat="43.66182" lon="3.81472">
        <ele>142.5</ele>
        <time>2017-10-24T11:30:59Z</time>
      </trkpt>
      <trkpt lat="43.66185" lon="3.81473">
        <ele>142.8</ele>
        <time>2017-10-24T11:31:06Z</time>
      </trkpt>
      <trkpt lat="43.6619" lon="3.81482">
        <ele>143.3</ele>
        <time>2017-10-24T11:31:11Z</time>
      </trkpt>
      <trkpt lat="43.6619" lon="3.81485">
        <ele>144.2</ele>
        <time>2017-10-24T11:31:18Z</time>
      </trkpt>
      <trkpt lat="43.66193" lon="3.81497">
        <ele>144.5</ele>
        <time>2017-10-24T11:31:20Z</time>
      </trkpt>
      <trkpt lat="43.66198" lon="3.81507">
        <ele>145.4</ele>
        <time>2017-10-24T11:31:26Z</time>
      </trkpt>
      <trkpt lat="43.66202" lon="3.81512">
        <ele>146.6</ele>
        <time>2017-10-24T11:31:33Z</time>
      </trkpt>
      <trkpt lat="43.66204" lon="3.81531">
        <ele>148.2</ele>
        <time>2017-10-24T11:31:40Z</time>
      </trkpt>
      <trkpt lat="43.66207" lon="3.8154">
        <ele>148.7</ele>
        <time>2017-10-24T11:31:42Z</time>
      </trkpt>
      <trkpt lat="43.6621" lon="3.81552">
        <ele>149.6</ele>
        <time>2017-10-24T11:31:46Z</time>
      </trkpt>
      <trkpt lat="43.6621" lon="3.81562">
        <ele>150.6</ele>
        <time>2017-10-24T11:31:51Z</time>
      </trkpt>
      <trkpt lat="43.66211" lon="3.81571">
        <ele>151.9</ele>
        <time>2017-10-24T11:31:58Z</time>
      </trkpt>
      <trkpt lat="43.66216" lon="3.8158">
        <ele>153.4</ele>
        <time>2017-10-24T11:32:05Z</time>
      </trkpt>
      <trkpt lat="43.66215" lon="3.81592">
        <ele>154.2</ele>
        <time>2017-10-24T11:32:09Z</time>
      </trkpt>
      <trkpt lat="43.66216" lon="3.81602">
        <ele>154.8</ele>
        <time>2017-10-24T11:32:12Z</time>
      </trkpt>
      <trkpt lat="43.66218" lon="3.81612">
        <ele>156.1</ele>
        <time>2017-10-24T11:32:18Z</time>
      </trkpt>
      <trkpt lat="43.66219" lon="3.81624">
        <ele>156.6</ele>
        <time>2017-10-24T11:32:22Z</time>
      </trkpt>
      <trkpt lat="43.66221" lon="3.81634">
        <ele>157</ele>
        <time>2017-10-24T11:32:25Z</time>
      </trkpt>
      <trkpt lat="43.66221" lon="3.81644">
        <ele>157.4</ele>
        <time>2017-10-24T11:32:29Z</time>
      </trkpt>
      <trkpt lat="43.66222" lon="3.81652">
        <ele>158.3</ele>
        <time>2017-10-24T11:32:36Z</time>
      </trkpt>
      <trkpt lat="43.66224" lon="3.81663">
        <ele>159</ele>
        <time>2017-10-24T11:32:42Z</time>
      </trkpt>
      <trkpt lat="43.66225" lon="3.81675">
        <ele>159.6</ele>
        <time>2017-10-24T11:32:46Z</time>
      </trkpt>
      <trkpt lat="43.66225" lon="3.81687">
        <ele>160.1</ele>
        <time>2017-10-24T11:32:50Z</time>
      </trkpt>
      <trkpt lat="43.66228" lon="3.81695">
        <ele>160.6</ele>
        <time>2017-10-24T11:32:53Z</time>
      </trkpt>
      <trkpt lat="43.66227" lon="3.81709">
        <ele>161.3</ele>
        <time>2017-10-24T11:32:58Z</time>
      </trkpt>
      <trkpt lat="43.66227" lon="3.81719">
        <ele>161.6</ele>
        <time>2017-10-24T11:33:03Z</time>
      </trkpt>
      <trkpt lat="43.66227" lon="3.8173">
        <ele>161.7</ele>
        <time>2017-10-24T11:33:06Z</time>
      </trkpt>
      <trkpt lat="43.66231" lon="3.8174">
        <ele>161.8</ele>
        <time>2017-10-24T11:33:09Z</time>
      </trkpt>
      <trkpt lat="43.66233" lon="3.81751">
        <ele>162</ele>
        <time>2017-10-24T11:33:12Z</time>
      </trkpt>
      <trkpt lat="43.66232" lon="3.81764">
        <ele>163.4</ele>
        <time>2017-10-24T11:33:15Z</time>
      </trkpt>
      <trkpt lat="43.66232" lon="3.8178">
        <ele>164.4</ele>
        <time>2017-10-24T11:33:17Z</time>
      </trkpt>
      <trkpt lat="43.66232" lon="3.81795">
        <ele>165.7</ele>
        <time>2017-10-24T11:33:19Z</time>
      </trkpt>
      <trkpt lat="43.66232" lon="3.8181">
        <ele>166.2</ele>
        <time>2017-10-24T11:33:21Z</time>
      </trkpt>
      <trkpt lat="43.66232" lon="3.81821">
        <ele>166.2</ele>
        <time>2017-10-24T11:33:23Z</time>
      </trkpt>
      <trkpt lat="43.66231" lon="3.81833">
        <ele>166.2</ele>
        <time>2017-10-24T11:33:25Z</time>
      </trkpt>
      <trkpt lat="43.6623" lon="3.81845">
        <ele>166.2</ele>
        <time>2017-10-24T11:33:28Z</time>
      </trkpt>
      <trkpt lat="43.66227" lon="3.81857">
        <ele>166.2</ele>
        <time>2017-10-24T11:33:31Z</time>
      </trkpt>
      <trkpt lat="43.66224" lon="3.8187">
        <ele>166.1</ele>
        <time>2017-10-24T11:33:34Z</time>
      </trkpt>
      <trkpt lat="43.66224" lon="3.81882">
        <ele>166.1</ele>
        <time>2017-10-24T11:33:36Z</time>
      </trkpt>
      <trkpt lat="43.66223" lon="3.81897">
        <ele>165.3</ele>
        <time>2017-10-24T11:33:38Z</time>
      </trkpt>
      <trkpt lat="43.66221" lon="3.81913">
        <ele>164.5</ele>
        <time>2017-10-24T11:33:40Z</time>
      </trkpt>
      <trkpt lat="43.66221" lon="3.81926">
        <ele>163.4</ele>
        <time>2017-10-24T11:33:42Z</time>
      </trkpt>
      <trkpt lat="43.66215" lon="3.81941">
        <ele>162.5</ele>
        <time>2017-10-24T11:33:44Z</time>
      </trkpt>
      <trkpt lat="43.66216" lon="3.81952">
        <ele>162.4</ele>
        <time>2017-10-24T11:33:46Z</time>
      </trkpt>
      <trkpt lat="43.66215" lon="3.81964">
        <ele>161.3</ele>
        <time>2017-10-24T11:33:48Z</time>
      </trkpt>
      <trkpt lat="43.66212" lon="3.81978">
        <ele>160</ele>
        <time>2017-10-24T11:33:50Z</time>
      </trkpt>
      <trkpt lat="43.6621" lon="3.81991">
        <ele>159.6</ele>
        <time>2017-10-24T11:33:52Z</time>
      </trkpt>
      <trkpt lat="43.66217" lon="3.81996">
        <ele>159.5</ele>
        <time>2017-10-24T11:33:55Z</time>
      </trkpt>
      <trkpt lat="43.66224" lon="3.82">
        <ele>159.4</ele>
        <time>2017-10-24T11:33:58Z</time>
      </trkpt>
      <trkpt lat="43.66232" lon="3.82008">
        <ele>159.3</ele>
        <time>2017-10-24T11:34:02Z</time>
      </trkpt>
      <trkpt lat="43.66239" lon="3.82017">
        <ele>159.2</ele>
        <time>2017-10-24T11:34:06Z</time>
      </trkpt>
      <trkpt lat="43.66244" lon="3.82026">
        <ele>159.1</ele>
        <time>2017-10-24T11:34:09Z</time>
      </trkpt>
      <trkpt lat="43.66246" lon="3.82037">
        <ele>158.8</ele>
        <time>2017-10-24T11:34:11Z</time>
      </trkpt>
      <trkpt lat="43.66249" lon="3.82049">
        <ele>158.8</ele>
        <time>2017-10-24T11:34:13Z</time>
      </trkpt>
      <trkpt lat="43.66255" lon="3.82061">
        <ele>158.9</ele>
        <time>2017-10-24T11:34:15Z</time>
      </trkpt>
      <trkpt lat="43.66261" lon="3.82069">
        <ele>159.1</ele>
        <time>2017-10-24T11:34:17Z</time>
      </trkpt>
      <trkpt lat="43.66265" lon="3.8208">
        <ele>159.1</ele>
        <time>2017-10-24T11:34:22Z</time>
      </trkpt>
      <trkpt lat="43.66269" lon="3.82092">
        <ele>159.5</ele>
        <time>2017-10-24T11:34:27Z</time>
      </trkpt>
      <trkpt lat="43.66275" lon="3.82101">
        <ele>159.6</ele>
        <time>2017-10-24T11:34:30Z</time>
      </trkpt>
      <trkpt lat="43.66278" lon="3.82112">
        <ele>160.5</ele>
        <time>2017-10-24T11:34:32Z</time>
      </trkpt>
      <trkpt lat="43.66282" lon="3.82122">
        <ele>160.6</ele>
        <time>2017-10-24T11:34:34Z</time>
      </trkpt>
      <trkpt lat="43.66289" lon="3.82134">
        <ele>161.3</ele>
        <time>2017-10-24T11:34:37Z</time>
      </trkpt>
      <trkpt lat="43.66293" lon="3.82143">
        <ele>161.5</ele>
        <time>2017-10-24T11:34:40Z</time>
      </trkpt>
      <trkpt lat="43.66299" lon="3.82153">
        <ele>161.6</ele>
        <time>2017-10-24T11:34:43Z</time>
      </trkpt>
      <trkpt lat="43.66304" lon="3.82162">
        <ele>161.6</ele>
        <time>2017-10-24T11:34:46Z</time>
      </trkpt>
      <trkpt lat="43.66308" lon="3.82172">
        <ele>161.6</ele>
        <time>2017-10-24T11:34:49Z</time>
      </trkpt>
      <trkpt lat="43.66312" lon="3.82183">
        <ele>161.7</ele>
        <time>2017-10-24T11:34:52Z</time>
      </trkpt>
      <trkpt lat="43.66316" lon="3.82192">
        <ele>162.1</ele>
        <time>2017-10-24T11:34:54Z</time>
      </trkpt>
      <trkpt lat="43.6632" lon="3.82202">
        <ele>162</ele>
        <time>2017-10-24T11:34:56Z</time>
      </trkpt>
      <trkpt lat="43.66322" lon="3.82215">
        <ele>160.4</ele>
        <time>2017-10-24T11:34:58Z</time>
      </trkpt>
      <trkpt lat="43.66324" lon="3.82229">
        <ele>158.8</ele>
        <time>2017-10-24T11:35:00Z</time>
      </trkpt>
      <trkpt lat="43.66326" lon="3.82241">
        <ele>156.6</ele>
        <time>2017-10-24T11:35:02Z</time>
      </trkpt>
      <trkpt lat="43.66328" lon="3.82254">
        <ele>152.7</ele>
        <time>2017-10-24T11:35:04Z</time>
      </trkpt>
      <trkpt lat="43.66331" lon="3.82268">
        <ele>149.8</ele>
        <time>2017-10-24T11:35:06Z</time>
      </trkpt>
      <trkpt lat="43.66334" lon="3.82281">
        <ele>147.9</ele>
        <time>2017-10-24T11:35:08Z</time>
      </trkpt>
      <trkpt lat="43.6634" lon="3.82295">
        <ele>146.8</ele>
        <time>2017-10-24T11:35:10Z</time>
      </trkpt>
      <trkpt lat="43.66347" lon="3.82309">
        <ele>146.4</ele>
        <time>2017-10-24T11:35:12Z</time>
      </trkpt>
      <trkpt lat="43.6635" lon="3.82318">
        <ele>146.3</ele>
        <time>2017-10-24T11:35:14Z</time>
      </trkpt>
      <trkpt lat="43.66356" lon="3.82326">
        <ele>146.3</ele>
        <time>2017-10-24T11:35:18Z</time>
      </trkpt>
      <trkpt lat="43.66361" lon="3.82335">
        <ele>146.8</ele>
        <time>2017-10-24T11:35:22Z</time>
      </trkpt>
      <trkpt lat="43.66367" lon="3.82343">
        <ele>147.7</ele>
        <time>2017-10-24T11:35:25Z</time>
      </trkpt>
      <trkpt lat="43.66372" lon="3.82354">
        <ele>151.6</ele>
        <time>2017-10-24T11:35:28Z</time>
      </trkpt>
      <trkpt lat="43.66377" lon="3.82365">
        <ele>152.6</ele>
        <time>2017-10-24T11:35:31Z</time>
      </trkpt>
      <trkpt lat="43.6638" lon="3.82377">
        <ele>153.5</ele>
        <time>2017-10-24T11:35:34Z</time>
      </trkpt>
      <trkpt lat="43.66378" lon="3.82388">
        <ele>154.4</ele>
        <time>2017-10-24T11:35:37Z</time>
      </trkpt>
      <trkpt lat="43.66371" lon="3.82398">
        <ele>159.3</ele>
        <time>2017-10-24T11:35:39Z</time>
      </trkpt>
      <trkpt lat="43.66362" lon="3.82409">
        <ele>161.1</ele>
        <time>2017-10-24T11:35:41Z</time>
      </trkpt>
      <trkpt lat="43.66351" lon="3.82422">
        <ele>162.3</ele>
        <time>2017-10-24T11:35:43Z</time>
      </trkpt>
      <trkpt lat="43.6634" lon="3.82436">
        <ele>162.7</ele>
        <time>2017-10-24T11:35:44Z</time>
      </trkpt>
      <trkpt lat="43.66332" lon="3.82444">
        <ele>163.1</ele>
        <time>2017-10-24T11:35:45Z</time>
      </trkpt>
      <trkpt lat="43.66327" lon="3.82452">
        <ele>163.4</ele>
        <time>2017-10-24T11:35:46Z</time>
      </trkpt>
      <trkpt lat="43.66323" lon="3.82462">
        <ele>163.5</ele>
        <time>2017-10-24T11:35:48Z</time>
      </trkpt>
      <trkpt lat="43.66322" lon="3.82473">
        <ele>163.6</ele>
        <time>2017-10-24T11:35:50Z</time>
      </trkpt>
      <trkpt lat="43.66319" lon="3.82488">
        <ele>163.9</ele>
        <time>2017-10-24T11:35:52Z</time>
      </trkpt>
      <trkpt lat="43.66318" lon="3.82501">
        <ele>163.9</ele>
        <time>2017-10-24T11:35:54Z</time>
      </trkpt>
      <trkpt lat="43.66317" lon="3.82512">
        <ele>163.9</ele>
        <time>2017-10-24T11:35:57Z</time>
      </trkpt>
      <trkpt lat="43.66314" lon="3.82522">
        <ele>163.9</ele>
        <time>2017-10-24T11:35:59Z</time>
      </trkpt>
      <trkpt lat="43.66312" lon="3.82532">
        <ele>163.9</ele>
        <time>2017-10-24T11:36:02Z</time>
      </trkpt>
      <trkpt lat="43.66311" lon="3.82543">
        <ele>164</ele>
        <time>2017-10-24T11:36:05Z</time>
      </trkpt>
      <trkpt lat="43.66311" lon="3.82553">
        <ele>164.1</ele>
        <time>2017-10-24T11:36:08Z</time>
      </trkpt>
      <trkpt lat="43.6631" lon="3.82564">
        <ele>164.1</ele>
        <time>2017-10-24T11:36:11Z</time>
      </trkpt>
      <trkpt lat="43.66304" lon="3.82576">
        <ele>164.1</ele>
        <time>2017-10-24T11:36:14Z</time>
      </trkpt>
      <trkpt lat="43.66295" lon="3.82583">
        <ele>163.7</ele>
        <time>2017-10-24T11:36:16Z</time>
      </trkpt>
      <trkpt lat="43.66287" lon="3.82588">
        <ele>163.3</ele>
        <time>2017-10-24T11:36:18Z</time>
      </trkpt>
      <trkpt lat="43.66279" lon="3.82592">
        <ele>163</ele>
        <time>2017-10-24T11:36:20Z</time>
      </trkpt>
      <trkpt lat="43.6627" lon="3.82598">
        <ele>162.4</ele>
        <time>2017-10-24T11:36:22Z</time>
      </trkpt>
      <trkpt lat="43.66258" lon="3.82603">
        <ele>162</ele>
        <time>2017-10-24T11:36:24Z</time>
      </trkpt>
      <trkpt lat="43.6625" lon="3.82606">
        <ele>162</ele>
        <time>2017-10-24T11:36:25Z</time>
      </trkpt>
      <trkpt lat="43.66239" lon="3.82618">
        <ele>161.7</ele>
        <time>2017-10-24T11:36:27Z</time>
      </trkpt>
      <trkpt lat="43.66232" lon="3.82626">
        <ele>161.7</ele>
        <time>2017-10-24T11:36:28Z</time>
      </trkpt>
      <trkpt lat="43.66228" lon="3.82635">
        <ele>161.7</ele>
        <time>2017-10-24T11:36:29Z</time>
      </trkpt>
      <trkpt lat="43.66222" lon="3.8265">
        <ele>162</ele>
        <time>2017-10-24T11:36:31Z</time>
      </trkpt>
      <trkpt lat="43.66215" lon="3.82661">
        <ele>161.2</ele>
        <time>2017-10-24T11:36:33Z</time>
      </trkpt>
      <trkpt lat="43.66209" lon="3.82673">
        <ele>159.9</ele>
        <time>2017-10-24T11:36:35Z</time>
      </trkpt>
      <trkpt lat="43.66203" lon="3.82684">
        <ele>159.2</ele>
        <time>2017-10-24T11:36:37Z</time>
      </trkpt>
      <trkpt lat="43.66198" lon="3.82693">
        <ele>159.1</ele>
        <time>2017-10-24T11:36:39Z</time>
      </trkpt>
      <trkpt lat="43.66192" lon="3.82704">
        <ele>159</ele>
        <time>2017-10-24T11:36:42Z</time>
      </trkpt>
      <trkpt lat="43.66186" lon="3.82712">
        <ele>158.8</ele>
        <time>2017-10-24T11:36:46Z</time>
      </trkpt>
      <trkpt lat="43.66175" lon="3.8271">
        <ele>158.6</ele>
        <time>2017-10-24T11:36:50Z</time>
      </trkpt>
      <trkpt lat="43.66168" lon="3.82705">
        <ele>158.6</ele>
        <time>2017-10-24T11:36:52Z</time>
      </trkpt>
      <trkpt lat="43.66161" lon="3.82698">
        <ele>157.5</ele>
        <time>2017-10-24T11:36:54Z</time>
      </trkpt>
      <trkpt lat="43.66152" lon="3.8269">
        <ele>156.6</ele>
        <time>2017-10-24T11:36:56Z</time>
      </trkpt>
      <trkpt lat="43.66139" lon="3.82686">
        <ele>155.4</ele>
        <time>2017-10-24T11:36:58Z</time>
      </trkpt>
      <trkpt lat="43.66126" lon="3.82685">
        <ele>153.6</ele>
        <time>2017-10-24T11:37:00Z</time>
      </trkpt>
      <trkpt lat="43.66118" lon="3.82686">
        <ele>152.7</ele>
        <time>2017-10-24T11:37:01Z</time>
      </trkpt>
      <trkpt lat="43.66111" lon="3.82687">
        <ele>151.8</ele>
        <time>2017-10-24T11:37:02Z</time>
      </trkpt>
      <trkpt lat="43.66103" lon="3.82684">
        <ele>150.7</ele>
        <time>2017-10-24T11:37:03Z</time>
      </trkpt>
      <trkpt lat="43.66097" lon="3.82678">
        <ele>149.9</ele>
        <time>2017-10-24T11:37:04Z</time>
      </trkpt>
      <trkpt lat="43.66084" lon="3.82682">
        <ele>148.6</ele>
        <time>2017-10-24T11:37:06Z</time>
      </trkpt>
      <trkpt lat="43.66073" lon="3.82689">
        <ele>147.2</ele>
        <time>2017-10-24T11:37:08Z</time>
      </trkpt>
      <trkpt lat="43.66064" lon="3.82684">
        <ele>145.9</ele>
        <time>2017-10-24T11:37:10Z</time>
      </trkpt>
      <trkpt lat="43.66052" lon="3.82676">
        <ele>144.5</ele>
        <time>2017-10-24T11:37:12Z</time>
      </trkpt>
      <trkpt lat="43.66041" lon="3.8267">
        <ele>142.9</ele>
        <time>2017-10-24T11:37:14Z</time>
      </trkpt>
      <trkpt lat="43.66031" lon="3.82668">
        <ele>141.6</ele>
        <time>2017-10-24T11:37:16Z</time>
      </trkpt>
      <trkpt lat="43.66025" lon="3.82677">
        <ele>140.8</ele>
        <time>2017-10-24T11:37:18Z</time>
      </trkpt>
      <trkpt lat="43.66022" lon="3.8269">
        <ele>140.3</ele>
        <time>2017-10-24T11:37:20Z</time>
      </trkpt>
      <trkpt lat="43.66017" lon="3.82702">
        <ele>139.9</ele>
        <time>2017-10-24T11:37:22Z</time>
      </trkpt>
      <trkpt lat="43.66012" lon="3.82713">
        <ele>140</ele>
        <time>2017-10-24T11:37:24Z</time>
      </trkpt>
      <trkpt lat="43.66009" lon="3.82724">
        <ele>140.2</ele>
        <time>2017-10-24T11:37:26Z</time>
      </trkpt>
      <trkpt lat="43.66002" lon="3.82737">
        <ele>140.6</ele>
        <time>2017-10-24T11:37:28Z</time>
      </trkpt>
      <trkpt lat="43.65995" lon="3.82747">
        <ele>140.9</ele>
        <time>2017-10-24T11:37:30Z</time>
      </trkpt>
      <trkpt lat="43.65988" lon="3.8276">
        <ele>140.9</ele>
        <time>2017-10-24T11:37:32Z</time>
      </trkpt>
      <trkpt lat="43.65984" lon="3.82772">
        <ele>141.1</ele>
        <time>2017-10-24T11:37:34Z</time>
      </trkpt>
      <trkpt lat="43.65979" lon="3.82781">
        <ele>141.6</ele>
        <time>2017-10-24T11:37:36Z</time>
      </trkpt>
      <trkpt lat="43.65975" lon="3.82791">
        <ele>142.1</ele>
        <time>2017-10-24T11:37:38Z</time>
      </trkpt>
      <trkpt lat="43.65971" lon="3.82803">
        <ele>142.4</ele>
        <time>2017-10-24T11:37:40Z</time>
      </trkpt>
      <trkpt lat="43.65969" lon="3.82813">
        <ele>142.5</ele>
        <time>2017-10-24T11:37:42Z</time>
      </trkpt>
      <trkpt lat="43.65964" lon="3.82826">
        <ele>142.8</ele>
        <time>2017-10-24T11:37:45Z</time>
      </trkpt>
      <trkpt lat="43.6596" lon="3.82837">
        <ele>143</ele>
        <time>2017-10-24T11:37:47Z</time>
      </trkpt>
      <trkpt lat="43.65956" lon="3.82848">
        <ele>143</ele>
        <time>2017-10-24T11:37:49Z</time>
      </trkpt>
      <trkpt lat="43.65952" lon="3.82857">
        <ele>143</ele>
        <time>2017-10-24T11:37:51Z</time>
      </trkpt>
      <trkpt lat="43.6595" lon="3.82867">
        <ele>142.9</ele>
        <time>2017-10-24T11:37:53Z</time>
      </trkpt>
      <trkpt lat="43.65943" lon="3.82875">
        <ele>142.7</ele>
        <time>2017-10-24T11:37:55Z</time>
      </trkpt>
      <trkpt lat="43.65931" lon="3.82879">
        <ele>142.3</ele>
        <time>2017-10-24T11:37:57Z</time>
      </trkpt>
      <trkpt lat="43.65917" lon="3.82886">
        <ele>142.3</ele>
        <time>2017-10-24T11:37:59Z</time>
      </trkpt>
      <trkpt lat="43.6591" lon="3.82888">
        <ele>142.4</ele>
        <time>2017-10-24T11:38:00Z</time>
      </trkpt>
      <trkpt lat="43.65896" lon="3.82892">
        <ele>142.4</ele>
        <time>2017-10-24T11:38:02Z</time>
      </trkpt>
      <trkpt lat="43.65888" lon="3.82895">
        <ele>142.3</ele>
        <time>2017-10-24T11:38:03Z</time>
      </trkpt>
      <trkpt lat="43.6588" lon="3.82899">
        <ele>142</ele>
        <time>2017-10-24T11:38:04Z</time>
      </trkpt>
      <trkpt lat="43.65872" lon="3.82902">
        <ele>141.7</ele>
        <time>2017-10-24T11:38:05Z</time>
      </trkpt>
      <trkpt lat="43.65864" lon="3.82906">
        <ele>141.3</ele>
        <time>2017-10-24T11:38:06Z</time>
      </trkpt>
      <trkpt lat="43.65857" lon="3.8291">
        <ele>140.8</ele>
        <time>2017-10-24T11:38:07Z</time>
      </trkpt>
      <trkpt lat="43.65847" lon="3.82922">
        <ele>140.2</ele>
        <time>2017-10-24T11:38:09Z</time>
      </trkpt>
      <trkpt lat="43.6584" lon="3.82936">
        <ele>138.9</ele>
        <time>2017-10-24T11:38:11Z</time>
      </trkpt>
      <trkpt lat="43.65838" lon="3.82952">
        <ele>138</ele>
        <time>2017-10-24T11:38:13Z</time>
      </trkpt>
      <trkpt lat="43.65837" lon="3.82966">
        <ele>137.5</ele>
        <time>2017-10-24T11:38:15Z</time>
      </trkpt>
      <trkpt lat="43.65836" lon="3.8298">
        <ele>137</ele>
        <time>2017-10-24T11:38:17Z</time>
      </trkpt>
      <trkpt lat="43.65835" lon="3.82991">
        <ele>136.9</ele>
        <time>2017-10-24T11:38:20Z</time>
      </trkpt>
      <trkpt lat="43.6583" lon="3.83001">
        <ele>137</ele>
        <time>2017-10-24T11:38:26Z</time>
      </trkpt>
      <trkpt lat="43.65822" lon="3.83011">
        <ele>137.5</ele>
        <time>2017-10-24T11:38:30Z</time>
      </trkpt>
      <trkpt lat="43.65816" lon="3.83018">
        <ele>138.7</ele>
        <time>2017-10-24T11:38:32Z</time>
      </trkpt>
      <trkpt lat="43.65808" lon="3.83024">
        <ele>139.4</ele>
        <time>2017-10-24T11:38:34Z</time>
      </trkpt>
      <trkpt lat="43.65801" lon="3.8303">
        <ele>140.7</ele>
        <time>2017-10-24T11:38:36Z</time>
      </trkpt>
      <trkpt lat="43.65794" lon="3.83036">
        <ele>141.3</ele>
        <time>2017-10-24T11:38:38Z</time>
      </trkpt>
      <trkpt lat="43.65786" lon="3.83037">
        <ele>141.4</ele>
        <time>2017-10-24T11:38:43Z</time>
      </trkpt>
      <trkpt lat="43.65781" lon="3.83023">
        <ele>141.7</ele>
        <time>2017-10-24T11:38:46Z</time>
      </trkpt>
      <trkpt lat="43.65776" lon="3.83012">
        <ele>141.8</ele>
        <time>2017-10-24T11:38:48Z</time>
      </trkpt>
      <trkpt lat="43.65772" lon="3.83001">
        <ele>141.9</ele>
        <time>2017-10-24T11:38:50Z</time>
      </trkpt>
      <trkpt lat="43.65767" lon="3.82991">
        <ele>142</ele>
        <time>2017-10-24T11:38:52Z</time>
      </trkpt>
      <trkpt lat="43.65763" lon="3.82982">
        <ele>142.1</ele>
        <time>2017-10-24T11:38:54Z</time>
      </trkpt>
      <trkpt lat="43.65759" lon="3.82972">
        <ele>142.2</ele>
        <time>2017-10-24T11:38:56Z</time>
      </trkpt>
      <trkpt lat="43.65754" lon="3.82962">
        <ele>142.3</ele>
        <time>2017-10-24T11:38:58Z</time>
      </trkpt>
      <trkpt lat="43.6575" lon="3.82954">
        <ele>142.5</ele>
        <time>2017-10-24T11:39:00Z</time>
      </trkpt>
      <trkpt lat="43.65746" lon="3.82945">
        <ele>142.6</ele>
        <time>2017-10-24T11:39:02Z</time>
      </trkpt>
      <trkpt lat="43.6574" lon="3.82937">
        <ele>142.7</ele>
        <time>2017-10-24T11:39:04Z</time>
      </trkpt>
      <trkpt lat="43.65734" lon="3.8293">
        <ele>142.9</ele>
        <time>2017-10-24T11:39:07Z</time>
      </trkpt>
      <trkpt lat="43.65726" lon="3.82935">
        <ele>142.9</ele>
        <time>2017-10-24T11:39:13Z</time>
      </trkpt>
      <trkpt lat="43.65719" lon="3.82929">
        <ele>142.8</ele>
        <time>2017-10-24T11:39:17Z</time>
      </trkpt>
      <trkpt lat="43.6571" lon="3.82929">
        <ele>142.9</ele>
        <time>2017-10-24T11:39:21Z</time>
      </trkpt>
      <trkpt lat="43.65702" lon="3.82927">
        <ele>143.3</ele>
        <time>2017-10-24T11:39:27Z</time>
      </trkpt>
      <trkpt lat="43.65694" lon="3.82926">
        <ele>143.7</ele>
        <time>2017-10-24T11:39:31Z</time>
      </trkpt>
      <trkpt lat="43.65687" lon="3.82924">
        <ele>144.3</ele>
        <time>2017-10-24T11:39:35Z</time>
      </trkpt>
      <trkpt lat="43.65679" lon="3.82921">
        <ele>145.2</ele>
        <time>2017-10-24T11:39:40Z</time>
      </trkpt>
      <trkpt lat="43.65671" lon="3.82918">
        <ele>146.3</ele>
        <time>2017-10-24T11:39:45Z</time>
      </trkpt>
      <trkpt lat="43.65662" lon="3.82914">
        <ele>147.8</ele>
        <time>2017-10-24T11:39:51Z</time>
      </trkpt>
      <trkpt lat="43.65654" lon="3.82911">
        <ele>148.8</ele>
        <time>2017-10-24T11:39:55Z</time>
      </trkpt>
      <trkpt lat="43.65647" lon="3.8291">
        <ele>149.6</ele>
        <time>2017-10-24T11:39:58Z</time>
      </trkpt>
      <trkpt lat="43.65636" lon="3.82903">
        <ele>150.6</ele>
        <time>2017-10-24T11:40:02Z</time>
      </trkpt>
      <trkpt lat="43.65628" lon="3.82896">
        <ele>151.4</ele>
        <time>2017-10-24T11:40:05Z</time>
      </trkpt>
      <trkpt lat="43.65622" lon="3.8289">
        <ele>152.3</ele>
        <time>2017-10-24T11:40:08Z</time>
      </trkpt>
      <trkpt lat="43.65615" lon="3.82886">
        <ele>153.3</ele>
        <time>2017-10-24T11:40:12Z</time>
      </trkpt>
      <trkpt lat="43.65606" lon="3.82882">
        <ele>155</ele>
        <time>2017-10-24T11:40:18Z</time>
      </trkpt>
      <trkpt lat="43.65599" lon="3.82877">
        <ele>155.9</ele>
        <time>2017-10-24T11:40:22Z</time>
      </trkpt>
      <trkpt lat="43.6559" lon="3.82874">
        <ele>157.3</ele>
        <time>2017-10-24T11:40:29Z</time>
      </trkpt>
      <trkpt lat="43.65583" lon="3.82867">
        <ele>157.9</ele>
        <time>2017-10-24T11:40:32Z</time>
      </trkpt>
      <trkpt lat="43.65576" lon="3.8286">
        <ele>158.6</ele>
        <time>2017-10-24T11:40:37Z</time>
      </trkpt>
      <trkpt lat="43.65567" lon="3.82854">
        <ele>159.6</ele>
        <time>2017-10-24T11:40:42Z</time>
      </trkpt>
      <trkpt lat="43.65559" lon="3.82848">
        <ele>160.6</ele>
        <time>2017-10-24T11:40:47Z</time>
      </trkpt>
      <trkpt lat="43.65552" lon="3.82845">
        <ele>161.3</ele>
        <time>2017-10-24T11:40:51Z</time>
      </trkpt>
      <trkpt lat="43.65545" lon="3.82842">
        <ele>162.2</ele>
        <time>2017-10-24T11:40:56Z</time>
      </trkpt>
      <trkpt lat="43.65543" lon="3.82843">
        <ele>163.4</ele>
        <time>2017-10-24T11:41:03Z</time>
      </trkpt>
      <trkpt lat="43.65531" lon="3.82842">
        <ele>164.2</ele>
        <time>2017-10-24T11:41:12Z</time>
      </trkpt>
      <trkpt lat="43.65521" lon="3.82842">
        <ele>164.4</ele>
        <time>2017-10-24T11:41:26Z</time>
      </trkpt>
      <trkpt lat="43.65512" lon="3.82844">
        <ele>165.8</ele>
        <time>2017-10-24T11:41:35Z</time>
      </trkpt>
      <trkpt lat="43.65505" lon="3.82841">
        <ele>165.9</ele>
        <time>2017-10-24T11:41:40Z</time>
      </trkpt>
      <trkpt lat="43.65503" lon="3.82828">
        <ele>166.2</ele>
        <time>2017-10-24T11:41:44Z</time>
      </trkpt>
      <trkpt lat="43.65498" lon="3.82819">
        <ele>166.7</ele>
        <time>2017-10-24T11:41:48Z</time>
      </trkpt>
      <trkpt lat="43.65488" lon="3.82819">
        <ele>167.2</ele>
        <time>2017-10-24T11:41:54Z</time>
      </trkpt>
      <trkpt lat="43.65481" lon="3.82812">
        <ele>167.5</ele>
        <time>2017-10-24T11:41:57Z</time>
      </trkpt>
      <trkpt lat="43.65473" lon="3.82803">
        <ele>168.1</ele>
        <time>2017-10-24T11:42:00Z</time>
      </trkpt>
      <trkpt lat="43.65467" lon="3.82798">
        <ele>168.9</ele>
        <time>2017-10-24T11:42:04Z</time>
      </trkpt>
      <trkpt lat="43.6546" lon="3.82793">
        <ele>170.1</ele>
        <time>2017-10-24T11:42:11Z</time>
      </trkpt>
      <trkpt lat="43.65454" lon="3.82785">
        <ele>170.8</ele>
        <time>2017-10-24T11:42:15Z</time>
      </trkpt>
      <trkpt lat="43.65445" lon="3.82783">
        <ele>171.8</ele>
        <time>2017-10-24T11:42:20Z</time>
      </trkpt>
      <trkpt lat="43.65437" lon="3.82778">
        <ele>172.2</ele>
        <time>2017-10-24T11:42:22Z</time>
      </trkpt>
      <trkpt lat="43.6543" lon="3.82769">
        <ele>172.7</ele>
        <time>2017-10-24T11:42:25Z</time>
      </trkpt>
      <trkpt lat="43.65423" lon="3.82764">
        <ele>173.2</ele>
        <time>2017-10-24T11:42:28Z</time>
      </trkpt>
      <trkpt lat="43.65415" lon="3.82764">
        <ele>173.7</ele>
        <time>2017-10-24T11:42:31Z</time>
      </trkpt>
      <trkpt lat="43.65408" lon="3.82759">
        <ele>174.2</ele>
        <time>2017-10-24T11:42:34Z</time>
      </trkpt>
      <trkpt lat="43.654" lon="3.8275">
        <ele>174.8</ele>
        <time>2017-10-24T11:42:38Z</time>
      </trkpt>
      <trkpt lat="43.6539" lon="3.82746">
        <ele>175.3</ele>
        <time>2017-10-24T11:42:41Z</time>
      </trkpt>
      <trkpt lat="43.65381" lon="3.82744">
        <ele>175.6</ele>
        <time>2017-10-24T11:42:44Z</time>
      </trkpt>
      <trkpt lat="43.65371" lon="3.82739">
        <ele>175.9</ele>
        <time>2017-10-24T11:42:47Z</time>
      </trkpt>
      <trkpt lat="43.65363" lon="3.82738">
        <ele>176</ele>
        <time>2017-10-24T11:42:50Z</time>
      </trkpt>
      <trkpt lat="43.65356" lon="3.82734">
        <ele>176</ele>
        <time>2017-10-24T11:42:52Z</time>
      </trkpt>
      <trkpt lat="43.65346" lon="3.82731">
        <ele>176</ele>
        <time>2017-10-24T11:42:55Z</time>
      </trkpt>
      <trkpt lat="43.65337" lon="3.82724">
        <ele>176</ele>
        <time>2017-10-24T11:42:57Z</time>
      </trkpt>
      <trkpt lat="43.6533" lon="3.82718">
        <ele>176</ele>
        <time>2017-10-24T11:42:59Z</time>
      </trkpt>
      <trkpt lat="43.65321" lon="3.82711">
        <ele>176.2</ele>
        <time>2017-10-24T11:43:02Z</time>
      </trkpt>
      <trkpt lat="43.65311" lon="3.82703">
        <ele>176.3</ele>
        <time>2017-10-24T11:43:05Z</time>
      </trkpt>
      <trkpt lat="43.65304" lon="3.82695">
        <ele>176.9</ele>
        <time>2017-10-24T11:43:07Z</time>
      </trkpt>
      <trkpt lat="43.65296" lon="3.82688">
        <ele>177.1</ele>
        <time>2017-10-24T11:43:09Z</time>
      </trkpt>
      <trkpt lat="43.65288" lon="3.82682">
        <ele>177.5</ele>
        <time>2017-10-24T11:43:11Z</time>
      </trkpt>
      <trkpt lat="43.65281" lon="3.82677">
        <ele>178.1</ele>
        <time>2017-10-24T11:43:13Z</time>
      </trkpt>
      <trkpt lat="43.65273" lon="3.82669">
        <ele>179.4</ele>
        <time>2017-10-24T11:43:16Z</time>
      </trkpt>
      <trkpt lat="43.65267" lon="3.82657">
        <ele>180.2</ele>
        <time>2017-10-24T11:43:18Z</time>
      </trkpt>
      <trkpt lat="43.65259" lon="3.82651">
        <ele>181.2</ele>
        <time>2017-10-24T11:43:20Z</time>
      </trkpt>
      <trkpt lat="43.65251" lon="3.82645">
        <ele>182.4</ele>
        <time>2017-10-24T11:43:22Z</time>
      </trkpt>
      <trkpt lat="43.6524" lon="3.82634">
        <ele>184.5</ele>
        <time>2017-10-24T11:43:24Z</time>
      </trkpt>
      <trkpt lat="43.65228" lon="3.82626">
        <ele>186.7</ele>
        <time>2017-10-24T11:43:26Z</time>
      </trkpt>
      <trkpt lat="43.65215" lon="3.82618">
        <ele>187.8</ele>
        <time>2017-10-24T11:43:28Z</time>
      </trkpt>
      <trkpt lat="43.65209" lon="3.82611">
        <ele>188.2</ele>
        <time>2017-10-24T11:43:29Z</time>
      </trkpt>
      <trkpt lat="43.65202" lon="3.826">
        <ele>188.4</ele>
        <time>2017-10-24T11:43:31Z</time>
      </trkpt>
      <trkpt lat="43.65196" lon="3.82587">
        <ele>189.2</ele>
        <time>2017-10-24T11:43:33Z</time>
      </trkpt>
      <trkpt lat="43.65187" lon="3.82575">
        <ele>188.8</ele>
        <time>2017-10-24T11:43:35Z</time>
      </trkpt>
      <trkpt lat="43.6518" lon="3.82569">
        <ele>188.7</ele>
        <time>2017-10-24T11:43:36Z</time>
      </trkpt>
      <trkpt lat="43.65172" lon="3.82557">
        <ele>188.9</ele>
        <time>2017-10-24T11:43:38Z</time>
      </trkpt>
      <trkpt lat="43.65164" lon="3.82547">
        <ele>188.9</ele>
        <time>2017-10-24T11:43:40Z</time>
      </trkpt>
      <trkpt lat="43.65154" lon="3.82535">
        <ele>189</ele>
        <time>2017-10-24T11:43:42Z</time>
      </trkpt>
      <trkpt lat="43.65151" lon="3.82527">
        <ele>188.7</ele>
        <time>2017-10-24T11:43:43Z</time>
      </trkpt>
      <trkpt lat="43.65147" lon="3.82515">
        <ele>188.5</ele>
        <time>2017-10-24T11:43:45Z</time>
      </trkpt>
      <trkpt lat="43.65148" lon="3.82498">
        <ele>187.7</ele>
        <time>2017-10-24T11:43:47Z</time>
      </trkpt>
      <trkpt lat="43.65151" lon="3.82483">
        <ele>187.6</ele>
        <time>2017-10-24T11:43:49Z</time>
      </trkpt>
      <trkpt lat="43.65152" lon="3.82468">
        <ele>186.8</ele>
        <time>2017-10-24T11:43:51Z</time>
      </trkpt>
      <trkpt lat="43.65152" lon="3.82453">
        <ele>185</ele>
        <time>2017-10-24T11:43:53Z</time>
      </trkpt>
      <trkpt lat="43.65151" lon="3.82441">
        <ele>184.1</ele>
        <time>2017-10-24T11:43:55Z</time>
      </trkpt>
      <trkpt lat="43.6515" lon="3.8243">
        <ele>183.7</ele>
        <time>2017-10-24T11:43:58Z</time>
      </trkpt>
      <trkpt lat="43.65147" lon="3.8242">
        <ele>183.1</ele>
        <time>2017-10-24T11:44:01Z</time>
      </trkpt>
      <trkpt lat="43.65142" lon="3.82409">
        <ele>182.6</ele>
        <time>2017-10-24T11:44:04Z</time>
      </trkpt>
      <trkpt lat="43.65138" lon="3.82401">
        <ele>182.1</ele>
        <time>2017-10-24T11:44:07Z</time>
      </trkpt>
      <trkpt lat="43.65133" lon="3.82391">
        <ele>180.5</ele>
        <time>2017-10-24T11:44:10Z</time>
      </trkpt>
      <trkpt lat="43.65126" lon="3.82381">
        <ele>180.1</ele>
        <time>2017-10-24T11:44:13Z</time>
      </trkpt>
      <trkpt lat="43.65119" lon="3.82375">
        <ele>179.8</ele>
        <time>2017-10-24T11:44:16Z</time>
      </trkpt>
      <trkpt lat="43.65111" lon="3.82369">
        <ele>179.3</ele>
        <time>2017-10-24T11:44:20Z</time>
      </trkpt>
      <trkpt lat="43.65103" lon="3.82366">
        <ele>177.9</ele>
        <time>2017-10-24T11:44:23Z</time>
      </trkpt>
      <trkpt lat="43.65096" lon="3.82362">
        <ele>176.9</ele>
        <time>2017-10-24T11:44:25Z</time>
      </trkpt>
      <trkpt lat="43.65089" lon="3.82357">
        <ele>176.6</ele>
        <time>2017-10-24T11:44:28Z</time>
      </trkpt>
      <trkpt lat="43.65087" lon="3.82345">
        <ele>176.4</ele>
        <time>2017-10-24T11:44:34Z</time>
      </trkpt>
      <trkpt lat="43.65086" lon="3.82331">
        <ele>176.2</ele>
        <time>2017-10-24T11:44:37Z</time>
      </trkpt>
      <trkpt lat="43.65086" lon="3.82321">
        <ele>176</ele>
        <time>2017-10-24T11:44:40Z</time>
      </trkpt>
      <trkpt lat="43.65087" lon="3.82311">
        <ele>175.6</ele>
        <time>2017-10-24T11:44:43Z</time>
      </trkpt>
      <trkpt lat="43.6509" lon="3.82301">
        <ele>173.9</ele>
        <time>2017-10-24T11:44:45Z</time>
      </trkpt>
      <trkpt lat="43.65095" lon="3.82291">
        <ele>173.6</ele>
        <time>2017-10-24T11:44:48Z</time>
      </trkpt>
      <trkpt lat="43.65097" lon="3.8228">
        <ele>172</ele>
        <time>2017-10-24T11:44:50Z</time>
      </trkpt>
      <trkpt lat="43.65099" lon="3.8227">
        <ele>171.5</ele>
        <time>2017-10-24T11:44:53Z</time>
      </trkpt>
      <trkpt lat="43.65095" lon="3.82261">
        <ele>170.9</ele>
        <time>2017-10-24T11:44:56Z</time>
      </trkpt>
      <trkpt lat="43.65088" lon="3.82257">
        <ele>169.6</ele>
        <time>2017-10-24T11:45:01Z</time>
      </trkpt>
      <trkpt lat="43.65077" lon="3.82252">
        <ele>166.2</ele>
        <time>2017-10-24T11:45:04Z</time>
      </trkpt>
      <trkpt lat="43.65069" lon="3.8225">
        <ele>162</ele>
        <time>2017-10-24T11:45:06Z</time>
      </trkpt>
      <trkpt lat="43.65061" lon="3.82253">
        <ele>159.6</ele>
        <time>2017-10-24T11:45:08Z</time>
      </trkpt>
      <trkpt lat="43.65054" lon="3.82256">
        <ele>159.3</ele>
        <time>2017-10-24T11:45:11Z</time>
      </trkpt>
      <trkpt lat="43.65045" lon="3.82257">
        <ele>158.9</ele>
        <time>2017-10-24T11:45:14Z</time>
      </trkpt>
      <trkpt lat="43.65037" lon="3.82257">
        <ele>158.6</ele>
        <time>2017-10-24T11:45:18Z</time>
      </trkpt>
      <trkpt lat="43.65028" lon="3.82257">
        <ele>158.2</ele>
        <time>2017-10-24T11:45:21Z</time>
      </trkpt>
      <trkpt lat="43.6502" lon="3.82247">
        <ele>155.8</ele>
        <time>2017-10-24T11:45:24Z</time>
      </trkpt>
      <trkpt lat="43.65014" lon="3.82234">
        <ele>152.3</ele>
        <time>2017-10-24T11:45:26Z</time>
      </trkpt>
      <trkpt lat="43.65009" lon="3.82224">
        <ele>150.8</ele>
        <time>2017-10-24T11:45:28Z</time>
      </trkpt>
      <trkpt lat="43.65003" lon="3.82214">
        <ele>150.3</ele>
        <time>2017-10-24T11:45:33Z</time>
      </trkpt>
      <trkpt lat="43.64997" lon="3.82209">
        <ele>147.5</ele>
        <time>2017-10-24T11:45:35Z</time>
      </trkpt>
      <trkpt lat="43.64988" lon="3.82203">
        <ele>145.5</ele>
        <time>2017-10-24T11:45:38Z</time>
      </trkpt>
      <trkpt lat="43.64979" lon="3.82197">
        <ele>144.4</ele>
        <time>2017-10-24T11:45:40Z</time>
      </trkpt>
      <trkpt lat="43.64973" lon="3.82185">
        <ele>143.7</ele>
        <time>2017-10-24T11:45:41Z</time>
      </trkpt>
      <trkpt lat="43.64965" lon="3.8219">
        <ele>143.4</ele>
        <time>2017-10-24T11:45:44Z</time>
      </trkpt>
      <trkpt lat="43.64955" lon="3.82192">
        <ele>140.2</ele>
        <time>2017-10-24T11:45:47Z</time>
      </trkpt>
      <trkpt lat="43.64947" lon="3.822">
        <ele>138.6</ele>
        <time>2017-10-24T11:45:50Z</time>
      </trkpt>
      <trkpt lat="43.64939" lon="3.82205">
        <ele>136.1</ele>
        <time>2017-10-24T11:45:52Z</time>
      </trkpt>
      <trkpt lat="43.6493" lon="3.82212">
        <ele>135.2</ele>
        <time>2017-10-24T11:45:55Z</time>
      </trkpt>
      <trkpt lat="43.64923" lon="3.82218">
        <ele>134.5</ele>
        <time>2017-10-24T11:45:57Z</time>
      </trkpt>
      <trkpt lat="43.64914" lon="3.82224">
        <ele>134.4</ele>
        <time>2017-10-24T11:46:00Z</time>
      </trkpt>
      <trkpt lat="43.64907" lon="3.82229">
        <ele>133.5</ele>
        <time>2017-10-24T11:46:02Z</time>
      </trkpt>
      <trkpt lat="43.649" lon="3.82235">
        <ele>133</ele>
        <time>2017-10-24T11:46:04Z</time>
      </trkpt>
      <trkpt lat="43.64893" lon="3.8224">
        <ele>132.1</ele>
        <time>2017-10-24T11:46:07Z</time>
      </trkpt>
      <trkpt lat="43.64883" lon="3.82248">
        <ele>132</ele>
        <time>2017-10-24T11:46:09Z</time>
      </trkpt>
      <trkpt lat="43.64875" lon="3.82258">
        <ele>131.7</ele>
        <time>2017-10-24T11:46:12Z</time>
      </trkpt>
      <trkpt lat="43.64869" lon="3.82266">
        <ele>131.2</ele>
        <time>2017-10-24T11:46:14Z</time>
      </trkpt>
      <trkpt lat="43.6486" lon="3.82273">
        <ele>130.7</ele>
        <time>2017-10-24T11:46:17Z</time>
      </trkpt>
      <trkpt lat="43.64853" lon="3.8228">
        <ele>130.6</ele>
        <time>2017-10-24T11:46:20Z</time>
      </trkpt>
      <trkpt lat="43.64844" lon="3.82285">
        <ele>130.6</ele>
        <time>2017-10-24T11:46:23Z</time>
      </trkpt>
      <trkpt lat="43.64835" lon="3.82287">
        <ele>130.7</ele>
        <time>2017-10-24T11:46:26Z</time>
      </trkpt>
      <trkpt lat="43.64824" lon="3.82291">
        <ele>130.8</ele>
        <time>2017-10-24T11:46:29Z</time>
      </trkpt>
      <trkpt lat="43.64817" lon="3.82294">
        <ele>131.3</ele>
        <time>2017-10-24T11:46:31Z</time>
      </trkpt>
      <trkpt lat="43.64809" lon="3.82297">
        <ele>131.8</ele>
        <time>2017-10-24T11:46:33Z</time>
      </trkpt>
      <trkpt lat="43.64801" lon="3.82301">
        <ele>132.2</ele>
        <time>2017-10-24T11:46:36Z</time>
      </trkpt>
      <trkpt lat="43.64793" lon="3.82308">
        <ele>133.8</ele>
        <time>2017-10-24T11:46:38Z</time>
      </trkpt>
      <trkpt lat="43.64785" lon="3.82311">
        <ele>134.4</ele>
        <time>2017-10-24T11:46:41Z</time>
      </trkpt>
      <trkpt lat="43.64777" lon="3.82314">
        <ele>134.5</ele>
        <time>2017-10-24T11:46:42Z</time>
      </trkpt>
      <trkpt lat="43.6477" lon="3.82317">
        <ele>135</ele>
        <time>2017-10-24T11:46:44Z</time>
      </trkpt>
      <trkpt lat="43.64763" lon="3.82322">
        <ele>135.1</ele>
        <time>2017-10-24T11:46:47Z</time>
      </trkpt>
      <trkpt lat="43.64752" lon="3.82326">
        <ele>136.9</ele>
        <time>2017-10-24T11:46:49Z</time>
      </trkpt>
      <trkpt lat="43.64743" lon="3.82328">
        <ele>137.5</ele>
        <time>2017-10-24T11:46:52Z</time>
      </trkpt>
      <trkpt lat="43.64733" lon="3.8233">
        <ele>139</ele>
        <time>2017-10-24T11:46:55Z</time>
      </trkpt>
      <trkpt lat="43.64726" lon="3.82333">
        <ele>139.2</ele>
        <time>2017-10-24T11:46:56Z</time>
      </trkpt>
      <trkpt lat="43.64717" lon="3.82334">
        <ele>139.4</ele>
        <time>2017-10-24T11:46:59Z</time>
      </trkpt>
      <trkpt lat="43.64709" lon="3.82336">
        <ele>140.5</ele>
        <time>2017-10-24T11:47:01Z</time>
      </trkpt>
      <trkpt lat="43.647" lon="3.82332">
        <ele>140.6</ele>
        <time>2017-10-24T11:47:02Z</time>
      </trkpt>
      <trkpt lat="43.64691" lon="3.82325">
        <ele>140.9</ele>
        <time>2017-10-24T11:47:04Z</time>
      </trkpt>
      <trkpt lat="43.64683" lon="3.8232">
        <ele>140.9</ele>
        <time>2017-10-24T11:47:06Z</time>
      </trkpt>
      <trkpt lat="43.64675" lon="3.82318">
        <ele>140.8</ele>
        <time>2017-10-24T11:47:08Z</time>
      </trkpt>
      <trkpt lat="43.64666" lon="3.8232">
        <ele>140.7</ele>
        <time>2017-10-24T11:47:12Z</time>
      </trkpt>
      <trkpt lat="43.64657" lon="3.82324">
        <ele>140.7</ele>
        <time>2017-10-24T11:47:14Z</time>
      </trkpt>
      <trkpt lat="43.64648" lon="3.82327">
        <ele>140.8</ele>
        <time>2017-10-24T11:47:18Z</time>
      </trkpt>
      <trkpt lat="43.64639" lon="3.82328">
        <ele>140.9</ele>
        <time>2017-10-24T11:47:21Z</time>
      </trkpt>
      <trkpt lat="43.6463" lon="3.8233">
        <ele>141.1</ele>
        <time>2017-10-24T11:47:23Z</time>
      </trkpt>
      <trkpt lat="43.64621" lon="3.8233">
        <ele>141.3</ele>
        <time>2017-10-24T11:47:26Z</time>
      </trkpt>
      <trkpt lat="43.64614" lon="3.82329">
        <ele>141.4</ele>
        <time>2017-10-24T11:47:28Z</time>
      </trkpt>
      <trkpt lat="43.64606" lon="3.82329">
        <ele>141.7</ele>
        <time>2017-10-24T11:47:31Z</time>
      </trkpt>
      <trkpt lat="43.64598" lon="3.82328">
        <ele>141.9</ele>
        <time>2017-10-24T11:47:33Z</time>
      </trkpt>
      <trkpt lat="43.64589" lon="3.82326">
        <ele>142.6</ele>
        <time>2017-10-24T11:47:34Z</time>
      </trkpt>
      <trkpt lat="43.6458" lon="3.82324">
        <ele>143.2</ele>
        <time>2017-10-24T11:47:36Z</time>
      </trkpt>
      <trkpt lat="43.64573" lon="3.82321">
        <ele>143.9</ele>
        <time>2017-10-24T11:47:38Z</time>
      </trkpt>
      <trkpt lat="43.64564" lon="3.82318">
        <ele>144</ele>
        <time>2017-10-24T11:47:40Z</time>
      </trkpt>
      <trkpt lat="43.64555" lon="3.82314">
        <ele>143.9</ele>
        <time>2017-10-24T11:47:42Z</time>
      </trkpt>
      <trkpt lat="43.64546" lon="3.82311">
        <ele>144.1</ele>
        <time>2017-10-24T11:47:44Z</time>
      </trkpt>
      <trkpt lat="43.64537" lon="3.82309">
        <ele>144.4</ele>
        <time>2017-10-24T11:47:46Z</time>
      </trkpt>
      <trkpt lat="43.64527" lon="3.82308">
        <ele>144.5</ele>
        <time>2017-10-24T11:47:49Z</time>
      </trkpt>
      <trkpt lat="43.64518" lon="3.82305">
        <ele>144.9</ele>
        <time>2017-10-24T11:47:50Z</time>
      </trkpt>
      <trkpt lat="43.64509" lon="3.82304">
        <ele>145.5</ele>
        <time>2017-10-24T11:47:53Z</time>
      </trkpt>
      <trkpt lat="43.645" lon="3.82296">
        <ele>146.3</ele>
        <time>2017-10-24T11:47:54Z</time>
      </trkpt>
      <trkpt lat="43.6449" lon="3.82286">
        <ele>146.6</ele>
        <time>2017-10-24T11:47:56Z</time>
      </trkpt>
      <trkpt lat="43.64479" lon="3.82285">
        <ele>146.2</ele>
        <time>2017-10-24T11:47:58Z</time>
      </trkpt>
      <trkpt lat="43.64471" lon="3.82288">
        <ele>146.1</ele>
        <time>2017-10-24T11:48:01Z</time>
      </trkpt>
      <trkpt lat="43.64462" lon="3.82283">
        <ele>146.5</ele>
        <time>2017-10-24T11:48:04Z</time>
      </trkpt>
      <trkpt lat="43.64456" lon="3.82278">
        <ele>146.7</ele>
        <time>2017-10-24T11:48:05Z</time>
      </trkpt>
      <trkpt lat="43.64446" lon="3.82272">
        <ele>146.7</ele>
        <time>2017-10-24T11:48:08Z</time>
      </trkpt>
      <trkpt lat="43.6444" lon="3.82267">
        <ele>146.7</ele>
        <time>2017-10-24T11:48:10Z</time>
      </trkpt>
      <trkpt lat="43.64433" lon="3.82262">
        <ele>146.6</ele>
        <time>2017-10-24T11:48:12Z</time>
      </trkpt>
      <trkpt lat="43.64426" lon="3.82258">
        <ele>146.6</ele>
        <time>2017-10-24T11:48:14Z</time>
      </trkpt>
      <trkpt lat="43.6442" lon="3.82251">
        <ele>147</ele>
        <time>2017-10-24T11:48:17Z</time>
      </trkpt>
      <trkpt lat="43.64412" lon="3.82243">
        <ele>147.2</ele>
        <time>2017-10-24T11:48:20Z</time>
      </trkpt>
      <trkpt lat="43.64406" lon="3.8225">
        <ele>147.2</ele>
        <time>2017-10-24T11:48:23Z</time>
      </trkpt>
      <trkpt lat="43.64392" lon="3.82258">
        <ele>146.6</ele>
        <time>2017-10-24T11:48:27Z</time>
      </trkpt>
      <trkpt lat="43.64385" lon="3.82262">
        <ele>146.6</ele>
        <time>2017-10-24T11:48:29Z</time>
      </trkpt>
      <trkpt lat="43.64378" lon="3.82265">
        <ele>146.5</ele>
        <time>2017-10-24T11:48:31Z</time>
      </trkpt>
      <trkpt lat="43.64369" lon="3.82265">
        <ele>146.1</ele>
        <time>2017-10-24T11:48:38Z</time>
      </trkpt>
      <trkpt lat="43.64361" lon="3.82264">
        <ele>145.3</ele>
        <time>2017-10-24T11:48:40Z</time>
      </trkpt>
      <trkpt lat="43.64354" lon="3.82264">
        <ele>145.2</ele>
        <time>2017-10-24T11:48:41Z</time>
      </trkpt>
      <trkpt lat="43.64346" lon="3.82272">
        <ele>145.1</ele>
        <time>2017-10-24T11:48:45Z</time>
      </trkpt>
      <trkpt lat="43.64341" lon="3.8228">
        <ele>145</ele>
        <time>2017-10-24T11:48:46Z</time>
      </trkpt>
      <trkpt lat="43.64333" lon="3.82286">
        <ele>144.7</ele>
        <time>2017-10-24T11:48:49Z</time>
      </trkpt>
      <trkpt lat="43.64326" lon="3.8229">
        <ele>143.9</ele>
        <time>2017-10-24T11:48:51Z</time>
      </trkpt>
      <trkpt lat="43.64319" lon="3.82292">
        <ele>143.8</ele>
        <time>2017-10-24T11:48:53Z</time>
      </trkpt>
      <trkpt lat="43.64308" lon="3.82294">
        <ele>144</ele>
        <time>2017-10-24T11:48:56Z</time>
      </trkpt>
      <trkpt lat="43.64299" lon="3.82293">
        <ele>144.3</ele>
        <time>2017-10-24T11:48:59Z</time>
      </trkpt>
      <trkpt lat="43.64298" lon="3.82293">
        <ele>145.4</ele>
        <time>2017-10-24T11:49:06Z</time>
      </trkpt>
      <trkpt lat="43.64291" lon="3.82285">
        <ele>146</ele>
        <time>2017-10-24T11:49:08Z</time>
      </trkpt>
      <trkpt lat="43.64283" lon="3.82284">
        <ele>146.6</ele>
        <time>2017-10-24T11:49:11Z</time>
      </trkpt>
      <trkpt lat="43.64274" lon="3.82288">
        <ele>147.4</ele>
        <time>2017-10-24T11:49:14Z</time>
      </trkpt>
      <trkpt lat="43.64267" lon="3.8229">
        <ele>148.1</ele>
        <time>2017-10-24T11:49:16Z</time>
      </trkpt>
      <trkpt lat="43.64258" lon="3.82293">
        <ele>151.6</ele>
        <time>2017-10-24T11:49:19Z</time>
      </trkpt>
      <trkpt lat="43.6425" lon="3.82297">
        <ele>152.2</ele>
        <time>2017-10-24T11:49:21Z</time>
      </trkpt>
      <trkpt lat="43.64242" lon="3.82301">
        <ele>153.3</ele>
        <time>2017-10-24T11:49:24Z</time>
      </trkpt>
      <trkpt lat="43.64235" lon="3.82305">
        <ele>154.1</ele>
        <time>2017-10-24T11:49:25Z</time>
      </trkpt>
      <trkpt lat="43.64228" lon="3.82312">
        <ele>154.8</ele>
        <time>2017-10-24T11:49:27Z</time>
      </trkpt>
      <trkpt lat="43.64223" lon="3.82319">
        <ele>155.7</ele>
        <time>2017-10-24T11:49:29Z</time>
      </trkpt>
      <trkpt lat="43.64217" lon="3.82326">
        <ele>156.5</ele>
        <time>2017-10-24T11:49:32Z</time>
      </trkpt>
      <trkpt lat="43.64212" lon="3.82335">
        <ele>161.9</ele>
        <time>2017-10-24T11:49:33Z</time>
      </trkpt>
      <trkpt lat="43.64209" lon="3.82344">
        <ele>162.7</ele>
        <time>2017-10-24T11:49:35Z</time>
      </trkpt>
      <trkpt lat="43.64207" lon="3.82354">
        <ele>171.1</ele>
        <time>2017-10-24T11:49:40Z</time>
      </trkpt>
      <trkpt lat="43.64202" lon="3.82367">
        <ele>171.9</ele>
        <time>2017-10-24T11:49:43Z</time>
      </trkpt>
      <trkpt lat="43.64197" lon="3.82377">
        <ele>172.8</ele>
        <time>2017-10-24T11:49:47Z</time>
      </trkpt>
      <trkpt lat="43.64191" lon="3.8239">
        <ele>173.7</ele>
        <time>2017-10-24T11:49:49Z</time>
      </trkpt>
      <trkpt lat="43.64184" lon="3.824">
        <ele>176.8</ele>
        <time>2017-10-24T11:49:51Z</time>
      </trkpt>
      <trkpt lat="43.64177" lon="3.82412">
        <ele>178.3</ele>
        <time>2017-10-24T11:49:54Z</time>
      </trkpt>
      <trkpt lat="43.64172" lon="3.82424">
        <ele>178.3</ele>
        <time>2017-10-24T11:49:55Z</time>
      </trkpt>
      <trkpt lat="43.6417" lon="3.82436">
        <ele>178.4</ele>
        <time>2017-10-24T11:49:58Z</time>
      </trkpt>
      <trkpt lat="43.64168" lon="3.82452">
        <ele>179.4</ele>
        <time>2017-10-24T11:50:01Z</time>
      </trkpt>
      <trkpt lat="43.64167" lon="3.82464">
        <ele>179.6</ele>
        <time>2017-10-24T11:50:03Z</time>
      </trkpt>
      <trkpt lat="43.64164" lon="3.82475">
        <ele>180.2</ele>
        <time>2017-10-24T11:50:07Z</time>
      </trkpt>
      <trkpt lat="43.64163" lon="3.82489">
        <ele>180.5</ele>
        <time>2017-10-24T11:50:08Z</time>
      </trkpt>
      <trkpt lat="43.64157" lon="3.82499">
        <ele>180.7</ele>
        <time>2017-10-24T11:50:10Z</time>
      </trkpt>
      <trkpt lat="43.6415" lon="3.82512">
        <ele>180.7</ele>
        <time>2017-10-24T11:50:13Z</time>
      </trkpt>
      <trkpt lat="43.64143" lon="3.82531">
        <ele>180.2</ele>
        <time>2017-10-24T11:50:15Z</time>
      </trkpt>
      <trkpt lat="43.64137" lon="3.82549">
        <ele>178.6</ele>
        <time>2017-10-24T11:50:16Z</time>
      </trkpt>
      <trkpt lat="43.64129" lon="3.82566">
        <ele>176.9</ele>
        <time>2017-10-24T11:50:19Z</time>
      </trkpt>
      <trkpt lat="43.64125" lon="3.82576">
        <ele>176</ele>
        <time>2017-10-24T11:50:19Z</time>
      </trkpt>
      <trkpt lat="43.6412" lon="3.82586">
        <ele>175.4</ele>
        <time>2017-10-24T11:50:20Z</time>
      </trkpt>
      <trkpt lat="43.64113" lon="3.82604">
        <ele>173</ele>
        <time>2017-10-24T11:50:22Z</time>
      </trkpt>
      <trkpt lat="43.64108" lon="3.82613">
        <ele>172</ele>
        <time>2017-10-24T11:50:23Z</time>
      </trkpt>
      <trkpt lat="43.64104" lon="3.82623">
        <ele>170.5</ele>
        <time>2017-10-24T11:50:25Z</time>
      </trkpt>
      <trkpt lat="43.64101" lon="3.82641">
        <ele>167.5</ele>
        <time>2017-10-24T11:50:27Z</time>
      </trkpt>
      <trkpt lat="43.64097" lon="3.8265">
        <ele>165.9</ele>
        <time>2017-10-24T11:50:28Z</time>
      </trkpt>
      <trkpt lat="43.64091" lon="3.82658">
        <ele>164.7</ele>
        <time>2017-10-24T11:50:28Z</time>
      </trkpt>
      <trkpt lat="43.64086" lon="3.82669">
        <ele>163.3</ele>
        <time>2017-10-24T11:50:29Z</time>
      </trkpt>
      <trkpt lat="43.64081" lon="3.8268">
        <ele>161.9</ele>
        <time>2017-10-24T11:50:30Z</time>
      </trkpt>
      <trkpt lat="43.64076" lon="3.82692">
        <ele>160.1</ele>
        <time>2017-10-24T11:50:32Z</time>
      </trkpt>
      <trkpt lat="43.64074" lon="3.82703">
        <ele>158.7</ele>
        <time>2017-10-24T11:50:32Z</time>
      </trkpt>
      <trkpt lat="43.64067" lon="3.82713">
        <ele>157.2</ele>
        <time>2017-10-24T11:50:33Z</time>
      </trkpt>
      <trkpt lat="43.64059" lon="3.82722">
        <ele>155.9</ele>
        <time>2017-10-24T11:50:34Z</time>
      </trkpt>
      <trkpt lat="43.64053" lon="3.82731">
        <ele>154.6</ele>
        <time>2017-10-24T11:50:36Z</time>
      </trkpt>
      <trkpt lat="43.64049" lon="3.82744">
        <ele>153.6</ele>
        <time>2017-10-24T11:50:36Z</time>
      </trkpt>
      <trkpt lat="43.64045" lon="3.82753">
        <ele>152.6</ele>
        <time>2017-10-24T11:50:37Z</time>
      </trkpt>
      <trkpt lat="43.64041" lon="3.82762">
        <ele>151.8</ele>
        <time>2017-10-24T11:50:38Z</time>
      </trkpt>
      <trkpt lat="43.64035" lon="3.82771">
        <ele>151.1</ele>
        <time>2017-10-24T11:50:39Z</time>
      </trkpt>
      <trkpt lat="43.64027" lon="3.82784">
        <ele>149.3</ele>
        <time>2017-10-24T11:50:41Z</time>
      </trkpt>
      <trkpt lat="43.6402" lon="3.82792">
        <ele>148.1</ele>
        <time>2017-10-24T11:50:43Z</time>
      </trkpt>
      <trkpt lat="43.6401" lon="3.82794">
        <ele>146.3</ele>
        <time>2017-10-24T11:50:45Z</time>
      </trkpt>
      <trkpt lat="43.64002" lon="3.82795">
        <ele>145.5</ele>
        <time>2017-10-24T11:50:46Z</time>
      </trkpt>
      <trkpt lat="43.63993" lon="3.82798">
        <ele>144.3</ele>
        <time>2017-10-24T11:50:48Z</time>
      </trkpt>
      <trkpt lat="43.63982" lon="3.82802">
        <ele>142.9</ele>
        <time>2017-10-24T11:50:49Z</time>
      </trkpt>
      <trkpt lat="43.63969" lon="3.82809">
        <ele>141.2</ele>
        <time>2017-10-24T11:50:51Z</time>
      </trkpt>
      <trkpt lat="43.63961" lon="3.82819">
        <ele>139.7</ele>
        <time>2017-10-24T11:50:53Z</time>
      </trkpt>
      <trkpt lat="43.63952" lon="3.82823">
        <ele>139.1</ele>
        <time>2017-10-24T11:50:56Z</time>
      </trkpt>
      <trkpt lat="43.6394" lon="3.8283">
        <ele>137.9</ele>
        <time>2017-10-24T11:50:57Z</time>
      </trkpt>
      <trkpt lat="43.63929" lon="3.82829">
        <ele>136.9</ele>
        <time>2017-10-24T11:50:59Z</time>
      </trkpt>
      <trkpt lat="43.63918" lon="3.82822">
        <ele>136.7</ele>
        <time>2017-10-24T11:51:01Z</time>
      </trkpt>
      <trkpt lat="43.63909" lon="3.82817">
        <ele>136.2</ele>
        <time>2017-10-24T11:51:03Z</time>
      </trkpt>
      <trkpt lat="43.63898" lon="3.82813">
        <ele>135.6</ele>
        <time>2017-10-24T11:51:06Z</time>
      </trkpt>
      <trkpt lat="43.63891" lon="3.82806">
        <ele>135</ele>
        <time>2017-10-24T11:51:09Z</time>
      </trkpt>
      <trkpt lat="43.63885" lon="3.82799">
        <ele>134.6</ele>
        <time>2017-10-24T11:51:11Z</time>
      </trkpt>
      <trkpt lat="43.63878" lon="3.82793">
        <ele>132.2</ele>
        <time>2017-10-24T11:51:13Z</time>
      </trkpt>
      <trkpt lat="43.63872" lon="3.828">
        <ele>131.5</ele>
        <time>2017-10-24T11:51:15Z</time>
      </trkpt>
      <trkpt lat="43.63865" lon="3.82803">
        <ele>131.3</ele>
        <time>2017-10-24T11:51:17Z</time>
      </trkpt>
      <trkpt lat="43.63856" lon="3.82807">
        <ele>131.2</ele>
        <time>2017-10-24T11:51:20Z</time>
      </trkpt>
      <trkpt lat="43.63844" lon="3.8281">
        <ele>131.4</ele>
        <time>2017-10-24T11:51:21Z</time>
      </trkpt>
      <trkpt lat="43.63837" lon="3.82807">
        <ele>130.9</ele>
        <time>2017-10-24T11:51:23Z</time>
      </trkpt>
      <trkpt lat="43.63826" lon="3.82803">
        <ele>130</ele>
        <time>2017-10-24T11:51:24Z</time>
      </trkpt>
      <trkpt lat="43.63817" lon="3.82806">
        <ele>129.8</ele>
        <time>2017-10-24T11:51:26Z</time>
      </trkpt>
      <trkpt lat="43.63806" lon="3.82813">
        <ele>129.3</ele>
        <time>2017-10-24T11:51:29Z</time>
      </trkpt>
      <trkpt lat="43.63794" lon="3.82818">
        <ele>128.5</ele>
        <time>2017-10-24T11:51:30Z</time>
      </trkpt>
      <trkpt lat="43.63787" lon="3.82822">
        <ele>128.5</ele>
        <time>2017-10-24T11:51:33Z</time>
      </trkpt>
      <trkpt lat="43.63781" lon="3.82828">
        <ele>128.4</ele>
        <time>2017-10-24T11:51:38Z</time>
      </trkpt>
      <trkpt lat="43.63784" lon="3.82839">
        <ele>128.4</ele>
        <time>2017-10-24T11:51:41Z</time>
      </trkpt>
      <trkpt lat="43.63785" lon="3.82849">
        <ele>128.2</ele>
        <time>2017-10-24T11:51:44Z</time>
      </trkpt>
      <trkpt lat="43.63784" lon="3.82853">
        <ele>128.3</ele>
        <time>2017-10-24T11:51:51Z</time>
      </trkpt>
      <trkpt lat="43.63776" lon="3.8286">
        <ele>128.5</ele>
        <time>2017-10-24T11:52:16Z</time>
      </trkpt>
    </trkseg>
  </trk>
</gpx>